<?xml version="1.0" encoding="UTF-8" standalone="no" ?>
<gpx xmlns="http://www.topografix.com/GPX/1/1" xmlns:xsi="http://www.w3.org/2001/XMLSchema-instance" xsi:schemaLocation="http://www.topografix.com/GPX/1/1 http://www.topografix.com/GPX/1/1/gpx.xsd" version="1.1" creator="VisuGPX - https://www.visugpx.com">
  <metadata>
    <name>Serre de Créma</name>
    <desc><![CDATA[le 28 avril 2022]]></desc>
  </metadata>
  <trk>
    <name><![CDATA[Serre de Créma_1]]></name>
    <trkseg>
      <trkpt lat="44.47813" lon="5.2212">
        <ele>663.4</ele>
        <time>2022-04-28T07:00:32Z</time>
      </trkpt>
      <trkpt lat="44.47813" lon="5.22119">
        <ele>663.6</ele>
        <time>2022-04-28T07:00:33Z</time>
      </trkpt>
      <trkpt lat="44.47815" lon="5.22103">
        <ele>663.8</ele>
        <time>2022-04-28T07:00:46Z</time>
      </trkpt>
      <trkpt lat="44.47814" lon="5.22098">
        <ele>663.8</ele>
        <time>2022-04-28T07:00:51Z</time>
      </trkpt>
      <trkpt lat="44.47807" lon="5.22086">
        <ele>663.8</ele>
        <time>2022-04-28T07:01:00Z</time>
      </trkpt>
      <trkpt lat="44.47788" lon="5.22067">
        <ele>662.6</ele>
        <time>2022-04-28T07:01:18Z</time>
      </trkpt>
      <trkpt lat="44.47774" lon="5.22053">
        <ele>661.6</ele>
        <time>2022-04-28T07:01:34Z</time>
      </trkpt>
      <trkpt lat="44.47765" lon="5.22032">
        <ele>661.2</ele>
        <time>2022-04-28T07:01:50Z</time>
      </trkpt>
      <trkpt lat="44.47765" lon="5.2203">
        <ele>661.2</ele>
        <time>2022-04-28T07:01:52Z</time>
      </trkpt>
      <trkpt lat="44.47769" lon="5.22011">
        <ele>660.8</ele>
        <time>2022-04-28T07:02:11Z</time>
      </trkpt>
      <trkpt lat="44.47767" lon="5.22002">
        <ele>660.8</ele>
        <time>2022-04-28T07:02:19Z</time>
      </trkpt>
      <trkpt lat="44.47766" lon="5.21998">
        <ele>660.8</ele>
        <time>2022-04-28T07:02:22Z</time>
      </trkpt>
      <trkpt lat="44.47753" lon="5.21978">
        <ele>659.6</ele>
        <time>2022-04-28T07:02:39Z</time>
      </trkpt>
      <trkpt lat="44.47751" lon="5.21975">
        <ele>659.2</ele>
        <time>2022-04-28T07:02:46Z</time>
      </trkpt>
      <trkpt lat="44.47748" lon="5.2197">
        <ele>659</ele>
        <time>2022-04-28T07:02:52Z</time>
      </trkpt>
      <trkpt lat="44.47738" lon="5.21943">
        <ele>658.8</ele>
        <time>2022-04-28T07:03:10Z</time>
      </trkpt>
      <trkpt lat="44.4773" lon="5.21924">
        <ele>659.2</ele>
        <time>2022-04-28T07:03:24Z</time>
      </trkpt>
      <trkpt lat="44.47727" lon="5.21919">
        <ele>659.4</ele>
        <time>2022-04-28T07:03:29Z</time>
      </trkpt>
      <trkpt lat="44.47725" lon="5.21911">
        <ele>659.8</ele>
        <time>2022-04-28T07:03:34Z</time>
      </trkpt>
      <trkpt lat="44.47718" lon="5.21892">
        <ele>661.4</ele>
        <time>2022-04-28T07:03:47Z</time>
      </trkpt>
      <trkpt lat="44.47709" lon="5.21874">
        <ele>663.6</ele>
        <time>2022-04-28T07:04:02Z</time>
      </trkpt>
      <trkpt lat="44.47704" lon="5.21865">
        <ele>664.8</ele>
        <time>2022-04-28T07:04:09Z</time>
      </trkpt>
      <trkpt lat="44.477" lon="5.21852">
        <ele>664.8</ele>
        <time>2022-04-28T07:04:17Z</time>
      </trkpt>
      <trkpt lat="44.47699" lon="5.21847">
        <ele>664.8</ele>
        <time>2022-04-28T07:04:20Z</time>
      </trkpt>
      <trkpt lat="44.47696" lon="5.21838">
        <ele>664.4</ele>
        <time>2022-04-28T07:04:26Z</time>
      </trkpt>
      <trkpt lat="44.47682" lon="5.21821">
        <ele>663.6</ele>
        <time>2022-04-28T07:04:40Z</time>
      </trkpt>
      <trkpt lat="44.47673" lon="5.2181">
        <ele>662.8</ele>
        <time>2022-04-28T07:04:53Z</time>
      </trkpt>
      <trkpt lat="44.47667" lon="5.21803">
        <ele>661.8</ele>
        <time>2022-04-28T07:05:06Z</time>
      </trkpt>
      <trkpt lat="44.4766" lon="5.21796">
        <ele>661</ele>
        <time>2022-04-28T07:05:16Z</time>
      </trkpt>
      <trkpt lat="44.47651" lon="5.21788">
        <ele>660.6</ele>
        <time>2022-04-28T07:05:24Z</time>
      </trkpt>
      <trkpt lat="44.47649" lon="5.21787">
        <ele>660.4</ele>
        <time>2022-04-28T07:05:26Z</time>
      </trkpt>
      <trkpt lat="44.47646" lon="5.21785">
        <ele>660.2</ele>
        <time>2022-04-28T07:05:28Z</time>
      </trkpt>
      <trkpt lat="44.47636" lon="5.21778">
        <ele>659.6</ele>
        <time>2022-04-28T07:05:36Z</time>
      </trkpt>
      <trkpt lat="44.47623" lon="5.21772">
        <ele>659.2</ele>
        <time>2022-04-28T07:05:44Z</time>
      </trkpt>
      <trkpt lat="44.47615" lon="5.21768">
        <ele>658.8</ele>
        <time>2022-04-28T07:05:50Z</time>
      </trkpt>
      <trkpt lat="44.47608" lon="5.21763">
        <ele>658.4</ele>
        <time>2022-04-28T07:05:56Z</time>
      </trkpt>
      <trkpt lat="44.476" lon="5.21759">
        <ele>658</ele>
        <time>2022-04-28T07:06:01Z</time>
      </trkpt>
      <trkpt lat="44.47595" lon="5.21756">
        <ele>658</ele>
        <time>2022-04-28T07:06:05Z</time>
      </trkpt>
      <trkpt lat="44.47587" lon="5.21752">
        <ele>657.6</ele>
        <time>2022-04-28T07:06:10Z</time>
      </trkpt>
      <trkpt lat="44.47584" lon="5.2175">
        <ele>657.6</ele>
        <time>2022-04-28T07:06:13Z</time>
      </trkpt>
      <trkpt lat="44.4758" lon="5.21749">
        <ele>657.4</ele>
        <time>2022-04-28T07:06:16Z</time>
      </trkpt>
      <trkpt lat="44.47574" lon="5.21747">
        <ele>657</ele>
        <time>2022-04-28T07:06:24Z</time>
      </trkpt>
      <trkpt lat="44.47569" lon="5.21745">
        <ele>656.4</ele>
        <time>2022-04-28T07:06:28Z</time>
      </trkpt>
      <trkpt lat="44.47565" lon="5.21743">
        <ele>656.2</ele>
        <time>2022-04-28T07:06:32Z</time>
      </trkpt>
      <trkpt lat="44.4757" lon="5.21721">
        <ele>655.2</ele>
        <time>2022-04-28T07:06:43Z</time>
      </trkpt>
      <trkpt lat="44.47564" lon="5.21724">
        <ele>655.2</ele>
        <time>2022-04-28T07:06:58Z</time>
      </trkpt>
      <trkpt lat="44.47566" lon="5.21731">
        <ele>655.2</ele>
        <time>2022-04-28T07:07:19Z</time>
      </trkpt>
      <trkpt lat="44.47566" lon="5.2173">
        <ele>655.2</ele>
        <time>2022-04-28T07:07:22Z</time>
      </trkpt>
      <trkpt lat="44.47592" lon="5.21725">
        <ele>655.2</ele>
        <time>2022-04-28T07:07:44Z</time>
      </trkpt>
      <trkpt lat="44.47569" lon="5.21738">
        <ele>655.2</ele>
        <time>2022-04-28T07:07:53Z</time>
      </trkpt>
      <trkpt lat="44.47559" lon="5.21737">
        <ele>654.4</ele>
        <time>2022-04-28T07:08:07Z</time>
      </trkpt>
      <trkpt lat="44.47547" lon="5.21734">
        <ele>653.4</ele>
        <time>2022-04-28T07:08:23Z</time>
      </trkpt>
      <trkpt lat="44.47541" lon="5.21735">
        <ele>652.2</ele>
        <time>2022-04-28T07:08:37Z</time>
      </trkpt>
      <trkpt lat="44.47536" lon="5.21738">
        <ele>651.2</ele>
        <time>2022-04-28T07:08:54Z</time>
      </trkpt>
      <trkpt lat="44.47495" lon="5.21697">
        <ele>650.4</ele>
        <time>2022-04-28T07:09:07Z</time>
      </trkpt>
      <trkpt lat="44.47469" lon="5.2167">
        <ele>649.6</ele>
        <time>2022-04-28T07:09:20Z</time>
      </trkpt>
      <trkpt lat="44.47464" lon="5.21665">
        <ele>649.4</ele>
        <time>2022-04-28T07:09:24Z</time>
      </trkpt>
      <trkpt lat="44.47446" lon="5.21655">
        <ele>648.4</ele>
        <time>2022-04-28T07:09:38Z</time>
      </trkpt>
      <trkpt lat="44.47431" lon="5.21643">
        <ele>647.6</ele>
        <time>2022-04-28T07:09:51Z</time>
      </trkpt>
      <trkpt lat="44.47425" lon="5.21634">
        <ele>647.2</ele>
        <time>2022-04-28T07:09:56Z</time>
      </trkpt>
      <trkpt lat="44.47418" lon="5.21624">
        <ele>646.8</ele>
        <time>2022-04-28T07:10:02Z</time>
      </trkpt>
      <trkpt lat="44.47414" lon="5.21614">
        <ele>645.8</ele>
        <time>2022-04-28T07:10:16Z</time>
      </trkpt>
      <trkpt lat="44.47407" lon="5.216">
        <ele>645</ele>
        <time>2022-04-28T07:10:30Z</time>
      </trkpt>
      <trkpt lat="44.47393" lon="5.2158">
        <ele>643.6</ele>
        <time>2022-04-28T07:10:47Z</time>
      </trkpt>
      <trkpt lat="44.47373" lon="5.21564">
        <ele>642.8</ele>
        <time>2022-04-28T07:11:04Z</time>
      </trkpt>
      <trkpt lat="44.47364" lon="5.21555">
        <ele>642</ele>
        <time>2022-04-28T07:11:12Z</time>
      </trkpt>
      <trkpt lat="44.47359" lon="5.21549">
        <ele>641.8</ele>
        <time>2022-04-28T07:11:16Z</time>
      </trkpt>
      <trkpt lat="44.47339" lon="5.21528">
        <ele>640.2</ele>
        <time>2022-04-28T07:11:36Z</time>
      </trkpt>
      <trkpt lat="44.47324" lon="5.21521">
        <ele>639.2</ele>
        <time>2022-04-28T07:11:51Z</time>
      </trkpt>
      <trkpt lat="44.47321" lon="5.2152">
        <ele>639.2</ele>
        <time>2022-04-28T07:11:53Z</time>
      </trkpt>
      <trkpt lat="44.47315" lon="5.21519">
        <ele>638.8</ele>
        <time>2022-04-28T07:11:59Z</time>
      </trkpt>
      <trkpt lat="44.47293" lon="5.21509">
        <ele>638</ele>
        <time>2022-04-28T07:12:19Z</time>
      </trkpt>
      <trkpt lat="44.47286" lon="5.21501">
        <ele>637.4</ele>
        <time>2022-04-28T07:12:28Z</time>
      </trkpt>
      <trkpt lat="44.47281" lon="5.21495">
        <ele>636.8</ele>
        <time>2022-04-28T07:12:36Z</time>
      </trkpt>
      <trkpt lat="44.47283" lon="5.21498">
        <ele>636.2</ele>
        <time>2022-04-28T07:12:57Z</time>
      </trkpt>
      <trkpt lat="44.47286" lon="5.21495">
        <ele>636.2</ele>
        <time>2022-04-28T07:13:25Z</time>
      </trkpt>
      <trkpt lat="44.47285" lon="5.21499">
        <ele>636.2</ele>
        <time>2022-04-28T07:13:52Z</time>
      </trkpt>
      <trkpt lat="44.47287" lon="5.21497">
        <ele>636.2</ele>
        <time>2022-04-28T07:14:14Z</time>
      </trkpt>
      <trkpt lat="44.47291" lon="5.21498">
        <ele>636.4</ele>
        <time>2022-04-28T07:14:34Z</time>
      </trkpt>
      <trkpt lat="44.47296" lon="5.215">
        <ele>636.4</ele>
        <time>2022-04-28T07:14:40Z</time>
      </trkpt>
      <trkpt lat="44.4731" lon="5.21528">
        <ele>637.2</ele>
        <time>2022-04-28T07:15:01Z</time>
      </trkpt>
      <trkpt lat="44.47322" lon="5.21529">
        <ele>637.8</ele>
        <time>2022-04-28T07:15:13Z</time>
      </trkpt>
      <trkpt lat="44.47345" lon="5.21539">
        <ele>638.8</ele>
        <time>2022-04-28T07:15:37Z</time>
      </trkpt>
      <trkpt lat="44.47352" lon="5.21543">
        <ele>639.2</ele>
        <time>2022-04-28T07:15:50Z</time>
      </trkpt>
      <trkpt lat="44.47361" lon="5.21556">
        <ele>640</ele>
        <time>2022-04-28T07:16:07Z</time>
      </trkpt>
      <trkpt lat="44.47377" lon="5.2157">
        <ele>641</ele>
        <time>2022-04-28T07:16:27Z</time>
      </trkpt>
      <trkpt lat="44.47393" lon="5.21587">
        <ele>642.2</ele>
        <time>2022-04-28T07:16:45Z</time>
      </trkpt>
      <trkpt lat="44.47412" lon="5.21609">
        <ele>643.6</ele>
        <time>2022-04-28T07:17:07Z</time>
      </trkpt>
      <trkpt lat="44.4742" lon="5.21616">
        <ele>644.4</ele>
        <time>2022-04-28T07:17:17Z</time>
      </trkpt>
      <trkpt lat="44.47422" lon="5.21617">
        <ele>644.6</ele>
        <time>2022-04-28T07:17:21Z</time>
      </trkpt>
      <trkpt lat="44.47422" lon="5.21614">
        <ele>644.6</ele>
        <time>2022-04-28T07:17:23Z</time>
      </trkpt>
      <trkpt lat="44.47429" lon="5.21623">
        <ele>645.2</ele>
        <time>2022-04-28T07:17:51Z</time>
      </trkpt>
      <trkpt lat="44.47436" lon="5.21633">
        <ele>645.6</ele>
        <time>2022-04-28T07:18:01Z</time>
      </trkpt>
      <trkpt lat="44.47436" lon="5.21633">
        <ele>646.4</ele>
        <time>2022-04-28T07:18:14Z</time>
      </trkpt>
      <trkpt lat="44.47431" lon="5.21633">
        <ele>646.4</ele>
        <time>2022-04-28T07:18:39Z</time>
      </trkpt>
      <trkpt lat="44.47435" lon="5.21632">
        <ele>646.2</ele>
        <time>2022-04-28T07:19:06Z</time>
      </trkpt>
      <trkpt lat="44.47453" lon="5.21659">
        <ele>647.2</ele>
        <time>2022-04-28T07:19:28Z</time>
      </trkpt>
      <trkpt lat="44.47462" lon="5.21666">
        <ele>648</ele>
        <time>2022-04-28T07:19:37Z</time>
      </trkpt>
      <trkpt lat="44.47478" lon="5.21674">
        <ele>649</ele>
        <time>2022-04-28T07:19:53Z</time>
      </trkpt>
      <trkpt lat="44.47487" lon="5.21678">
        <ele>649.4</ele>
        <time>2022-04-28T07:20:01Z</time>
      </trkpt>
      <trkpt lat="44.47507" lon="5.21682">
        <ele>650.2</ele>
        <time>2022-04-28T07:20:16Z</time>
      </trkpt>
      <trkpt lat="44.47512" lon="5.21688">
        <ele>650.4</ele>
        <time>2022-04-28T07:20:22Z</time>
      </trkpt>
      <trkpt lat="44.47514" lon="5.21691">
        <ele>650.6</ele>
        <time>2022-04-28T07:20:25Z</time>
      </trkpt>
      <trkpt lat="44.47525" lon="5.21697">
        <ele>651.2</ele>
        <time>2022-04-28T07:20:35Z</time>
      </trkpt>
      <trkpt lat="44.47526" lon="5.21699">
        <ele>651.4</ele>
        <time>2022-04-28T07:20:37Z</time>
      </trkpt>
      <trkpt lat="44.47533" lon="5.21705">
        <ele>652</ele>
        <time>2022-04-28T07:20:45Z</time>
      </trkpt>
      <trkpt lat="44.47546" lon="5.21712">
        <ele>652.4</ele>
        <time>2022-04-28T07:20:54Z</time>
      </trkpt>
      <trkpt lat="44.4756" lon="5.21721">
        <ele>653.4</ele>
        <time>2022-04-28T07:21:07Z</time>
      </trkpt>
      <trkpt lat="44.47578" lon="5.21727">
        <ele>654.6</ele>
        <time>2022-04-28T07:21:20Z</time>
      </trkpt>
      <trkpt lat="44.47581" lon="5.21729">
        <ele>654.8</ele>
        <time>2022-04-28T07:21:23Z</time>
      </trkpt>
      <trkpt lat="44.47595" lon="5.21736">
        <ele>655.8</ele>
        <time>2022-04-28T07:21:35Z</time>
      </trkpt>
      <trkpt lat="44.47611" lon="5.2175">
        <ele>657</ele>
        <time>2022-04-28T07:21:52Z</time>
      </trkpt>
      <trkpt lat="44.47625" lon="5.21765">
        <ele>657.8</ele>
        <time>2022-04-28T07:22:05Z</time>
      </trkpt>
      <trkpt lat="44.47641" lon="5.21779">
        <ele>659.2</ele>
        <time>2022-04-28T07:22:25Z</time>
      </trkpt>
      <trkpt lat="44.47652" lon="5.21788">
        <ele>659.8</ele>
        <time>2022-04-28T07:22:39Z</time>
      </trkpt>
      <trkpt lat="44.47668" lon="5.21804">
        <ele>660.6</ele>
        <time>2022-04-28T07:22:56Z</time>
      </trkpt>
      <trkpt lat="44.47671" lon="5.21807">
        <ele>661.4</ele>
        <time>2022-04-28T07:23:09Z</time>
      </trkpt>
      <trkpt lat="44.47678" lon="5.21815">
        <ele>661.8</ele>
        <time>2022-04-28T07:23:26Z</time>
      </trkpt>
      <trkpt lat="44.4768" lon="5.21816">
        <ele>661.8</ele>
        <time>2022-04-28T07:23:28Z</time>
      </trkpt>
      <trkpt lat="44.47682" lon="5.21823">
        <ele>662.2</ele>
        <time>2022-04-28T07:23:36Z</time>
      </trkpt>
      <trkpt lat="44.47686" lon="5.21833">
        <ele>662.4</ele>
        <time>2022-04-28T07:23:44Z</time>
      </trkpt>
      <trkpt lat="44.47688" lon="5.21842">
        <ele>662.8</ele>
        <time>2022-04-28T07:23:50Z</time>
      </trkpt>
      <trkpt lat="44.47691" lon="5.21852">
        <ele>663.4</ele>
        <time>2022-04-28T07:23:58Z</time>
      </trkpt>
      <trkpt lat="44.47697" lon="5.21865">
        <ele>663.8</ele>
        <time>2022-04-28T07:24:09Z</time>
      </trkpt>
      <trkpt lat="44.47697" lon="5.21867">
        <ele>663.8</ele>
        <time>2022-04-28T07:24:11Z</time>
      </trkpt>
      <trkpt lat="44.47703" lon="5.21882">
        <ele>664.8</ele>
        <time>2022-04-28T07:24:25Z</time>
      </trkpt>
      <trkpt lat="44.47709" lon="5.21888">
        <ele>664.4</ele>
        <time>2022-04-28T07:24:39Z</time>
      </trkpt>
      <trkpt lat="44.47714" lon="5.21898">
        <ele>663.4</ele>
        <time>2022-04-28T07:24:48Z</time>
      </trkpt>
      <trkpt lat="44.47718" lon="5.21911">
        <ele>662</ele>
        <time>2022-04-28T07:24:59Z</time>
      </trkpt>
      <trkpt lat="44.47724" lon="5.21917">
        <ele>661</ele>
        <time>2022-04-28T07:25:08Z</time>
      </trkpt>
      <trkpt lat="44.47729" lon="5.21918">
        <ele>660.8</ele>
        <time>2022-04-28T07:25:13Z</time>
      </trkpt>
      <trkpt lat="44.47736" lon="5.21934">
        <ele>659.2</ele>
        <time>2022-04-28T07:25:25Z</time>
      </trkpt>
      <trkpt lat="44.47738" lon="5.21967">
        <ele>658.8</ele>
        <time>2022-04-28T07:25:36Z</time>
      </trkpt>
      <trkpt lat="44.47742" lon="5.21979">
        <ele>658.8</ele>
        <time>2022-04-28T07:25:43Z</time>
      </trkpt>
      <trkpt lat="44.47743" lon="5.21981">
        <ele>658.8</ele>
        <time>2022-04-28T07:25:44Z</time>
      </trkpt>
      <trkpt lat="44.4775" lon="5.21999">
        <ele>658.8</ele>
        <time>2022-04-28T07:25:57Z</time>
      </trkpt>
      <trkpt lat="44.47753" lon="5.22007">
        <ele>659.4</ele>
        <time>2022-04-28T07:26:05Z</time>
      </trkpt>
      <trkpt lat="44.47752" lon="5.22018">
        <ele>660</ele>
        <time>2022-04-28T07:26:14Z</time>
      </trkpt>
      <trkpt lat="44.47748" lon="5.22025">
        <ele>660.6</ele>
        <time>2022-04-28T07:26:25Z</time>
      </trkpt>
      <trkpt lat="44.47742" lon="5.22051">
        <ele>661</ele>
        <time>2022-04-28T07:26:36Z</time>
      </trkpt>
      <trkpt lat="44.47734" lon="5.22078">
        <ele>662.2</ele>
        <time>2022-04-28T07:26:52Z</time>
      </trkpt>
      <trkpt lat="44.47728" lon="5.22096">
        <ele>663.2</ele>
        <time>2022-04-28T07:27:04Z</time>
      </trkpt>
      <trkpt lat="44.47723" lon="5.22116">
        <ele>664.8</ele>
        <time>2022-04-28T07:27:18Z</time>
      </trkpt>
      <trkpt lat="44.47719" lon="5.22133">
        <ele>665.8</ele>
        <time>2022-04-28T07:27:30Z</time>
      </trkpt>
      <trkpt lat="44.47718" lon="5.22155">
        <ele>667.4</ele>
        <time>2022-04-28T07:27:47Z</time>
      </trkpt>
      <trkpt lat="44.47721" lon="5.22173">
        <ele>668.8</ele>
        <time>2022-04-28T07:28:01Z</time>
      </trkpt>
      <trkpt lat="44.47718" lon="5.22199">
        <ele>670.8</ele>
        <time>2022-04-28T07:28:18Z</time>
      </trkpt>
      <trkpt lat="44.47712" lon="5.22222">
        <ele>672.4</ele>
        <time>2022-04-28T07:28:35Z</time>
      </trkpt>
      <trkpt lat="44.47707" lon="5.22243">
        <ele>673.8</ele>
        <time>2022-04-28T07:28:49Z</time>
      </trkpt>
      <trkpt lat="44.47702" lon="5.22259">
        <ele>675</ele>
        <time>2022-04-28T07:29:01Z</time>
      </trkpt>
      <trkpt lat="44.47699" lon="5.22271">
        <ele>676.2</ele>
        <time>2022-04-28T07:29:13Z</time>
      </trkpt>
      <trkpt lat="44.47699" lon="5.2227">
        <ele>676.8</ele>
        <time>2022-04-28T07:29:26Z</time>
      </trkpt>
      <trkpt lat="44.47696" lon="5.2227">
        <ele>676.8</ele>
        <time>2022-04-28T07:29:38Z</time>
      </trkpt>
      <trkpt lat="44.47694" lon="5.22273">
        <ele>676.8</ele>
        <time>2022-04-28T07:29:48Z</time>
      </trkpt>
      <trkpt lat="44.47705" lon="5.22275">
        <ele>676</ele>
        <time>2022-04-28T07:30:02Z</time>
      </trkpt>
      <trkpt lat="44.47704" lon="5.22273">
        <ele>676</ele>
        <time>2022-04-28T07:30:25Z</time>
      </trkpt>
      <trkpt lat="44.47702" lon="5.22273">
        <ele>676.4</ele>
        <time>2022-04-28T07:30:35Z</time>
      </trkpt>
      <trkpt lat="44.47701" lon="5.22272">
        <ele>676.6</ele>
        <time>2022-04-28T07:30:45Z</time>
      </trkpt>
      <trkpt lat="44.47701" lon="5.22276">
        <ele>676.8</ele>
        <time>2022-04-28T07:30:55Z</time>
      </trkpt>
      <trkpt lat="44.47701" lon="5.22282">
        <ele>677.2</ele>
        <time>2022-04-28T07:31:11Z</time>
      </trkpt>
      <trkpt lat="44.47698" lon="5.22306">
        <ele>678</ele>
        <time>2022-04-28T07:31:27Z</time>
      </trkpt>
      <trkpt lat="44.47698" lon="5.22307">
        <ele>678.2</ele>
        <time>2022-04-28T07:31:28Z</time>
      </trkpt>
      <trkpt lat="44.47688" lon="5.22342">
        <ele>680.2</ele>
        <time>2022-04-28T07:31:49Z</time>
      </trkpt>
      <trkpt lat="44.47689" lon="5.22352">
        <ele>681.2</ele>
        <time>2022-04-28T07:31:57Z</time>
      </trkpt>
      <trkpt lat="44.47687" lon="5.22369">
        <ele>683.2</ele>
        <time>2022-04-28T07:32:12Z</time>
      </trkpt>
      <trkpt lat="44.47684" lon="5.22372">
        <ele>683.8</ele>
        <time>2022-04-28T07:32:18Z</time>
      </trkpt>
      <trkpt lat="44.477" lon="5.224">
        <ele>685.2</ele>
        <time>2022-04-28T07:32:29Z</time>
      </trkpt>
      <trkpt lat="44.47699" lon="5.22405">
        <ele>685.6</ele>
        <time>2022-04-28T07:32:33Z</time>
      </trkpt>
      <trkpt lat="44.47699" lon="5.22414">
        <ele>686.6</ele>
        <time>2022-04-28T07:32:40Z</time>
      </trkpt>
      <trkpt lat="44.47701" lon="5.22424">
        <ele>687</ele>
        <time>2022-04-28T07:32:46Z</time>
      </trkpt>
      <trkpt lat="44.47694" lon="5.22436">
        <ele>688</ele>
        <time>2022-04-28T07:32:57Z</time>
      </trkpt>
      <trkpt lat="44.47691" lon="5.22446">
        <ele>689</ele>
        <time>2022-04-28T07:33:07Z</time>
      </trkpt>
      <trkpt lat="44.47686" lon="5.22457">
        <ele>690.2</ele>
        <time>2022-04-28T07:33:19Z</time>
      </trkpt>
      <trkpt lat="44.47686" lon="5.22471">
        <ele>691.2</ele>
        <time>2022-04-28T07:33:29Z</time>
      </trkpt>
      <trkpt lat="44.47686" lon="5.22481">
        <ele>692.6</ele>
        <time>2022-04-28T07:33:38Z</time>
      </trkpt>
      <trkpt lat="44.4769" lon="5.22491">
        <ele>693.8</ele>
        <time>2022-04-28T07:33:48Z</time>
      </trkpt>
      <trkpt lat="44.47693" lon="5.22497">
        <ele>694</ele>
        <time>2022-04-28T07:33:50Z</time>
      </trkpt>
      <trkpt lat="44.47692" lon="5.22502">
        <ele>694.2</ele>
        <time>2022-04-28T07:33:55Z</time>
      </trkpt>
      <trkpt lat="44.47677" lon="5.22513">
        <ele>694.8</ele>
        <time>2022-04-28T07:34:06Z</time>
      </trkpt>
      <trkpt lat="44.47658" lon="5.22523">
        <ele>697</ele>
        <time>2022-04-28T07:34:23Z</time>
      </trkpt>
      <trkpt lat="44.4765" lon="5.22533">
        <ele>699</ele>
        <time>2022-04-28T07:34:37Z</time>
      </trkpt>
      <trkpt lat="44.47642" lon="5.22542">
        <ele>701</ele>
        <time>2022-04-28T07:34:51Z</time>
      </trkpt>
      <trkpt lat="44.47637" lon="5.2255">
        <ele>702.8</ele>
        <time>2022-04-28T07:35:03Z</time>
      </trkpt>
      <trkpt lat="44.47632" lon="5.22554">
        <ele>703.8</ele>
        <time>2022-04-28T07:35:13Z</time>
      </trkpt>
      <trkpt lat="44.47618" lon="5.2256">
        <ele>704.8</ele>
        <time>2022-04-28T07:35:24Z</time>
      </trkpt>
      <trkpt lat="44.47609" lon="5.22571">
        <ele>706.8</ele>
        <time>2022-04-28T07:35:39Z</time>
      </trkpt>
      <trkpt lat="44.47605" lon="5.22575">
        <ele>707.8</ele>
        <time>2022-04-28T07:35:47Z</time>
      </trkpt>
      <trkpt lat="44.47603" lon="5.22578">
        <ele>708.2</ele>
        <time>2022-04-28T07:35:51Z</time>
      </trkpt>
      <trkpt lat="44.47596" lon="5.2258">
        <ele>709.6</ele>
        <time>2022-04-28T07:36:03Z</time>
      </trkpt>
      <trkpt lat="44.47588" lon="5.2259">
        <ele>712.2</ele>
        <time>2022-04-28T07:36:18Z</time>
      </trkpt>
      <trkpt lat="44.47581" lon="5.22606">
        <ele>713</ele>
        <time>2022-04-28T07:36:27Z</time>
      </trkpt>
      <trkpt lat="44.47563" lon="5.22608">
        <ele>714.6</ele>
        <time>2022-04-28T07:36:43Z</time>
      </trkpt>
      <trkpt lat="44.4756" lon="5.22607">
        <ele>714.8</ele>
        <time>2022-04-28T07:36:46Z</time>
      </trkpt>
      <trkpt lat="44.47557" lon="5.226">
        <ele>715.2</ele>
        <time>2022-04-28T07:36:51Z</time>
      </trkpt>
      <trkpt lat="44.47556" lon="5.22586">
        <ele>715.8</ele>
        <time>2022-04-28T07:36:57Z</time>
      </trkpt>
      <trkpt lat="44.47557" lon="5.22579">
        <ele>716</ele>
        <time>2022-04-28T07:37:00Z</time>
      </trkpt>
      <trkpt lat="44.47561" lon="5.22567">
        <ele>718</ele>
        <time>2022-04-28T07:37:10Z</time>
      </trkpt>
      <trkpt lat="44.4756" lon="5.22553">
        <ele>719.2</ele>
        <time>2022-04-28T07:37:21Z</time>
      </trkpt>
      <trkpt lat="44.47562" lon="5.22562">
        <ele>720.4</ele>
        <time>2022-04-28T07:37:32Z</time>
      </trkpt>
      <trkpt lat="44.47562" lon="5.22561">
        <ele>720.6</ele>
        <time>2022-04-28T07:37:33Z</time>
      </trkpt>
      <trkpt lat="44.47566" lon="5.22553">
        <ele>720.8</ele>
        <time>2022-04-28T07:37:47Z</time>
      </trkpt>
      <trkpt lat="44.47569" lon="5.22554">
        <ele>720.6</ele>
        <time>2022-04-28T07:37:58Z</time>
      </trkpt>
      <trkpt lat="44.47566" lon="5.22557">
        <ele>720.6</ele>
        <time>2022-04-28T07:38:08Z</time>
      </trkpt>
      <trkpt lat="44.47561" lon="5.22562">
        <ele>721.4</ele>
        <time>2022-04-28T07:38:23Z</time>
      </trkpt>
      <trkpt lat="44.4756" lon="5.22562">
        <ele>722.6</ele>
        <time>2022-04-28T07:38:40Z</time>
      </trkpt>
      <trkpt lat="44.47553" lon="5.2256">
        <ele>722.6</ele>
        <time>2022-04-28T07:38:55Z</time>
      </trkpt>
      <trkpt lat="44.47557" lon="5.22562">
        <ele>723.4</ele>
        <time>2022-04-28T07:39:12Z</time>
      </trkpt>
      <trkpt lat="44.47552" lon="5.22563">
        <ele>723.4</ele>
        <time>2022-04-28T07:39:26Z</time>
      </trkpt>
      <trkpt lat="44.47533" lon="5.22568">
        <ele>726</ele>
        <time>2022-04-28T07:39:46Z</time>
      </trkpt>
      <trkpt lat="44.47527" lon="5.22568">
        <ele>727</ele>
        <time>2022-04-28T07:39:52Z</time>
      </trkpt>
      <trkpt lat="44.47514" lon="5.22573">
        <ele>729.2</ele>
        <time>2022-04-28T07:40:06Z</time>
      </trkpt>
      <trkpt lat="44.47503" lon="5.22574">
        <ele>731.2</ele>
        <time>2022-04-28T07:40:19Z</time>
      </trkpt>
      <trkpt lat="44.47489" lon="5.22561">
        <ele>734</ele>
        <time>2022-04-28T07:40:39Z</time>
      </trkpt>
      <trkpt lat="44.47487" lon="5.22556">
        <ele>734.6</ele>
        <time>2022-04-28T07:40:43Z</time>
      </trkpt>
      <trkpt lat="44.47478" lon="5.22538">
        <ele>737.2</ele>
        <time>2022-04-28T07:41:02Z</time>
      </trkpt>
      <trkpt lat="44.47472" lon="5.22528">
        <ele>739.2</ele>
        <time>2022-04-28T07:41:16Z</time>
      </trkpt>
      <trkpt lat="44.4747" lon="5.22522">
        <ele>740.6</ele>
        <time>2022-04-28T07:41:24Z</time>
      </trkpt>
      <trkpt lat="44.47465" lon="5.22508">
        <ele>742.6</ele>
        <time>2022-04-28T07:41:37Z</time>
      </trkpt>
      <trkpt lat="44.47459" lon="5.22495">
        <ele>745</ele>
        <time>2022-04-28T07:41:51Z</time>
      </trkpt>
      <trkpt lat="44.47454" lon="5.22483">
        <ele>747.2</ele>
        <time>2022-04-28T07:42:08Z</time>
      </trkpt>
      <trkpt lat="44.47451" lon="5.22467">
        <ele>749.8</ele>
        <time>2022-04-28T07:42:25Z</time>
      </trkpt>
      <trkpt lat="44.47446" lon="5.22456">
        <ele>752.2</ele>
        <time>2022-04-28T07:42:41Z</time>
      </trkpt>
      <trkpt lat="44.47445" lon="5.22438">
        <ele>755.4</ele>
        <time>2022-04-28T07:42:59Z</time>
      </trkpt>
      <trkpt lat="44.47442" lon="5.22426">
        <ele>757.2</ele>
        <time>2022-04-28T07:43:13Z</time>
      </trkpt>
      <trkpt lat="44.47434" lon="5.22437">
        <ele>759.2</ele>
        <time>2022-04-28T07:43:28Z</time>
      </trkpt>
      <trkpt lat="44.47428" lon="5.22451">
        <ele>762.2</ele>
        <time>2022-04-28T07:43:46Z</time>
      </trkpt>
      <trkpt lat="44.47426" lon="5.22451">
        <ele>762.8</ele>
        <time>2022-04-28T07:43:49Z</time>
      </trkpt>
      <trkpt lat="44.47416" lon="5.22445">
        <ele>765</ele>
        <time>2022-04-28T07:44:04Z</time>
      </trkpt>
      <trkpt lat="44.47417" lon="5.22429">
        <ele>767.4</ele>
        <time>2022-04-28T07:44:22Z</time>
      </trkpt>
      <trkpt lat="44.47413" lon="5.22421">
        <ele>769.8</ele>
        <time>2022-04-28T07:44:37Z</time>
      </trkpt>
      <trkpt lat="44.474" lon="5.22436">
        <ele>772.6</ele>
        <time>2022-04-28T07:44:57Z</time>
      </trkpt>
      <trkpt lat="44.47393" lon="5.2245">
        <ele>774.6</ele>
        <time>2022-04-28T07:45:12Z</time>
      </trkpt>
      <trkpt lat="44.47388" lon="5.22465">
        <ele>777.6</ele>
        <time>2022-04-28T07:45:31Z</time>
      </trkpt>
      <trkpt lat="44.47384" lon="5.2248">
        <ele>780</ele>
        <time>2022-04-28T07:45:47Z</time>
      </trkpt>
      <trkpt lat="44.47378" lon="5.22497">
        <ele>783</ele>
        <time>2022-04-28T07:46:05Z</time>
      </trkpt>
      <trkpt lat="44.47373" lon="5.22512">
        <ele>786</ele>
        <time>2022-04-28T07:46:23Z</time>
      </trkpt>
      <trkpt lat="44.47366" lon="5.22519">
        <ele>788.4</ele>
        <time>2022-04-28T07:46:41Z</time>
      </trkpt>
      <trkpt lat="44.47351" lon="5.22523">
        <ele>790.8</ele>
        <time>2022-04-28T07:46:58Z</time>
      </trkpt>
      <trkpt lat="44.47343" lon="5.22525">
        <ele>792.4</ele>
        <time>2022-04-28T07:47:09Z</time>
      </trkpt>
      <trkpt lat="44.47329" lon="5.22528">
        <ele>794.8</ele>
        <time>2022-04-28T07:47:32Z</time>
      </trkpt>
      <trkpt lat="44.47318" lon="5.22535">
        <ele>796.8</ele>
        <time>2022-04-28T07:47:49Z</time>
      </trkpt>
      <trkpt lat="44.47308" lon="5.22544">
        <ele>798.6</ele>
        <time>2022-04-28T07:48:07Z</time>
      </trkpt>
      <trkpt lat="44.47298" lon="5.22558">
        <ele>801.2</ele>
        <time>2022-04-28T07:48:26Z</time>
      </trkpt>
      <trkpt lat="44.47289" lon="5.22576">
        <ele>802.8</ele>
        <time>2022-04-28T07:48:46Z</time>
      </trkpt>
      <trkpt lat="44.47282" lon="5.22583">
        <ele>804.2</ele>
        <time>2022-04-28T07:48:59Z</time>
      </trkpt>
      <trkpt lat="44.47276" lon="5.2259">
        <ele>805.6</ele>
        <time>2022-04-28T07:49:11Z</time>
      </trkpt>
      <trkpt lat="44.47263" lon="5.22596">
        <ele>808.8</ele>
        <time>2022-04-28T07:49:30Z</time>
      </trkpt>
      <trkpt lat="44.47257" lon="5.22607">
        <ele>811.4</ele>
        <time>2022-04-28T07:49:45Z</time>
      </trkpt>
      <trkpt lat="44.47249" lon="5.22618">
        <ele>813.4</ele>
        <time>2022-04-28T07:50:00Z</time>
      </trkpt>
      <trkpt lat="44.47238" lon="5.22626">
        <ele>815.2</ele>
        <time>2022-04-28T07:50:18Z</time>
      </trkpt>
      <trkpt lat="44.47229" lon="5.22627">
        <ele>816.6</ele>
        <time>2022-04-28T07:50:41Z</time>
      </trkpt>
      <trkpt lat="44.47228" lon="5.22626">
        <ele>817.2</ele>
        <time>2022-04-28T07:50:48Z</time>
      </trkpt>
      <trkpt lat="44.47225" lon="5.22625">
        <ele>817.2</ele>
        <time>2022-04-28T07:50:56Z</time>
      </trkpt>
      <trkpt lat="44.47218" lon="5.22635">
        <ele>817.4</ele>
        <time>2022-04-28T07:51:09Z</time>
      </trkpt>
      <trkpt lat="44.4721" lon="5.22648">
        <ele>819.6</ele>
        <time>2022-04-28T07:51:24Z</time>
      </trkpt>
      <trkpt lat="44.47201" lon="5.22659">
        <ele>821.4</ele>
        <time>2022-04-28T07:51:40Z</time>
      </trkpt>
      <trkpt lat="44.47187" lon="5.22673">
        <ele>824.4</ele>
        <time>2022-04-28T07:51:59Z</time>
      </trkpt>
      <trkpt lat="44.47177" lon="5.22684">
        <ele>827</ele>
        <time>2022-04-28T07:52:16Z</time>
      </trkpt>
      <trkpt lat="44.4717" lon="5.227">
        <ele>828.8</ele>
        <time>2022-04-28T07:52:32Z</time>
      </trkpt>
      <trkpt lat="44.47161" lon="5.22716">
        <ele>831.4</ele>
        <time>2022-04-28T07:52:50Z</time>
      </trkpt>
      <trkpt lat="44.47154" lon="5.22735">
        <ele>834.4</ele>
        <time>2022-04-28T07:53:07Z</time>
      </trkpt>
      <trkpt lat="44.47141" lon="5.22742">
        <ele>836.4</ele>
        <time>2022-04-28T07:53:24Z</time>
      </trkpt>
      <trkpt lat="44.47135" lon="5.22751">
        <ele>839</ele>
        <time>2022-04-28T07:53:42Z</time>
      </trkpt>
      <trkpt lat="44.47129" lon="5.22759">
        <ele>840.2</ele>
        <time>2022-04-28T07:53:53Z</time>
      </trkpt>
      <trkpt lat="44.47122" lon="5.22767">
        <ele>842.2</ele>
        <time>2022-04-28T07:54:06Z</time>
      </trkpt>
      <trkpt lat="44.47113" lon="5.22774">
        <ele>843.6</ele>
        <time>2022-04-28T07:54:16Z</time>
      </trkpt>
      <trkpt lat="44.47107" lon="5.22786">
        <ele>846.2</ele>
        <time>2022-04-28T07:54:33Z</time>
      </trkpt>
      <trkpt lat="44.47106" lon="5.22796">
        <ele>848.4</ele>
        <time>2022-04-28T07:54:47Z</time>
      </trkpt>
      <trkpt lat="44.47099" lon="5.22805">
        <ele>850.6</ele>
        <time>2022-04-28T07:55:00Z</time>
      </trkpt>
      <trkpt lat="44.47096" lon="5.22809">
        <ele>851.6</ele>
        <time>2022-04-28T07:55:08Z</time>
      </trkpt>
      <trkpt lat="44.47088" lon="5.22815">
        <ele>852.6</ele>
        <time>2022-04-28T07:55:18Z</time>
      </trkpt>
      <trkpt lat="44.4708" lon="5.2282">
        <ele>853.8</ele>
        <time>2022-04-28T07:55:27Z</time>
      </trkpt>
      <trkpt lat="44.47073" lon="5.22822">
        <ele>855</ele>
        <time>2022-04-28T07:55:36Z</time>
      </trkpt>
      <trkpt lat="44.47069" lon="5.22827">
        <ele>856.6</ele>
        <time>2022-04-28T07:55:47Z</time>
      </trkpt>
      <trkpt lat="44.47063" lon="5.22831">
        <ele>858</ele>
        <time>2022-04-28T07:56:00Z</time>
      </trkpt>
      <trkpt lat="44.47049" lon="5.22834">
        <ele>861.2</ele>
        <time>2022-04-28T07:56:20Z</time>
      </trkpt>
      <trkpt lat="44.47034" lon="5.22839">
        <ele>864.2</ele>
        <time>2022-04-28T07:56:41Z</time>
      </trkpt>
      <trkpt lat="44.47026" lon="5.22841">
        <ele>866.4</ele>
        <time>2022-04-28T07:56:55Z</time>
      </trkpt>
      <trkpt lat="44.47015" lon="5.22849">
        <ele>869.4</ele>
        <time>2022-04-28T07:57:19Z</time>
      </trkpt>
      <trkpt lat="44.46992" lon="5.22854">
        <ele>872.6</ele>
        <time>2022-04-28T07:57:43Z</time>
      </trkpt>
      <trkpt lat="44.46975" lon="5.22854">
        <ele>875.6</ele>
        <time>2022-04-28T07:58:05Z</time>
      </trkpt>
      <trkpt lat="44.46961" lon="5.2285">
        <ele>878.8</ele>
        <time>2022-04-28T07:58:24Z</time>
      </trkpt>
      <trkpt lat="44.46952" lon="5.22854">
        <ele>882</ele>
        <time>2022-04-28T07:58:41Z</time>
      </trkpt>
      <trkpt lat="44.4694" lon="5.22854">
        <ele>884.2</ele>
        <time>2022-04-28T07:59:06Z</time>
      </trkpt>
      <trkpt lat="44.46922" lon="5.22853">
        <ele>887.2</ele>
        <time>2022-04-28T07:59:25Z</time>
      </trkpt>
      <trkpt lat="44.46911" lon="5.22849">
        <ele>889</ele>
        <time>2022-04-28T07:59:40Z</time>
      </trkpt>
      <trkpt lat="44.46914" lon="5.22851">
        <ele>889.2</ele>
        <time>2022-04-28T07:59:41Z</time>
      </trkpt>
      <trkpt lat="44.46902" lon="5.22849">
        <ele>889.2</ele>
        <time>2022-04-28T07:59:49Z</time>
      </trkpt>
      <trkpt lat="44.46879" lon="5.22832">
        <ele>889.2</ele>
        <time>2022-04-28T08:00:07Z</time>
      </trkpt>
      <trkpt lat="44.46899" lon="5.2285">
        <ele>889.2</ele>
        <time>2022-04-28T08:00:19Z</time>
      </trkpt>
      <trkpt lat="44.46907" lon="5.22859">
        <ele>889.2</ele>
        <time>2022-04-28T08:00:24Z</time>
      </trkpt>
      <trkpt lat="44.46915" lon="5.22869">
        <ele>889.8</ele>
        <time>2022-04-28T08:00:31Z</time>
      </trkpt>
      <trkpt lat="44.46917" lon="5.22874">
        <ele>890.4</ele>
        <time>2022-04-28T08:00:34Z</time>
      </trkpt>
      <trkpt lat="44.4692" lon="5.22879">
        <ele>890.8</ele>
        <time>2022-04-28T08:00:37Z</time>
      </trkpt>
      <trkpt lat="44.46919" lon="5.2289">
        <ele>893.2</ele>
        <time>2022-04-28T08:00:48Z</time>
      </trkpt>
      <trkpt lat="44.46907" lon="5.22897">
        <ele>894.8</ele>
        <time>2022-04-28T08:01:00Z</time>
      </trkpt>
      <trkpt lat="44.46899" lon="5.22903">
        <ele>896.4</ele>
        <time>2022-04-28T08:01:10Z</time>
      </trkpt>
      <trkpt lat="44.46898" lon="5.22904">
        <ele>896.6</ele>
        <time>2022-04-28T08:01:13Z</time>
      </trkpt>
      <trkpt lat="44.46893" lon="5.22906">
        <ele>897.4</ele>
        <time>2022-04-28T08:01:18Z</time>
      </trkpt>
      <trkpt lat="44.46893" lon="5.2291">
        <ele>897.8</ele>
        <time>2022-04-28T08:01:21Z</time>
      </trkpt>
      <trkpt lat="44.46884" lon="5.22912">
        <ele>898.6</ele>
        <time>2022-04-28T08:01:27Z</time>
      </trkpt>
      <trkpt lat="44.46882" lon="5.22914">
        <ele>899.2</ele>
        <time>2022-04-28T08:01:30Z</time>
      </trkpt>
      <trkpt lat="44.46874" lon="5.22914">
        <ele>900</ele>
        <time>2022-04-28T08:01:36Z</time>
      </trkpt>
      <trkpt lat="44.46864" lon="5.22915">
        <ele>901.6</ele>
        <time>2022-04-28T08:01:45Z</time>
      </trkpt>
      <trkpt lat="44.46855" lon="5.22919">
        <ele>903</ele>
        <time>2022-04-28T08:01:54Z</time>
      </trkpt>
      <trkpt lat="44.46851" lon="5.22919">
        <ele>903.4</ele>
        <time>2022-04-28T08:01:57Z</time>
      </trkpt>
      <trkpt lat="44.46828" lon="5.22914">
        <ele>905.4</ele>
        <time>2022-04-28T08:02:11Z</time>
      </trkpt>
      <trkpt lat="44.46823" lon="5.22914">
        <ele>906</ele>
        <time>2022-04-28T08:02:15Z</time>
      </trkpt>
      <trkpt lat="44.46817" lon="5.22913">
        <ele>906.8</ele>
        <time>2022-04-28T08:02:20Z</time>
      </trkpt>
      <trkpt lat="44.46812" lon="5.22911">
        <ele>907.4</ele>
        <time>2022-04-28T08:02:24Z</time>
      </trkpt>
      <trkpt lat="44.46808" lon="5.22915">
        <ele>909.2</ele>
        <time>2022-04-28T08:02:36Z</time>
      </trkpt>
      <trkpt lat="44.46835" lon="5.22944">
        <ele>911.8</ele>
        <time>2022-04-28T08:02:56Z</time>
      </trkpt>
      <trkpt lat="44.46827" lon="5.22945">
        <ele>912.8</ele>
        <time>2022-04-28T08:03:08Z</time>
      </trkpt>
      <trkpt lat="44.46816" lon="5.22945">
        <ele>914.6</ele>
        <time>2022-04-28T08:03:21Z</time>
      </trkpt>
      <trkpt lat="44.46803" lon="5.22952">
        <ele>916.6</ele>
        <time>2022-04-28T08:03:39Z</time>
      </trkpt>
      <trkpt lat="44.46795" lon="5.22955">
        <ele>917.8</ele>
        <time>2022-04-28T08:03:55Z</time>
      </trkpt>
      <trkpt lat="44.46792" lon="5.22959">
        <ele>917.8</ele>
        <time>2022-04-28T08:04:11Z</time>
      </trkpt>
      <trkpt lat="44.4679" lon="5.22953">
        <ele>917.8</ele>
        <time>2022-04-28T08:04:21Z</time>
      </trkpt>
      <trkpt lat="44.46789" lon="5.2295">
        <ele>918</ele>
        <time>2022-04-28T08:04:36Z</time>
      </trkpt>
      <trkpt lat="44.46796" lon="5.22944">
        <ele>918.4</ele>
        <time>2022-04-28T08:04:55Z</time>
      </trkpt>
      <trkpt lat="44.46802" lon="5.2295">
        <ele>919</ele>
        <time>2022-04-28T08:05:28Z</time>
      </trkpt>
      <trkpt lat="44.46801" lon="5.2295">
        <ele>919</ele>
        <time>2022-04-28T08:05:29Z</time>
      </trkpt>
      <trkpt lat="44.46795" lon="5.22953">
        <ele>918.6</ele>
        <time>2022-04-28T08:05:56Z</time>
      </trkpt>
      <trkpt lat="44.46792" lon="5.22958">
        <ele>918</ele>
        <time>2022-04-28T08:06:13Z</time>
      </trkpt>
      <trkpt lat="44.46793" lon="5.22957">
        <ele>918</ele>
        <time>2022-04-28T08:06:33Z</time>
      </trkpt>
      <trkpt lat="44.46794" lon="5.22955">
        <ele>918.2</ele>
        <time>2022-04-28T08:06:49Z</time>
      </trkpt>
      <trkpt lat="44.46796" lon="5.22961">
        <ele>918.2</ele>
        <time>2022-04-28T08:07:13Z</time>
      </trkpt>
      <trkpt lat="44.46796" lon="5.22957">
        <ele>918</ele>
        <time>2022-04-28T08:07:35Z</time>
      </trkpt>
      <trkpt lat="44.46799" lon="5.22952">
        <ele>918.2</ele>
        <time>2022-04-28T08:07:47Z</time>
      </trkpt>
      <trkpt lat="44.468" lon="5.22956">
        <ele>918</ele>
        <time>2022-04-28T08:08:14Z</time>
      </trkpt>
      <trkpt lat="44.46805" lon="5.22955">
        <ele>918.2</ele>
        <time>2022-04-28T08:08:25Z</time>
      </trkpt>
      <trkpt lat="44.46805" lon="5.22953">
        <ele>918.8</ele>
        <time>2022-04-28T08:08:41Z</time>
      </trkpt>
      <trkpt lat="44.46807" lon="5.22956">
        <ele>919</ele>
        <time>2022-04-28T08:08:48Z</time>
      </trkpt>
      <trkpt lat="44.46807" lon="5.22957">
        <ele>919.4</ele>
        <time>2022-04-28T08:09:10Z</time>
      </trkpt>
      <trkpt lat="44.46806" lon="5.22961">
        <ele>919.2</ele>
        <time>2022-04-28T08:09:35Z</time>
      </trkpt>
      <trkpt lat="44.46813" lon="5.22967">
        <ele>919</ele>
        <time>2022-04-28T08:09:59Z</time>
      </trkpt>
      <trkpt lat="44.46812" lon="5.22963">
        <ele>919</ele>
        <time>2022-04-28T08:10:12Z</time>
      </trkpt>
      <trkpt lat="44.46808" lon="5.22955">
        <ele>919.4</ele>
        <time>2022-04-28T08:10:37Z</time>
      </trkpt>
      <trkpt lat="44.46808" lon="5.22962">
        <ele>919.4</ele>
        <time>2022-04-28T08:10:57Z</time>
      </trkpt>
      <trkpt lat="44.46809" lon="5.22968">
        <ele>919.4</ele>
        <time>2022-04-28T08:11:16Z</time>
      </trkpt>
      <trkpt lat="44.46808" lon="5.22961">
        <ele>919.4</ele>
        <time>2022-04-28T08:11:41Z</time>
      </trkpt>
      <trkpt lat="44.46803" lon="5.22948">
        <ele>919.2</ele>
        <time>2022-04-28T08:12:11Z</time>
      </trkpt>
      <trkpt lat="44.46804" lon="5.22953">
        <ele>919.4</ele>
        <time>2022-04-28T08:12:38Z</time>
      </trkpt>
      <trkpt lat="44.46805" lon="5.22955">
        <ele>919.4</ele>
        <time>2022-04-28T08:13:05Z</time>
      </trkpt>
      <trkpt lat="44.46805" lon="5.22957">
        <ele>919.4</ele>
        <time>2022-04-28T08:13:40Z</time>
      </trkpt>
      <trkpt lat="44.46805" lon="5.22957">
        <ele>919.4</ele>
        <time>2022-04-28T08:14:04Z</time>
      </trkpt>
      <trkpt lat="44.46802" lon="5.22954">
        <ele>919.2</ele>
        <time>2022-04-28T08:14:39Z</time>
      </trkpt>
      <trkpt lat="44.46801" lon="5.2295">
        <ele>919.4</ele>
        <time>2022-04-28T08:15:49Z</time>
      </trkpt>
      <trkpt lat="44.46805" lon="5.22956">
        <ele>919.4</ele>
        <time>2022-04-28T08:16:46Z</time>
      </trkpt>
      <trkpt lat="44.46813" lon="5.2297">
        <ele>920.4</ele>
        <time>2022-04-28T08:17:05Z</time>
      </trkpt>
      <trkpt lat="44.46821" lon="5.22984">
        <ele>921.2</ele>
        <time>2022-04-28T08:17:20Z</time>
      </trkpt>
      <trkpt lat="44.46838" lon="5.23004">
        <ele>922</ele>
        <time>2022-04-28T08:17:37Z</time>
      </trkpt>
      <trkpt lat="44.46849" lon="5.23012">
        <ele>924.4</ele>
        <time>2022-04-28T08:17:56Z</time>
      </trkpt>
      <trkpt lat="44.46863" lon="5.23016">
        <ele>926.6</ele>
        <time>2022-04-28T08:18:13Z</time>
      </trkpt>
      <trkpt lat="44.46878" lon="5.23018">
        <ele>929.2</ele>
        <time>2022-04-28T08:18:31Z</time>
      </trkpt>
      <trkpt lat="44.46892" lon="5.23018">
        <ele>932</ele>
        <time>2022-04-28T08:18:50Z</time>
      </trkpt>
      <trkpt lat="44.46903" lon="5.23021">
        <ele>934.2</ele>
        <time>2022-04-28T08:19:08Z</time>
      </trkpt>
      <trkpt lat="44.46912" lon="5.23025">
        <ele>934.4</ele>
        <time>2022-04-28T08:19:23Z</time>
      </trkpt>
      <trkpt lat="44.46917" lon="5.23028">
        <ele>934</ele>
        <time>2022-04-28T08:19:30Z</time>
      </trkpt>
      <trkpt lat="44.46937" lon="5.23044">
        <ele>933.8</ele>
        <time>2022-04-28T08:19:50Z</time>
      </trkpt>
      <trkpt lat="44.46955" lon="5.23059">
        <ele>934.4</ele>
        <time>2022-04-28T08:20:08Z</time>
      </trkpt>
      <trkpt lat="44.4696" lon="5.23061">
        <ele>934.6</ele>
        <time>2022-04-28T08:20:12Z</time>
      </trkpt>
      <trkpt lat="44.46973" lon="5.23065">
        <ele>935.6</ele>
        <time>2022-04-28T08:20:29Z</time>
      </trkpt>
      <trkpt lat="44.46984" lon="5.23071">
        <ele>937.2</ele>
        <time>2022-04-28T08:20:47Z</time>
      </trkpt>
      <trkpt lat="44.46996" lon="5.23079">
        <ele>939.2</ele>
        <time>2022-04-28T08:21:04Z</time>
      </trkpt>
      <trkpt lat="44.47007" lon="5.23086">
        <ele>941.8</ele>
        <time>2022-04-28T08:21:21Z</time>
      </trkpt>
      <trkpt lat="44.47017" lon="5.23105">
        <ele>944.8</ele>
        <time>2022-04-28T08:21:40Z</time>
      </trkpt>
      <trkpt lat="44.47017" lon="5.23129">
        <ele>945.4</ele>
        <time>2022-04-28T08:21:59Z</time>
      </trkpt>
      <trkpt lat="44.47016" lon="5.23171">
        <ele>946.4</ele>
        <time>2022-04-28T08:22:25Z</time>
      </trkpt>
      <trkpt lat="44.47015" lon="5.23196">
        <ele>946.8</ele>
        <time>2022-04-28T08:22:46Z</time>
      </trkpt>
      <trkpt lat="44.4702" lon="5.23213">
        <ele>946.6</ele>
        <time>2022-04-28T08:22:56Z</time>
      </trkpt>
      <trkpt lat="44.4702" lon="5.23223">
        <ele>946.6</ele>
        <time>2022-04-28T08:23:06Z</time>
      </trkpt>
      <trkpt lat="44.47023" lon="5.23231">
        <ele>946.6</ele>
        <time>2022-04-28T08:23:15Z</time>
      </trkpt>
      <trkpt lat="44.4702" lon="5.23234">
        <ele>946.8</ele>
        <time>2022-04-28T08:23:18Z</time>
      </trkpt>
      <trkpt lat="44.47018" lon="5.23235">
        <ele>947</ele>
        <time>2022-04-28T08:23:20Z</time>
      </trkpt>
      <trkpt lat="44.47017" lon="5.23237">
        <ele>947</ele>
        <time>2022-04-28T08:23:22Z</time>
      </trkpt>
      <trkpt lat="44.47025" lon="5.23251">
        <ele>947.4</ele>
        <time>2022-04-28T08:23:32Z</time>
      </trkpt>
      <trkpt lat="44.47031" lon="5.23265">
        <ele>948.4</ele>
        <time>2022-04-28T08:23:42Z</time>
      </trkpt>
      <trkpt lat="44.47034" lon="5.23278">
        <ele>949.2</ele>
        <time>2022-04-28T08:23:52Z</time>
      </trkpt>
      <trkpt lat="44.4704" lon="5.23294">
        <ele>949.8</ele>
        <time>2022-04-28T08:24:04Z</time>
      </trkpt>
      <trkpt lat="44.47051" lon="5.23302">
        <ele>950.6</ele>
        <time>2022-04-28T08:24:21Z</time>
      </trkpt>
      <trkpt lat="44.47053" lon="5.23296">
        <ele>950.8</ele>
        <time>2022-04-28T08:24:32Z</time>
      </trkpt>
      <trkpt lat="44.47054" lon="5.23291">
        <ele>951.4</ele>
        <time>2022-04-28T08:24:55Z</time>
      </trkpt>
      <trkpt lat="44.4706" lon="5.2329">
        <ele>951.6</ele>
        <time>2022-04-28T08:25:12Z</time>
      </trkpt>
      <trkpt lat="44.47077" lon="5.23293">
        <ele>952.2</ele>
        <time>2022-04-28T08:25:33Z</time>
      </trkpt>
      <trkpt lat="44.47094" lon="5.23298">
        <ele>953</ele>
        <time>2022-04-28T08:25:51Z</time>
      </trkpt>
      <trkpt lat="44.47114" lon="5.23308">
        <ele>954</ele>
        <time>2022-04-28T08:26:10Z</time>
      </trkpt>
      <trkpt lat="44.47126" lon="5.23308">
        <ele>955</ele>
        <time>2022-04-28T08:26:27Z</time>
      </trkpt>
      <trkpt lat="44.47143" lon="5.23307">
        <ele>956</ele>
        <time>2022-04-28T08:26:46Z</time>
      </trkpt>
      <trkpt lat="44.47147" lon="5.23316">
        <ele>957.4</ele>
        <time>2022-04-28T08:27:02Z</time>
      </trkpt>
      <trkpt lat="44.47134" lon="5.23323">
        <ele>959.4</ele>
        <time>2022-04-28T08:27:24Z</time>
      </trkpt>
      <trkpt lat="44.47122" lon="5.23326">
        <ele>961.2</ele>
        <time>2022-04-28T08:27:39Z</time>
      </trkpt>
      <trkpt lat="44.47109" lon="5.23329">
        <ele>962.2</ele>
        <time>2022-04-28T08:27:53Z</time>
      </trkpt>
      <trkpt lat="44.471" lon="5.23332">
        <ele>963.8</ele>
        <time>2022-04-28T08:28:08Z</time>
      </trkpt>
      <trkpt lat="44.47101" lon="5.23331">
        <ele>965.2</ele>
        <time>2022-04-28T08:28:34Z</time>
      </trkpt>
      <trkpt lat="44.471" lon="5.23332">
        <ele>965.2</ele>
        <time>2022-04-28T08:29:01Z</time>
      </trkpt>
      <trkpt lat="44.47098" lon="5.23331">
        <ele>965.8</ele>
        <time>2022-04-28T08:29:23Z</time>
      </trkpt>
      <trkpt lat="44.47091" lon="5.23332">
        <ele>966</ele>
        <time>2022-04-28T08:29:35Z</time>
      </trkpt>
      <trkpt lat="44.47078" lon="5.23337">
        <ele>967.8</ele>
        <time>2022-04-28T08:29:55Z</time>
      </trkpt>
      <trkpt lat="44.47059" lon="5.23344">
        <ele>970.4</ele>
        <time>2022-04-28T08:30:17Z</time>
      </trkpt>
      <trkpt lat="44.47049" lon="5.23341">
        <ele>971.6</ele>
        <time>2022-04-28T08:30:29Z</time>
      </trkpt>
      <trkpt lat="44.47033" lon="5.23346">
        <ele>973.4</ele>
        <time>2022-04-28T08:30:46Z</time>
      </trkpt>
      <trkpt lat="44.47016" lon="5.23346">
        <ele>976.4</ele>
        <time>2022-04-28T08:31:07Z</time>
      </trkpt>
      <trkpt lat="44.47002" lon="5.23347">
        <ele>979</ele>
        <time>2022-04-28T08:31:25Z</time>
      </trkpt>
      <trkpt lat="44.46985" lon="5.23343">
        <ele>981.6</ele>
        <time>2022-04-28T08:31:48Z</time>
      </trkpt>
      <trkpt lat="44.4697" lon="5.23329">
        <ele>984</ele>
        <time>2022-04-28T08:32:10Z</time>
      </trkpt>
      <trkpt lat="44.46965" lon="5.2332">
        <ele>984.8</ele>
        <time>2022-04-28T08:32:19Z</time>
      </trkpt>
      <trkpt lat="44.46959" lon="5.23307">
        <ele>987</ele>
        <time>2022-04-28T08:32:35Z</time>
      </trkpt>
      <trkpt lat="44.46958" lon="5.23305">
        <ele>987.4</ele>
        <time>2022-04-28T08:32:38Z</time>
      </trkpt>
      <trkpt lat="44.46954" lon="5.23296">
        <ele>988.2</ele>
        <time>2022-04-28T08:32:48Z</time>
      </trkpt>
      <trkpt lat="44.46945" lon="5.23284">
        <ele>990.2</ele>
        <time>2022-04-28T08:33:04Z</time>
      </trkpt>
      <trkpt lat="44.46937" lon="5.23268">
        <ele>992.6</ele>
        <time>2022-04-28T08:33:23Z</time>
      </trkpt>
      <trkpt lat="44.4693" lon="5.23251">
        <ele>994.4</ele>
        <time>2022-04-28T08:33:43Z</time>
      </trkpt>
      <trkpt lat="44.46923" lon="5.23237">
        <ele>996.4</ele>
        <time>2022-04-28T08:34:00Z</time>
      </trkpt>
      <trkpt lat="44.46917" lon="5.23219">
        <ele>998.6</ele>
        <time>2022-04-28T08:34:19Z</time>
      </trkpt>
      <trkpt lat="44.46905" lon="5.23202">
        <ele>1001.4</ele>
        <time>2022-04-28T08:34:39Z</time>
      </trkpt>
      <trkpt lat="44.46894" lon="5.23209">
        <ele>1003.2</ele>
        <time>2022-04-28T08:34:56Z</time>
      </trkpt>
      <trkpt lat="44.46891" lon="5.2321">
        <ele>1004.8</ele>
        <time>2022-04-28T08:35:15Z</time>
      </trkpt>
      <trkpt lat="44.46891" lon="5.2321">
        <ele>1004.8</ele>
        <time>2022-04-28T08:35:30Z</time>
      </trkpt>
      <trkpt lat="44.46889" lon="5.2321">
        <ele>1004.8</ele>
        <time>2022-04-28T08:35:50Z</time>
      </trkpt>
      <trkpt lat="44.46888" lon="5.2321">
        <ele>1004.8</ele>
        <time>2022-04-28T08:36:25Z</time>
      </trkpt>
      <trkpt lat="44.4689" lon="5.23212">
        <ele>1004.8</ele>
        <time>2022-04-28T08:37:01Z</time>
      </trkpt>
      <trkpt lat="44.46888" lon="5.23211">
        <ele>1004.6</ele>
        <time>2022-04-28T08:37:49Z</time>
      </trkpt>
      <trkpt lat="44.46887" lon="5.23213">
        <ele>1004.6</ele>
        <time>2022-04-28T08:38:02Z</time>
      </trkpt>
      <trkpt lat="44.46888" lon="5.23217">
        <ele>1004.6</ele>
        <time>2022-04-28T08:38:29Z</time>
      </trkpt>
      <trkpt lat="44.46885" lon="5.2323">
        <ele>1004.8</ele>
        <time>2022-04-28T08:38:43Z</time>
      </trkpt>
      <trkpt lat="44.46885" lon="5.23231">
        <ele>1004.8</ele>
        <time>2022-04-28T08:38:44Z</time>
      </trkpt>
      <trkpt lat="44.4688" lon="5.23245">
        <ele>1006.8</ele>
        <time>2022-04-28T08:39:01Z</time>
      </trkpt>
      <trkpt lat="44.46874" lon="5.23257">
        <ele>1009.8</ele>
        <time>2022-04-28T08:39:20Z</time>
      </trkpt>
      <trkpt lat="44.4687" lon="5.23264">
        <ele>1012</ele>
        <time>2022-04-28T08:39:34Z</time>
      </trkpt>
      <trkpt lat="44.46862" lon="5.23271">
        <ele>1014.8</ele>
        <time>2022-04-28T08:39:52Z</time>
      </trkpt>
      <trkpt lat="44.46856" lon="5.23277">
        <ele>1018</ele>
        <time>2022-04-28T08:40:09Z</time>
      </trkpt>
      <trkpt lat="44.46853" lon="5.23282">
        <ele>1021</ele>
        <time>2022-04-28T08:40:25Z</time>
      </trkpt>
      <trkpt lat="44.4685" lon="5.23288">
        <ele>1022.8</ele>
        <time>2022-04-28T08:40:46Z</time>
      </trkpt>
      <trkpt lat="44.46847" lon="5.23295">
        <ele>1023.4</ele>
        <time>2022-04-28T08:41:12Z</time>
      </trkpt>
      <trkpt lat="44.46844" lon="5.23307">
        <ele>1026.4</ele>
        <time>2022-04-28T08:41:31Z</time>
      </trkpt>
      <trkpt lat="44.46843" lon="5.23319">
        <ele>1029.6</ele>
        <time>2022-04-28T08:41:53Z</time>
      </trkpt>
      <trkpt lat="44.46841" lon="5.23328">
        <ele>1032.6</ele>
        <time>2022-04-28T08:42:15Z</time>
      </trkpt>
      <trkpt lat="44.4684" lon="5.23337">
        <ele>1035.8</ele>
        <time>2022-04-28T08:42:35Z</time>
      </trkpt>
      <trkpt lat="44.46837" lon="5.23345">
        <ele>1038.2</ele>
        <time>2022-04-28T08:42:52Z</time>
      </trkpt>
      <trkpt lat="44.46834" lon="5.23354">
        <ele>1041.2</ele>
        <time>2022-04-28T08:43:12Z</time>
      </trkpt>
      <trkpt lat="44.46831" lon="5.23362">
        <ele>1044.2</ele>
        <time>2022-04-28T08:43:32Z</time>
      </trkpt>
      <trkpt lat="44.46835" lon="5.23371">
        <ele>1047.2</ele>
        <time>2022-04-28T08:43:54Z</time>
      </trkpt>
      <trkpt lat="44.46831" lon="5.23377">
        <ele>1050.2</ele>
        <time>2022-04-28T08:44:13Z</time>
      </trkpt>
      <trkpt lat="44.46832" lon="5.23385">
        <ele>1053.4</ele>
        <time>2022-04-28T08:44:32Z</time>
      </trkpt>
      <trkpt lat="44.46832" lon="5.23395">
        <ele>1056.4</ele>
        <time>2022-04-28T08:44:51Z</time>
      </trkpt>
      <trkpt lat="44.46833" lon="5.23401">
        <ele>1059.2</ele>
        <time>2022-04-28T08:45:09Z</time>
      </trkpt>
      <trkpt lat="44.46835" lon="5.23409">
        <ele>1062.2</ele>
        <time>2022-04-28T08:45:29Z</time>
      </trkpt>
      <trkpt lat="44.46837" lon="5.23424">
        <ele>1065</ele>
        <time>2022-04-28T08:45:47Z</time>
      </trkpt>
      <trkpt lat="44.46842" lon="5.23428">
        <ele>1067</ele>
        <time>2022-04-28T08:46:02Z</time>
      </trkpt>
      <trkpt lat="44.46845" lon="5.23429">
        <ele>1067.6</ele>
        <time>2022-04-28T08:46:22Z</time>
      </trkpt>
      <trkpt lat="44.4685" lon="5.23427">
        <ele>1067.8</ele>
        <time>2022-04-28T08:46:46Z</time>
      </trkpt>
      <trkpt lat="44.46854" lon="5.23428">
        <ele>1068</ele>
        <time>2022-04-28T08:47:09Z</time>
      </trkpt>
      <trkpt lat="44.46855" lon="5.23426">
        <ele>1068</ele>
        <time>2022-04-28T08:47:33Z</time>
      </trkpt>
      <trkpt lat="44.46859" lon="5.23425">
        <ele>1067.8</ele>
        <time>2022-04-28T08:47:59Z</time>
      </trkpt>
      <trkpt lat="44.46857" lon="5.23426">
        <ele>1067.8</ele>
        <time>2022-04-28T08:48:24Z</time>
      </trkpt>
      <trkpt lat="44.46852" lon="5.23426">
        <ele>1068</ele>
        <time>2022-04-28T08:49:01Z</time>
      </trkpt>
      <trkpt lat="44.46852" lon="5.23433">
        <ele>1068</ele>
        <time>2022-04-28T08:49:33Z</time>
      </trkpt>
      <trkpt lat="44.46849" lon="5.2345">
        <ele>1070.2</ele>
        <time>2022-04-28T08:49:51Z</time>
      </trkpt>
      <trkpt lat="44.46848" lon="5.23465">
        <ele>1073.4</ele>
        <time>2022-04-28T08:50:08Z</time>
      </trkpt>
      <trkpt lat="44.46845" lon="5.23482">
        <ele>1076.4</ele>
        <time>2022-04-28T08:50:29Z</time>
      </trkpt>
      <trkpt lat="44.46844" lon="5.23493">
        <ele>1079.6</ele>
        <time>2022-04-28T08:50:47Z</time>
      </trkpt>
      <trkpt lat="44.46843" lon="5.23503">
        <ele>1082.8</ele>
        <time>2022-04-28T08:51:05Z</time>
      </trkpt>
      <trkpt lat="44.46845" lon="5.23514">
        <ele>1085.2</ele>
        <time>2022-04-28T08:51:22Z</time>
      </trkpt>
      <trkpt lat="44.46844" lon="5.23529">
        <ele>1088.4</ele>
        <time>2022-04-28T08:51:43Z</time>
      </trkpt>
      <trkpt lat="44.46847" lon="5.23538">
        <ele>1091.2</ele>
        <time>2022-04-28T08:52:02Z</time>
      </trkpt>
      <trkpt lat="44.46854" lon="5.23552">
        <ele>1092.8</ele>
        <time>2022-04-28T08:52:20Z</time>
      </trkpt>
      <trkpt lat="44.46867" lon="5.23564">
        <ele>1093.4</ele>
        <time>2022-04-28T08:52:38Z</time>
      </trkpt>
      <trkpt lat="44.46876" lon="5.23579">
        <ele>1095.4</ele>
        <time>2022-04-28T08:52:57Z</time>
      </trkpt>
      <trkpt lat="44.46887" lon="5.23588">
        <ele>1097.2</ele>
        <time>2022-04-28T08:53:13Z</time>
      </trkpt>
      <trkpt lat="44.46897" lon="5.236">
        <ele>1099.6</ele>
        <time>2022-04-28T08:53:32Z</time>
      </trkpt>
      <trkpt lat="44.46908" lon="5.23617">
        <ele>1102</ele>
        <time>2022-04-28T08:53:56Z</time>
      </trkpt>
      <trkpt lat="44.46909" lon="5.23622">
        <ele>1105.2</ele>
        <time>2022-04-28T08:54:14Z</time>
      </trkpt>
      <trkpt lat="44.4691" lon="5.23623">
        <ele>1105.4</ele>
        <time>2022-04-28T08:54:39Z</time>
      </trkpt>
      <trkpt lat="44.4691" lon="5.23623">
        <ele>1105.2</ele>
        <time>2022-04-28T08:54:57Z</time>
      </trkpt>
      <trkpt lat="44.4691" lon="5.23623">
        <ele>1105.2</ele>
        <time>2022-04-28T08:55:30Z</time>
      </trkpt>
      <trkpt lat="44.46911" lon="5.23622">
        <ele>1105</ele>
        <time>2022-04-28T08:55:54Z</time>
      </trkpt>
      <trkpt lat="44.46911" lon="5.23622">
        <ele>1105</ele>
        <time>2022-04-28T08:56:21Z</time>
      </trkpt>
      <trkpt lat="44.46911" lon="5.23622">
        <ele>1105</ele>
        <time>2022-04-28T08:56:45Z</time>
      </trkpt>
      <trkpt lat="44.46911" lon="5.23621">
        <ele>1105.2</ele>
        <time>2022-04-28T08:57:09Z</time>
      </trkpt>
      <trkpt lat="44.4691" lon="5.23622">
        <ele>1105</ele>
        <time>2022-04-28T08:57:26Z</time>
      </trkpt>
      <trkpt lat="44.4691" lon="5.23621">
        <ele>1105.2</ele>
        <time>2022-04-28T08:58:03Z</time>
      </trkpt>
      <trkpt lat="44.4691" lon="5.2362">
        <ele>1105.2</ele>
        <time>2022-04-28T08:58:42Z</time>
      </trkpt>
      <trkpt lat="44.46912" lon="5.23625">
        <ele>1105</ele>
        <time>2022-04-28T08:59:02Z</time>
      </trkpt>
      <trkpt lat="44.46922" lon="5.23624">
        <ele>1105</ele>
        <time>2022-04-28T08:59:19Z</time>
      </trkpt>
      <trkpt lat="44.46932" lon="5.23626">
        <ele>1107</ele>
        <time>2022-04-28T08:59:36Z</time>
      </trkpt>
      <trkpt lat="44.46941" lon="5.2363">
        <ele>1108.8</ele>
        <time>2022-04-28T08:59:49Z</time>
      </trkpt>
      <trkpt lat="44.46949" lon="5.23635">
        <ele>1111.8</ele>
        <time>2022-04-28T09:00:08Z</time>
      </trkpt>
      <trkpt lat="44.46959" lon="5.23639">
        <ele>1114.6</ele>
        <time>2022-04-28T09:00:29Z</time>
      </trkpt>
      <trkpt lat="44.46968" lon="5.23645">
        <ele>1117.6</ele>
        <time>2022-04-28T09:00:48Z</time>
      </trkpt>
      <trkpt lat="44.46977" lon="5.23643">
        <ele>1120.6</ele>
        <time>2022-04-28T09:01:08Z</time>
      </trkpt>
      <trkpt lat="44.46984" lon="5.23646">
        <ele>1123</ele>
        <time>2022-04-28T09:01:26Z</time>
      </trkpt>
      <trkpt lat="44.46989" lon="5.23648">
        <ele>1125.8</ele>
        <time>2022-04-28T09:01:45Z</time>
      </trkpt>
      <trkpt lat="44.46997" lon="5.23647">
        <ele>1128.2</ele>
        <time>2022-04-28T09:02:05Z</time>
      </trkpt>
      <trkpt lat="44.47004" lon="5.23649">
        <ele>1130.8</ele>
        <time>2022-04-28T09:02:21Z</time>
      </trkpt>
      <trkpt lat="44.47011" lon="5.2365">
        <ele>1133.2</ele>
        <time>2022-04-28T09:02:40Z</time>
      </trkpt>
      <trkpt lat="44.47017" lon="5.23649">
        <ele>1135</ele>
        <time>2022-04-28T09:02:53Z</time>
      </trkpt>
      <trkpt lat="44.47028" lon="5.2365">
        <ele>1137.8</ele>
        <time>2022-04-28T09:03:11Z</time>
      </trkpt>
      <trkpt lat="44.47035" lon="5.2365">
        <ele>1139.6</ele>
        <time>2022-04-28T09:03:27Z</time>
      </trkpt>
      <trkpt lat="44.47037" lon="5.23652">
        <ele>1140.4</ele>
        <time>2022-04-28T09:03:45Z</time>
      </trkpt>
      <trkpt lat="44.47039" lon="5.23658">
        <ele>1140.8</ele>
        <time>2022-04-28T09:04:04Z</time>
      </trkpt>
      <trkpt lat="44.47045" lon="5.23661">
        <ele>1142.4</ele>
        <time>2022-04-28T09:04:22Z</time>
      </trkpt>
      <trkpt lat="44.47048" lon="5.23663">
        <ele>1145.4</ele>
        <time>2022-04-28T09:04:40Z</time>
      </trkpt>
      <trkpt lat="44.47051" lon="5.23669">
        <ele>1148.2</ele>
        <time>2022-04-28T09:04:59Z</time>
      </trkpt>
      <trkpt lat="44.47053" lon="5.23674">
        <ele>1151.4</ele>
        <time>2022-04-28T09:05:19Z</time>
      </trkpt>
      <trkpt lat="44.47053" lon="5.23679">
        <ele>1153.8</ele>
        <time>2022-04-28T09:05:35Z</time>
      </trkpt>
      <trkpt lat="44.47058" lon="5.2368">
        <ele>1156.2</ele>
        <time>2022-04-28T09:05:56Z</time>
      </trkpt>
      <trkpt lat="44.4706" lon="5.2368">
        <ele>1157.6</ele>
        <time>2022-04-28T09:06:14Z</time>
      </trkpt>
      <trkpt lat="44.4706" lon="5.23683">
        <ele>1159.6</ele>
        <time>2022-04-28T09:06:28Z</time>
      </trkpt>
      <trkpt lat="44.47058" lon="5.23682">
        <ele>1159.8</ele>
        <time>2022-04-28T09:07:05Z</time>
      </trkpt>
      <trkpt lat="44.47058" lon="5.23682">
        <ele>1159.6</ele>
        <time>2022-04-28T09:08:02Z</time>
      </trkpt>
      <trkpt lat="44.47058" lon="5.23681">
        <ele>1159.6</ele>
        <time>2022-04-28T09:08:51Z</time>
      </trkpt>
      <trkpt lat="44.47061" lon="5.2368">
        <ele>1159.6</ele>
        <time>2022-04-28T09:09:05Z</time>
      </trkpt>
      <trkpt lat="44.47063" lon="5.23682">
        <ele>1159.6</ele>
        <time>2022-04-28T09:09:49Z</time>
      </trkpt>
      <trkpt lat="44.47071" lon="5.23693">
        <ele>1160</ele>
        <time>2022-04-28T09:10:08Z</time>
      </trkpt>
      <trkpt lat="44.47072" lon="5.23694">
        <ele>1161.2</ele>
        <time>2022-04-28T09:10:34Z</time>
      </trkpt>
      <trkpt lat="44.47073" lon="5.23695">
        <ele>1161</ele>
        <time>2022-04-28T09:11:16Z</time>
      </trkpt>
      <trkpt lat="44.47074" lon="5.23695">
        <ele>1161</ele>
        <time>2022-04-28T09:12:01Z</time>
      </trkpt>
      <trkpt lat="44.47074" lon="5.23695">
        <ele>1160.8</ele>
        <time>2022-04-28T09:12:31Z</time>
      </trkpt>
      <trkpt lat="44.47086" lon="5.23701">
        <ele>1161.8</ele>
        <time>2022-04-28T09:12:49Z</time>
      </trkpt>
      <trkpt lat="44.47096" lon="5.23707">
        <ele>1164.6</ele>
        <time>2022-04-28T09:13:06Z</time>
      </trkpt>
      <trkpt lat="44.47108" lon="5.23716">
        <ele>1167.8</ele>
        <time>2022-04-28T09:13:26Z</time>
      </trkpt>
      <trkpt lat="44.47118" lon="5.23721">
        <ele>1170.8</ele>
        <time>2022-04-28T09:13:48Z</time>
      </trkpt>
      <trkpt lat="44.47127" lon="5.23724">
        <ele>1173</ele>
        <time>2022-04-28T09:14:08Z</time>
      </trkpt>
      <trkpt lat="44.47134" lon="5.23731">
        <ele>1176</ele>
        <time>2022-04-28T09:14:26Z</time>
      </trkpt>
      <trkpt lat="44.4714" lon="5.23736">
        <ele>1178.2</ele>
        <time>2022-04-28T09:14:42Z</time>
      </trkpt>
      <trkpt lat="44.47151" lon="5.23746">
        <ele>1181</ele>
        <time>2022-04-28T09:15:04Z</time>
      </trkpt>
      <trkpt lat="44.47165" lon="5.23764">
        <ele>1184</ele>
        <time>2022-04-28T09:15:31Z</time>
      </trkpt>
      <trkpt lat="44.47174" lon="5.23773">
        <ele>1185.2</ele>
        <time>2022-04-28T09:15:47Z</time>
      </trkpt>
      <trkpt lat="44.47177" lon="5.23772">
        <ele>1185.8</ele>
        <time>2022-04-28T09:16:03Z</time>
      </trkpt>
      <trkpt lat="44.47183" lon="5.23771">
        <ele>1185.8</ele>
        <time>2022-04-28T09:16:17Z</time>
      </trkpt>
      <trkpt lat="44.47184" lon="5.23771">
        <ele>1185.8</ele>
        <time>2022-04-28T09:17:01Z</time>
      </trkpt>
      <trkpt lat="44.47183" lon="5.23773">
        <ele>1186</ele>
        <time>2022-04-28T09:17:14Z</time>
      </trkpt>
      <trkpt lat="44.47181" lon="5.23776">
        <ele>1186.2</ele>
        <time>2022-04-28T09:17:30Z</time>
      </trkpt>
      <trkpt lat="44.47181" lon="5.23781">
        <ele>1186.2</ele>
        <time>2022-04-28T09:17:37Z</time>
      </trkpt>
      <trkpt lat="44.4719" lon="5.23795">
        <ele>1186.8</ele>
        <time>2022-04-28T09:17:51Z</time>
      </trkpt>
      <trkpt lat="44.47199" lon="5.23809">
        <ele>1187.8</ele>
        <time>2022-04-28T09:18:05Z</time>
      </trkpt>
      <trkpt lat="44.47206" lon="5.23817">
        <ele>1189.2</ele>
        <time>2022-04-28T09:18:18Z</time>
      </trkpt>
      <trkpt lat="44.47212" lon="5.23828">
        <ele>1190.6</ele>
        <time>2022-04-28T09:18:32Z</time>
      </trkpt>
      <trkpt lat="44.47219" lon="5.23843">
        <ele>1192</ele>
        <time>2022-04-28T09:18:50Z</time>
      </trkpt>
      <trkpt lat="44.4723" lon="5.2386">
        <ele>1193.2</ele>
        <time>2022-04-28T09:19:11Z</time>
      </trkpt>
      <trkpt lat="44.47243" lon="5.23872">
        <ele>1195</ele>
        <time>2022-04-28T09:19:31Z</time>
      </trkpt>
      <trkpt lat="44.47261" lon="5.23883">
        <ele>1197.2</ele>
        <time>2022-04-28T09:19:57Z</time>
      </trkpt>
      <trkpt lat="44.47274" lon="5.23889">
        <ele>1199.4</ele>
        <time>2022-04-28T09:20:18Z</time>
      </trkpt>
      <trkpt lat="44.47276" lon="5.23895">
        <ele>1201.4</ele>
        <time>2022-04-28T09:20:37Z</time>
      </trkpt>
      <trkpt lat="44.47284" lon="5.23905">
        <ele>1203.2</ele>
        <time>2022-04-28T09:20:56Z</time>
      </trkpt>
      <trkpt lat="44.47293" lon="5.2391">
        <ele>1205.4</ele>
        <time>2022-04-28T09:21:14Z</time>
      </trkpt>
      <trkpt lat="44.47293" lon="5.23909">
        <ele>1206.6</ele>
        <time>2022-04-28T09:21:40Z</time>
      </trkpt>
      <trkpt lat="44.47302" lon="5.23916">
        <ele>1207</ele>
        <time>2022-04-28T09:21:58Z</time>
      </trkpt>
      <trkpt lat="44.47305" lon="5.23919">
        <ele>1208.8</ele>
        <time>2022-04-28T09:22:16Z</time>
      </trkpt>
      <trkpt lat="44.47314" lon="5.2393">
        <ele>1209.4</ele>
        <time>2022-04-28T09:22:30Z</time>
      </trkpt>
      <trkpt lat="44.47325" lon="5.23943">
        <ele>1212</ele>
        <time>2022-04-28T09:22:50Z</time>
      </trkpt>
      <trkpt lat="44.47332" lon="5.23946">
        <ele>1213.6</ele>
        <time>2022-04-28T09:23:06Z</time>
      </trkpt>
      <trkpt lat="44.47345" lon="5.23956">
        <ele>1216.6</ele>
        <time>2022-04-28T09:23:28Z</time>
      </trkpt>
      <trkpt lat="44.47352" lon="5.23965">
        <ele>1219.8</ele>
        <time>2022-04-28T09:23:43Z</time>
      </trkpt>
      <trkpt lat="44.47358" lon="5.23972">
        <ele>1222.8</ele>
        <time>2022-04-28T09:23:59Z</time>
      </trkpt>
      <trkpt lat="44.47365" lon="5.23978">
        <ele>1225.8</ele>
        <time>2022-04-28T09:24:18Z</time>
      </trkpt>
      <trkpt lat="44.47369" lon="5.23985">
        <ele>1228.6</ele>
        <time>2022-04-28T09:24:37Z</time>
      </trkpt>
      <trkpt lat="44.47374" lon="5.23994">
        <ele>1231.6</ele>
        <time>2022-04-28T09:24:57Z</time>
      </trkpt>
      <trkpt lat="44.47379" lon="5.23996">
        <ele>1234.6</ele>
        <time>2022-04-28T09:25:15Z</time>
      </trkpt>
      <trkpt lat="44.47382" lon="5.23999">
        <ele>1235</ele>
        <time>2022-04-28T09:25:36Z</time>
      </trkpt>
      <trkpt lat="44.47389" lon="5.24005">
        <ele>1236.6</ele>
        <time>2022-04-28T09:25:53Z</time>
      </trkpt>
      <trkpt lat="44.47395" lon="5.24013">
        <ele>1239.2</ele>
        <time>2022-04-28T09:26:13Z</time>
      </trkpt>
      <trkpt lat="44.47399" lon="5.24022">
        <ele>1242</ele>
        <time>2022-04-28T09:26:30Z</time>
      </trkpt>
      <trkpt lat="44.47407" lon="5.24028">
        <ele>1244.4</ele>
        <time>2022-04-28T09:26:46Z</time>
      </trkpt>
      <trkpt lat="44.47419" lon="5.24034">
        <ele>1246.6</ele>
        <time>2022-04-28T09:27:05Z</time>
      </trkpt>
      <trkpt lat="44.47422" lon="5.24042">
        <ele>1248.8</ele>
        <time>2022-04-28T09:27:20Z</time>
      </trkpt>
      <trkpt lat="44.47427" lon="5.24047">
        <ele>1251.4</ele>
        <time>2022-04-28T09:27:38Z</time>
      </trkpt>
      <trkpt lat="44.47435" lon="5.24054">
        <ele>1253</ele>
        <time>2022-04-28T09:27:55Z</time>
      </trkpt>
      <trkpt lat="44.47442" lon="5.2406">
        <ele>1255.2</ele>
        <time>2022-04-28T09:28:12Z</time>
      </trkpt>
      <trkpt lat="44.4745" lon="5.24065">
        <ele>1257.8</ele>
        <time>2022-04-28T09:28:29Z</time>
      </trkpt>
      <trkpt lat="44.47461" lon="5.24065">
        <ele>1259.4</ele>
        <time>2022-04-28T09:28:44Z</time>
      </trkpt>
      <trkpt lat="44.47471" lon="5.24068">
        <ele>1260.8</ele>
        <time>2022-04-28T09:28:59Z</time>
      </trkpt>
      <trkpt lat="44.47482" lon="5.2407">
        <ele>1262.4</ele>
        <time>2022-04-28T09:29:15Z</time>
      </trkpt>
      <trkpt lat="44.47499" lon="5.24074">
        <ele>1264.2</ele>
        <time>2022-04-28T09:29:35Z</time>
      </trkpt>
      <trkpt lat="44.47512" lon="5.24073">
        <ele>1265.8</ele>
        <time>2022-04-28T09:29:53Z</time>
      </trkpt>
      <trkpt lat="44.47527" lon="5.24074">
        <ele>1267.8</ele>
        <time>2022-04-28T09:30:13Z</time>
      </trkpt>
      <trkpt lat="44.47539" lon="5.24081">
        <ele>1270.6</ele>
        <time>2022-04-28T09:30:35Z</time>
      </trkpt>
      <trkpt lat="44.47544" lon="5.24087">
        <ele>1273.8</ele>
        <time>2022-04-28T09:30:50Z</time>
      </trkpt>
      <trkpt lat="44.47558" lon="5.24095">
        <ele>1276.8</ele>
        <time>2022-04-28T09:31:12Z</time>
      </trkpt>
      <trkpt lat="44.47566" lon="5.24103">
        <ele>1279.8</ele>
        <time>2022-04-28T09:31:34Z</time>
      </trkpt>
      <trkpt lat="44.47571" lon="5.24109">
        <ele>1282.8</ele>
        <time>2022-04-28T09:31:52Z</time>
      </trkpt>
      <trkpt lat="44.47576" lon="5.24111">
        <ele>1284.4</ele>
        <time>2022-04-28T09:32:12Z</time>
      </trkpt>
      <trkpt lat="44.47579" lon="5.24111">
        <ele>1285.8</ele>
        <time>2022-04-28T09:32:41Z</time>
      </trkpt>
      <trkpt lat="44.47583" lon="5.24116">
        <ele>1286.4</ele>
        <time>2022-04-28T09:33:04Z</time>
      </trkpt>
      <trkpt lat="44.47592" lon="5.24121">
        <ele>1289</ele>
        <time>2022-04-28T09:33:25Z</time>
      </trkpt>
      <trkpt lat="44.47603" lon="5.24128">
        <ele>1289.8</ele>
        <time>2022-04-28T09:33:50Z</time>
      </trkpt>
      <trkpt lat="44.47617" lon="5.24132">
        <ele>1293</ele>
        <time>2022-04-28T09:34:10Z</time>
      </trkpt>
      <trkpt lat="44.4763" lon="5.2413">
        <ele>1295.4</ele>
        <time>2022-04-28T09:34:28Z</time>
      </trkpt>
      <trkpt lat="44.47644" lon="5.24131">
        <ele>1297.4</ele>
        <time>2022-04-28T09:34:47Z</time>
      </trkpt>
      <trkpt lat="44.4765" lon="5.24134">
        <ele>1299</ele>
        <time>2022-04-28T09:35:03Z</time>
      </trkpt>
      <trkpt lat="44.47658" lon="5.24136">
        <ele>1300.4</ele>
        <time>2022-04-28T09:35:18Z</time>
      </trkpt>
      <trkpt lat="44.4767" lon="5.24137">
        <ele>1302.8</ele>
        <time>2022-04-28T09:35:40Z</time>
      </trkpt>
      <trkpt lat="44.47675" lon="5.24137">
        <ele>1304.2</ele>
        <time>2022-04-28T09:35:54Z</time>
      </trkpt>
      <trkpt lat="44.47678" lon="5.24139">
        <ele>1305</ele>
        <time>2022-04-28T09:36:14Z</time>
      </trkpt>
      <trkpt lat="44.47683" lon="5.24143">
        <ele>1307.6</ele>
        <time>2022-04-28T09:36:34Z</time>
      </trkpt>
      <trkpt lat="44.47688" lon="5.24146">
        <ele>1310</ele>
        <time>2022-04-28T09:36:50Z</time>
      </trkpt>
      <trkpt lat="44.47692" lon="5.24148">
        <ele>1312.6</ele>
        <time>2022-04-28T09:37:10Z</time>
      </trkpt>
      <trkpt lat="44.47697" lon="5.2415">
        <ele>1314.2</ele>
        <time>2022-04-28T09:37:32Z</time>
      </trkpt>
      <trkpt lat="44.47702" lon="5.2415">
        <ele>1316.4</ele>
        <time>2022-04-28T09:37:51Z</time>
      </trkpt>
      <trkpt lat="44.47706" lon="5.2415">
        <ele>1317.8</ele>
        <time>2022-04-28T09:38:07Z</time>
      </trkpt>
      <trkpt lat="44.47706" lon="5.24152">
        <ele>1318.2</ele>
        <time>2022-04-28T09:38:30Z</time>
      </trkpt>
      <trkpt lat="44.47705" lon="5.24155">
        <ele>1319.8</ele>
        <time>2022-04-28T09:38:43Z</time>
      </trkpt>
      <trkpt lat="44.47705" lon="5.24162">
        <ele>1321.8</ele>
        <time>2022-04-28T09:38:57Z</time>
      </trkpt>
      <trkpt lat="44.47707" lon="5.24168">
        <ele>1324.6</ele>
        <time>2022-04-28T09:39:11Z</time>
      </trkpt>
      <trkpt lat="44.47711" lon="5.24178">
        <ele>1326.6</ele>
        <time>2022-04-28T09:39:30Z</time>
      </trkpt>
      <trkpt lat="44.47716" lon="5.24179">
        <ele>1327.6</ele>
        <time>2022-04-28T09:39:49Z</time>
      </trkpt>
      <trkpt lat="44.47725" lon="5.24184">
        <ele>1330</ele>
        <time>2022-04-28T09:40:08Z</time>
      </trkpt>
      <trkpt lat="44.47725" lon="5.24184">
        <ele>1331.2</ele>
        <time>2022-04-28T09:40:48Z</time>
      </trkpt>
      <trkpt lat="44.47732" lon="5.24189">
        <ele>1332.6</ele>
        <time>2022-04-28T09:41:07Z</time>
      </trkpt>
      <trkpt lat="44.47732" lon="5.24189">
        <ele>1333.2</ele>
        <time>2022-04-28T09:41:28Z</time>
      </trkpt>
      <trkpt lat="44.47731" lon="5.24189">
        <ele>1333.2</ele>
        <time>2022-04-28T09:41:58Z</time>
      </trkpt>
      <trkpt lat="44.47734" lon="5.24189">
        <ele>1333</ele>
        <time>2022-04-28T09:42:37Z</time>
      </trkpt>
      <trkpt lat="44.47744" lon="5.24193">
        <ele>1334.4</ele>
        <time>2022-04-28T09:42:53Z</time>
      </trkpt>
      <trkpt lat="44.47754" lon="5.24195">
        <ele>1336.2</ele>
        <time>2022-04-28T09:43:08Z</time>
      </trkpt>
      <trkpt lat="44.47766" lon="5.24199">
        <ele>1339.2</ele>
        <time>2022-04-28T09:43:27Z</time>
      </trkpt>
      <trkpt lat="44.47776" lon="5.242">
        <ele>1342.4</ele>
        <time>2022-04-28T09:43:44Z</time>
      </trkpt>
      <trkpt lat="44.47779" lon="5.242">
        <ele>1343.4</ele>
        <time>2022-04-28T09:44:12Z</time>
      </trkpt>
      <trkpt lat="44.47786" lon="5.242">
        <ele>1344</ele>
        <time>2022-04-28T09:44:31Z</time>
      </trkpt>
      <trkpt lat="44.47786" lon="5.24199">
        <ele>1344.2</ele>
        <time>2022-04-28T09:45:14Z</time>
      </trkpt>
      <trkpt lat="44.47786" lon="5.242">
        <ele>1343.8</ele>
        <time>2022-04-28T09:46:01Z</time>
      </trkpt>
      <trkpt lat="44.47789" lon="5.24201">
        <ele>1344</ele>
        <time>2022-04-28T09:46:30Z</time>
      </trkpt>
      <trkpt lat="44.47796" lon="5.242">
        <ele>1344.6</ele>
        <time>2022-04-28T09:46:46Z</time>
      </trkpt>
      <trkpt lat="44.47804" lon="5.24196">
        <ele>1345</ele>
        <time>2022-04-28T09:47:05Z</time>
      </trkpt>
      <trkpt lat="44.47807" lon="5.24196">
        <ele>1346.4</ele>
        <time>2022-04-28T09:47:18Z</time>
      </trkpt>
      <trkpt lat="44.47808" lon="5.24196">
        <ele>1346.4</ele>
        <time>2022-04-28T09:47:19Z</time>
      </trkpt>
      <trkpt lat="44.47821" lon="5.24191">
        <ele>1346.6</ele>
        <time>2022-04-28T09:47:35Z</time>
      </trkpt>
      <trkpt lat="44.47823" lon="5.24191">
        <ele>1346.6</ele>
        <time>2022-04-28T09:47:37Z</time>
      </trkpt>
      <trkpt lat="44.47835" lon="5.24192">
        <ele>1347.2</ele>
        <time>2022-04-28T09:47:52Z</time>
      </trkpt>
      <trkpt lat="44.47841" lon="5.24192">
        <ele>1349.2</ele>
        <time>2022-04-28T09:48:08Z</time>
      </trkpt>
      <trkpt lat="44.47852" lon="5.2419">
        <ele>1351.4</ele>
        <time>2022-04-28T09:48:24Z</time>
      </trkpt>
      <trkpt lat="44.4786" lon="5.24191">
        <ele>1352.6</ele>
        <time>2022-04-28T09:48:40Z</time>
      </trkpt>
      <trkpt lat="44.47858" lon="5.2419">
        <ele>1352.8</ele>
        <time>2022-04-28T09:48:54Z</time>
      </trkpt>
      <trkpt lat="44.47859" lon="5.24191">
        <ele>1353</ele>
        <time>2022-04-28T09:49:19Z</time>
      </trkpt>
      <trkpt lat="44.47865" lon="5.24193">
        <ele>1353</ele>
        <time>2022-04-28T09:49:34Z</time>
      </trkpt>
      <trkpt lat="44.47876" lon="5.24196">
        <ele>1352.6</ele>
        <time>2022-04-28T09:49:49Z</time>
      </trkpt>
      <trkpt lat="44.47886" lon="5.24197">
        <ele>1353.2</ele>
        <time>2022-04-28T09:50:02Z</time>
      </trkpt>
      <trkpt lat="44.47895" lon="5.24196">
        <ele>1353.6</ele>
        <time>2022-04-28T09:50:17Z</time>
      </trkpt>
      <trkpt lat="44.47905" lon="5.24192">
        <ele>1355.2</ele>
        <time>2022-04-28T09:50:31Z</time>
      </trkpt>
      <trkpt lat="44.47918" lon="5.24189">
        <ele>1356.4</ele>
        <time>2022-04-28T09:50:50Z</time>
      </trkpt>
      <trkpt lat="44.47928" lon="5.24187">
        <ele>1356.6</ele>
        <time>2022-04-28T09:51:06Z</time>
      </trkpt>
      <trkpt lat="44.47941" lon="5.24186">
        <ele>1357</ele>
        <time>2022-04-28T09:51:28Z</time>
      </trkpt>
      <trkpt lat="44.47941" lon="5.24185">
        <ele>1357.2</ele>
        <time>2022-04-28T09:52:01Z</time>
      </trkpt>
      <trkpt lat="44.4794" lon="5.24186">
        <ele>1357.4</ele>
        <time>2022-04-28T09:52:35Z</time>
      </trkpt>
      <trkpt lat="44.47938" lon="5.24185">
        <ele>1357.8</ele>
        <time>2022-04-28T09:53:33Z</time>
      </trkpt>
      <trkpt lat="44.47938" lon="5.24186">
        <ele>1357.4</ele>
        <time>2022-04-28T09:53:50Z</time>
      </trkpt>
      <trkpt lat="44.47939" lon="5.24189">
        <ele>1357</ele>
        <time>2022-04-28T09:54:12Z</time>
      </trkpt>
      <trkpt lat="44.47944" lon="5.24195">
        <ele>1356.8</ele>
        <time>2022-04-28T09:54:19Z</time>
      </trkpt>
      <trkpt lat="44.47947" lon="5.24198">
        <ele>1356.6</ele>
        <time>2022-04-28T09:54:24Z</time>
      </trkpt>
      <trkpt lat="44.47955" lon="5.242">
        <ele>1356.4</ele>
        <time>2022-04-28T09:54:33Z</time>
      </trkpt>
      <trkpt lat="44.47957" lon="5.242">
        <ele>1355.6</ele>
        <time>2022-04-28T09:54:50Z</time>
      </trkpt>
      <trkpt lat="44.47956" lon="5.24201">
        <ele>1355</ele>
        <time>2022-04-28T09:55:40Z</time>
      </trkpt>
      <trkpt lat="44.47955" lon="5.24201">
        <ele>1354.6</ele>
        <time>2022-04-28T09:59:06Z</time>
      </trkpt>
      <trkpt lat="44.47955" lon="5.242">
        <ele>1354.8</ele>
        <time>2022-04-28T10:00:02Z</time>
      </trkpt>
      <trkpt lat="44.47957" lon="5.24204">
        <ele>1354.2</ele>
        <time>2022-04-28T10:08:03Z</time>
      </trkpt>
      <trkpt lat="44.47956" lon="5.24202">
        <ele>1354.2</ele>
        <time>2022-04-28T10:12:42Z</time>
      </trkpt>
      <trkpt lat="44.47955" lon="5.24201">
        <ele>1354.4</ele>
        <time>2022-04-28T10:15:17Z</time>
      </trkpt>
      <trkpt lat="44.47956" lon="5.24201">
        <ele>1354.8</ele>
        <time>2022-04-28T10:15:45Z</time>
      </trkpt>
      <trkpt lat="44.47956" lon="5.242">
        <ele>1354.6</ele>
        <time>2022-04-28T10:16:38Z</time>
      </trkpt>
      <trkpt lat="44.47957" lon="5.242">
        <ele>1354.8</ele>
        <time>2022-04-28T10:17:17Z</time>
      </trkpt>
      <trkpt lat="44.47956" lon="5.24199">
        <ele>1354.8</ele>
        <time>2022-04-28T10:17:44Z</time>
      </trkpt>
      <trkpt lat="44.47957" lon="5.24201">
        <ele>1355.2</ele>
        <time>2022-04-28T10:20:18Z</time>
      </trkpt>
      <trkpt lat="44.47957" lon="5.24201">
        <ele>1355.2</ele>
        <time>2022-04-28T10:27:31Z</time>
      </trkpt>
      <trkpt lat="44.47956" lon="5.24201">
        <ele>1354.6</ele>
        <time>2022-04-28T10:36:13Z</time>
      </trkpt>
      <trkpt lat="44.47955" lon="5.24202">
        <ele>1354.4</ele>
        <time>2022-04-28T10:43:17Z</time>
      </trkpt>
      <trkpt lat="44.47957" lon="5.24203">
        <ele>1354.6</ele>
        <time>2022-04-28T10:44:34Z</time>
      </trkpt>
      <trkpt lat="44.47958" lon="5.24203">
        <ele>1354.2</ele>
        <time>2022-04-28T10:44:43Z</time>
      </trkpt>
      <trkpt lat="44.47957" lon="5.24202">
        <ele>1354.8</ele>
        <time>2022-04-28T10:45:04Z</time>
      </trkpt>
      <trkpt lat="44.47956" lon="5.24205">
        <ele>1355.2</ele>
        <time>2022-04-28T10:45:31Z</time>
      </trkpt>
      <trkpt lat="44.47954" lon="5.24204">
        <ele>1355.4</ele>
        <time>2022-04-28T10:45:51Z</time>
      </trkpt>
      <trkpt lat="44.47954" lon="5.24202">
        <ele>1355.6</ele>
        <time>2022-04-28T10:46:13Z</time>
      </trkpt>
      <trkpt lat="44.47954" lon="5.24202">
        <ele>1356</ele>
        <time>2022-04-28T10:46:37Z</time>
      </trkpt>
      <trkpt lat="44.47951" lon="5.24196">
        <ele>1355.8</ele>
        <time>2022-04-28T10:46:59Z</time>
      </trkpt>
      <trkpt lat="44.4795" lon="5.24194">
        <ele>1356.2</ele>
        <time>2022-04-28T10:47:27Z</time>
      </trkpt>
      <trkpt lat="44.47949" lon="5.24192">
        <ele>1356.4</ele>
        <time>2022-04-28T10:48:25Z</time>
      </trkpt>
      <trkpt lat="44.4795" lon="5.24191">
        <ele>1356.4</ele>
        <time>2022-04-28T10:48:39Z</time>
      </trkpt>
      <trkpt lat="44.4795" lon="5.24189">
        <ele>1356.2</ele>
        <time>2022-04-28T10:48:57Z</time>
      </trkpt>
      <trkpt lat="44.47952" lon="5.24188">
        <ele>1356.6</ele>
        <time>2022-04-28T10:49:15Z</time>
      </trkpt>
      <trkpt lat="44.47959" lon="5.24185">
        <ele>1356.4</ele>
        <time>2022-04-28T10:49:28Z</time>
      </trkpt>
      <trkpt lat="44.4797" lon="5.24175">
        <ele>1354.6</ele>
        <time>2022-04-28T10:49:45Z</time>
      </trkpt>
      <trkpt lat="44.47983" lon="5.24163">
        <ele>1352.2</ele>
        <time>2022-04-28T10:50:04Z</time>
      </trkpt>
      <trkpt lat="44.47985" lon="5.2416">
        <ele>1351.6</ele>
        <time>2022-04-28T10:50:09Z</time>
      </trkpt>
      <trkpt lat="44.47992" lon="5.24156">
        <ele>1350.6</ele>
        <time>2022-04-28T10:50:21Z</time>
      </trkpt>
      <trkpt lat="44.47997" lon="5.24151">
        <ele>1350.8</ele>
        <time>2022-04-28T10:50:34Z</time>
      </trkpt>
      <trkpt lat="44.48" lon="5.24148">
        <ele>1351.4</ele>
        <time>2022-04-28T10:50:46Z</time>
      </trkpt>
      <trkpt lat="44.48005" lon="5.24148">
        <ele>1351</ele>
        <time>2022-04-28T10:50:57Z</time>
      </trkpt>
      <trkpt lat="44.48011" lon="5.24143">
        <ele>1350</ele>
        <time>2022-04-28T10:51:11Z</time>
      </trkpt>
      <trkpt lat="44.48012" lon="5.2414">
        <ele>1348.6</ele>
        <time>2022-04-28T10:51:23Z</time>
      </trkpt>
      <trkpt lat="44.48016" lon="5.24138">
        <ele>1347.2</ele>
        <time>2022-04-28T10:51:41Z</time>
      </trkpt>
      <trkpt lat="44.48025" lon="5.24132">
        <ele>1345.2</ele>
        <time>2022-04-28T10:51:56Z</time>
      </trkpt>
      <trkpt lat="44.48028" lon="5.24128">
        <ele>1342.8</ele>
        <time>2022-04-28T10:52:07Z</time>
      </trkpt>
      <trkpt lat="44.48034" lon="5.24126">
        <ele>1340.2</ele>
        <time>2022-04-28T10:52:20Z</time>
      </trkpt>
      <trkpt lat="44.48039" lon="5.24122">
        <ele>1337</ele>
        <time>2022-04-28T10:52:31Z</time>
      </trkpt>
      <trkpt lat="44.48045" lon="5.24118">
        <ele>1334</ele>
        <time>2022-04-28T10:52:44Z</time>
      </trkpt>
      <trkpt lat="44.48054" lon="5.24111">
        <ele>1331</ele>
        <time>2022-04-28T10:53:00Z</time>
      </trkpt>
      <trkpt lat="44.48057" lon="5.24106">
        <ele>1329.2</ele>
        <time>2022-04-28T10:53:13Z</time>
      </trkpt>
      <trkpt lat="44.48064" lon="5.24101">
        <ele>1328.6</ele>
        <time>2022-04-28T10:53:41Z</time>
      </trkpt>
      <trkpt lat="44.48071" lon="5.24096">
        <ele>1325.4</ele>
        <time>2022-04-28T10:53:54Z</time>
      </trkpt>
      <trkpt lat="44.48079" lon="5.24084">
        <ele>1322.8</ele>
        <time>2022-04-28T10:54:09Z</time>
      </trkpt>
      <trkpt lat="44.48084" lon="5.24076">
        <ele>1321.6</ele>
        <time>2022-04-28T10:54:26Z</time>
      </trkpt>
      <trkpt lat="44.48091" lon="5.2407">
        <ele>1319.6</ele>
        <time>2022-04-28T10:54:43Z</time>
      </trkpt>
      <trkpt lat="44.48099" lon="5.24063">
        <ele>1316.6</ele>
        <time>2022-04-28T10:55:00Z</time>
      </trkpt>
      <trkpt lat="44.48102" lon="5.24059">
        <ele>1314.6</ele>
        <time>2022-04-28T10:55:14Z</time>
      </trkpt>
      <trkpt lat="44.48108" lon="5.24052">
        <ele>1312.6</ele>
        <time>2022-04-28T10:55:28Z</time>
      </trkpt>
      <trkpt lat="44.48114" lon="5.24044">
        <ele>1310.8</ele>
        <time>2022-04-28T10:55:43Z</time>
      </trkpt>
      <trkpt lat="44.48123" lon="5.24033">
        <ele>1308</ele>
        <time>2022-04-28T10:56:02Z</time>
      </trkpt>
      <trkpt lat="44.48131" lon="5.24025">
        <ele>1306.2</ele>
        <time>2022-04-28T10:56:17Z</time>
      </trkpt>
      <trkpt lat="44.48135" lon="5.24015">
        <ele>1304.6</ele>
        <time>2022-04-28T10:56:33Z</time>
      </trkpt>
      <trkpt lat="44.48135" lon="5.24013">
        <ele>1304</ele>
        <time>2022-04-28T10:57:09Z</time>
      </trkpt>
      <trkpt lat="44.48142" lon="5.24011">
        <ele>1302.8</ele>
        <time>2022-04-28T10:57:23Z</time>
      </trkpt>
      <trkpt lat="44.48143" lon="5.2401">
        <ele>1302.2</ele>
        <time>2022-04-28T10:57:30Z</time>
      </trkpt>
      <trkpt lat="44.48145" lon="5.24009">
        <ele>1301.8</ele>
        <time>2022-04-28T10:57:32Z</time>
      </trkpt>
      <trkpt lat="44.48156" lon="5.24">
        <ele>1300.2</ele>
        <time>2022-04-28T10:57:47Z</time>
      </trkpt>
      <trkpt lat="44.4817" lon="5.23994">
        <ele>1297.2</ele>
        <time>2022-04-28T10:58:04Z</time>
      </trkpt>
      <trkpt lat="44.4818" lon="5.23993">
        <ele>1294.2</ele>
        <time>2022-04-28T10:58:20Z</time>
      </trkpt>
      <trkpt lat="44.4819" lon="5.23991">
        <ele>1291.2</ele>
        <time>2022-04-28T10:58:37Z</time>
      </trkpt>
      <trkpt lat="44.48198" lon="5.23989">
        <ele>1288</ele>
        <time>2022-04-28T10:58:50Z</time>
      </trkpt>
      <trkpt lat="44.4821" lon="5.23989">
        <ele>1285</ele>
        <time>2022-04-28T10:59:08Z</time>
      </trkpt>
      <trkpt lat="44.48219" lon="5.23988">
        <ele>1282.4</ele>
        <time>2022-04-28T10:59:21Z</time>
      </trkpt>
      <trkpt lat="44.4823" lon="5.23986">
        <ele>1279.4</ele>
        <time>2022-04-28T10:59:38Z</time>
      </trkpt>
      <trkpt lat="44.48246" lon="5.23986">
        <ele>1276.4</ele>
        <time>2022-04-28T10:59:57Z</time>
      </trkpt>
      <trkpt lat="44.48257" lon="5.23982">
        <ele>1274.2</ele>
        <time>2022-04-28T11:00:12Z</time>
      </trkpt>
      <trkpt lat="44.48259" lon="5.23982">
        <ele>1274</ele>
        <time>2022-04-28T11:00:14Z</time>
      </trkpt>
      <trkpt lat="44.48277" lon="5.23982">
        <ele>1272</ele>
        <time>2022-04-28T11:00:34Z</time>
      </trkpt>
      <trkpt lat="44.48293" lon="5.2398">
        <ele>1269.6</ele>
        <time>2022-04-28T11:00:53Z</time>
      </trkpt>
      <trkpt lat="44.48305" lon="5.23982">
        <ele>1267.6</ele>
        <time>2022-04-28T11:01:11Z</time>
      </trkpt>
      <trkpt lat="44.48315" lon="5.23983">
        <ele>1265.6</ele>
        <time>2022-04-28T11:01:25Z</time>
      </trkpt>
      <trkpt lat="44.48327" lon="5.23983">
        <ele>1264</ele>
        <time>2022-04-28T11:01:41Z</time>
      </trkpt>
      <trkpt lat="44.48331" lon="5.23981">
        <ele>1262.8</ele>
        <time>2022-04-28T11:01:57Z</time>
      </trkpt>
      <trkpt lat="44.48342" lon="5.23981">
        <ele>1261.4</ele>
        <time>2022-04-28T11:02:12Z</time>
      </trkpt>
      <trkpt lat="44.48354" lon="5.23983">
        <ele>1258.8</ele>
        <time>2022-04-28T11:02:27Z</time>
      </trkpt>
      <trkpt lat="44.48368" lon="5.23981">
        <ele>1255.6</ele>
        <time>2022-04-28T11:02:45Z</time>
      </trkpt>
      <trkpt lat="44.48377" lon="5.23979">
        <ele>1253.8</ele>
        <time>2022-04-28T11:02:59Z</time>
      </trkpt>
      <trkpt lat="44.48388" lon="5.23975">
        <ele>1250.8</ele>
        <time>2022-04-28T11:03:15Z</time>
      </trkpt>
      <trkpt lat="44.48392" lon="5.23975">
        <ele>1248</ele>
        <time>2022-04-28T11:03:31Z</time>
      </trkpt>
      <trkpt lat="44.48392" lon="5.23975">
        <ele>1248</ele>
        <time>2022-04-28T11:04:02Z</time>
      </trkpt>
      <trkpt lat="44.48382" lon="5.23966">
        <ele>1248</ele>
        <time>2022-04-28T11:04:15Z</time>
      </trkpt>
      <trkpt lat="44.48379" lon="5.23964">
        <ele>1248.6</ele>
        <time>2022-04-28T11:04:30Z</time>
      </trkpt>
      <trkpt lat="44.48383" lon="5.23967">
        <ele>1248.8</ele>
        <time>2022-04-28T11:05:26Z</time>
      </trkpt>
      <trkpt lat="44.48389" lon="5.23971">
        <ele>1248.8</ele>
        <time>2022-04-28T11:05:36Z</time>
      </trkpt>
      <trkpt lat="44.48404" lon="5.23974">
        <ele>1246.4</ele>
        <time>2022-04-28T11:05:53Z</time>
      </trkpt>
      <trkpt lat="44.48418" lon="5.23975">
        <ele>1243.2</ele>
        <time>2022-04-28T11:06:08Z</time>
      </trkpt>
      <trkpt lat="44.48426" lon="5.23976">
        <ele>1240.2</ele>
        <time>2022-04-28T11:06:20Z</time>
      </trkpt>
      <trkpt lat="44.48433" lon="5.23977">
        <ele>1237.2</ele>
        <time>2022-04-28T11:06:31Z</time>
      </trkpt>
      <trkpt lat="44.48438" lon="5.23981">
        <ele>1234</ele>
        <time>2022-04-28T11:06:43Z</time>
      </trkpt>
      <trkpt lat="44.48445" lon="5.23984">
        <ele>1231</ele>
        <time>2022-04-28T11:06:56Z</time>
      </trkpt>
      <trkpt lat="44.48453" lon="5.23988">
        <ele>1227.8</ele>
        <time>2022-04-28T11:07:11Z</time>
      </trkpt>
      <trkpt lat="44.4846" lon="5.23988">
        <ele>1224.6</ele>
        <time>2022-04-28T11:07:24Z</time>
      </trkpt>
      <trkpt lat="44.48467" lon="5.23987">
        <ele>1221.6</ele>
        <time>2022-04-28T11:07:39Z</time>
      </trkpt>
      <trkpt lat="44.48474" lon="5.23989">
        <ele>1218.4</ele>
        <time>2022-04-28T11:07:54Z</time>
      </trkpt>
      <trkpt lat="44.48481" lon="5.2399">
        <ele>1215.6</ele>
        <time>2022-04-28T11:08:08Z</time>
      </trkpt>
      <trkpt lat="44.48483" lon="5.23989">
        <ele>1213.4</ele>
        <time>2022-04-28T11:08:23Z</time>
      </trkpt>
      <trkpt lat="44.48487" lon="5.23988">
        <ele>1211.6</ele>
        <time>2022-04-28T11:08:39Z</time>
      </trkpt>
      <trkpt lat="44.48494" lon="5.23986">
        <ele>1210.2</ele>
        <time>2022-04-28T11:08:59Z</time>
      </trkpt>
      <trkpt lat="44.48497" lon="5.23987">
        <ele>1208</ele>
        <time>2022-04-28T11:09:11Z</time>
      </trkpt>
      <trkpt lat="44.48503" lon="5.23984">
        <ele>1206.6</ele>
        <time>2022-04-28T11:09:25Z</time>
      </trkpt>
      <trkpt lat="44.48514" lon="5.23978">
        <ele>1203.6</ele>
        <time>2022-04-28T11:09:44Z</time>
      </trkpt>
      <trkpt lat="44.48521" lon="5.23977">
        <ele>1200.6</ele>
        <time>2022-04-28T11:09:59Z</time>
      </trkpt>
      <trkpt lat="44.48528" lon="5.23978">
        <ele>1197.4</ele>
        <time>2022-04-28T11:10:13Z</time>
      </trkpt>
      <trkpt lat="44.48535" lon="5.23978">
        <ele>1195.2</ele>
        <time>2022-04-28T11:10:29Z</time>
      </trkpt>
      <trkpt lat="44.48545" lon="5.2398">
        <ele>1192.8</ele>
        <time>2022-04-28T11:10:46Z</time>
      </trkpt>
      <trkpt lat="44.48559" lon="5.23982">
        <ele>1190</ele>
        <time>2022-04-28T11:11:04Z</time>
      </trkpt>
      <trkpt lat="44.48573" lon="5.23978">
        <ele>1188</ele>
        <time>2022-04-28T11:11:21Z</time>
      </trkpt>
      <trkpt lat="44.48584" lon="5.23977">
        <ele>1187.6</ele>
        <time>2022-04-28T11:11:39Z</time>
      </trkpt>
      <trkpt lat="44.48582" lon="5.23976">
        <ele>1188</ele>
        <time>2022-04-28T11:11:57Z</time>
      </trkpt>
      <trkpt lat="44.4859" lon="5.23973">
        <ele>1188.2</ele>
        <time>2022-04-28T11:12:21Z</time>
      </trkpt>
      <trkpt lat="44.48603" lon="5.23969">
        <ele>1189.6</ele>
        <time>2022-04-28T11:12:36Z</time>
      </trkpt>
      <trkpt lat="44.48616" lon="5.23963">
        <ele>1191.4</ele>
        <time>2022-04-28T11:12:53Z</time>
      </trkpt>
      <trkpt lat="44.48629" lon="5.23959">
        <ele>1193.8</ele>
        <time>2022-04-28T11:13:10Z</time>
      </trkpt>
      <trkpt lat="44.48642" lon="5.23951">
        <ele>1195.6</ele>
        <time>2022-04-28T11:13:28Z</time>
      </trkpt>
      <trkpt lat="44.48652" lon="5.23943">
        <ele>1197.2</ele>
        <time>2022-04-28T11:13:44Z</time>
      </trkpt>
      <trkpt lat="44.4866" lon="5.23933">
        <ele>1198.8</ele>
        <time>2022-04-28T11:14:01Z</time>
      </trkpt>
      <trkpt lat="44.48664" lon="5.23928">
        <ele>1200.8</ele>
        <time>2022-04-28T11:14:22Z</time>
      </trkpt>
      <trkpt lat="44.48671" lon="5.23926">
        <ele>1202.4</ele>
        <time>2022-04-28T11:14:35Z</time>
      </trkpt>
      <trkpt lat="44.48683" lon="5.23919">
        <ele>1204.6</ele>
        <time>2022-04-28T11:14:51Z</time>
      </trkpt>
      <trkpt lat="44.48692" lon="5.23906">
        <ele>1206.4</ele>
        <time>2022-04-28T11:15:05Z</time>
      </trkpt>
      <trkpt lat="44.48698" lon="5.2389">
        <ele>1208.2</ele>
        <time>2022-04-28T11:15:21Z</time>
      </trkpt>
      <trkpt lat="44.48701" lon="5.23885">
        <ele>1208.4</ele>
        <time>2022-04-28T11:15:25Z</time>
      </trkpt>
      <trkpt lat="44.48713" lon="5.2386">
        <ele>1208.4</ele>
        <time>2022-04-28T11:15:48Z</time>
      </trkpt>
      <trkpt lat="44.48725" lon="5.2384">
        <ele>1207.8</ele>
        <time>2022-04-28T11:16:07Z</time>
      </trkpt>
      <trkpt lat="44.48737" lon="5.23821">
        <ele>1207.2</ele>
        <time>2022-04-28T11:16:27Z</time>
      </trkpt>
      <trkpt lat="44.48745" lon="5.23803">
        <ele>1206.6</ele>
        <time>2022-04-28T11:16:43Z</time>
      </trkpt>
      <trkpt lat="44.48755" lon="5.23777">
        <ele>1207.4</ele>
        <time>2022-04-28T11:17:05Z</time>
      </trkpt>
      <trkpt lat="44.48762" lon="5.2376">
        <ele>1209.4</ele>
        <time>2022-04-28T11:17:22Z</time>
      </trkpt>
      <trkpt lat="44.48767" lon="5.23748">
        <ele>1212</ele>
        <time>2022-04-28T11:17:40Z</time>
      </trkpt>
      <trkpt lat="44.48776" lon="5.23732">
        <ele>1213.2</ele>
        <time>2022-04-28T11:17:57Z</time>
      </trkpt>
      <trkpt lat="44.48783" lon="5.23721">
        <ele>1214.8</ele>
        <time>2022-04-28T11:18:12Z</time>
      </trkpt>
      <trkpt lat="44.48787" lon="5.23708">
        <ele>1216.6</ele>
        <time>2022-04-28T11:18:27Z</time>
      </trkpt>
      <trkpt lat="44.48792" lon="5.23696">
        <ele>1219</ele>
        <time>2022-04-28T11:18:41Z</time>
      </trkpt>
      <trkpt lat="44.48793" lon="5.23692">
        <ele>1220.6</ele>
        <time>2022-04-28T11:19:16Z</time>
      </trkpt>
      <trkpt lat="44.48799" lon="5.23679">
        <ele>1221.8</ele>
        <time>2022-04-28T11:19:32Z</time>
      </trkpt>
      <trkpt lat="44.48809" lon="5.23663">
        <ele>1223.8</ele>
        <time>2022-04-28T11:19:49Z</time>
      </trkpt>
      <trkpt lat="44.48817" lon="5.23648">
        <ele>1226.4</ele>
        <time>2022-04-28T11:20:06Z</time>
      </trkpt>
      <trkpt lat="44.48822" lon="5.23637">
        <ele>1228.2</ele>
        <time>2022-04-28T11:20:21Z</time>
      </trkpt>
      <trkpt lat="44.48822" lon="5.23636">
        <ele>1229.2</ele>
        <time>2022-04-28T11:20:39Z</time>
      </trkpt>
      <trkpt lat="44.48839" lon="5.23619">
        <ele>1229.2</ele>
        <time>2022-04-28T11:20:59Z</time>
      </trkpt>
      <trkpt lat="44.48857" lon="5.23602">
        <ele>1230.2</ele>
        <time>2022-04-28T11:21:20Z</time>
      </trkpt>
      <trkpt lat="44.48861" lon="5.23598">
        <ele>1230.6</ele>
        <time>2022-04-28T11:21:25Z</time>
      </trkpt>
      <trkpt lat="44.48865" lon="5.23597">
        <ele>1230.8</ele>
        <time>2022-04-28T11:21:29Z</time>
      </trkpt>
      <trkpt lat="44.48873" lon="5.23592">
        <ele>1230.8</ele>
        <time>2022-04-28T11:21:37Z</time>
      </trkpt>
      <trkpt lat="44.48881" lon="5.23582">
        <ele>1231</ele>
        <time>2022-04-28T11:21:49Z</time>
      </trkpt>
      <trkpt lat="44.489" lon="5.23569">
        <ele>1231.4</ele>
        <time>2022-04-28T11:22:11Z</time>
      </trkpt>
      <trkpt lat="44.48909" lon="5.2356">
        <ele>1231.8</ele>
        <time>2022-04-28T11:22:26Z</time>
      </trkpt>
      <trkpt lat="44.48913" lon="5.23557">
        <ele>1232.4</ele>
        <time>2022-04-28T11:22:39Z</time>
      </trkpt>
      <trkpt lat="44.48914" lon="5.23559">
        <ele>1232.6</ele>
        <time>2022-04-28T11:23:03Z</time>
      </trkpt>
      <trkpt lat="44.48919" lon="5.23556">
        <ele>1232.2</ele>
        <time>2022-04-28T11:23:17Z</time>
      </trkpt>
      <trkpt lat="44.48919" lon="5.23555">
        <ele>1232.2</ele>
        <time>2022-04-28T11:23:53Z</time>
      </trkpt>
      <trkpt lat="44.48919" lon="5.23556">
        <ele>1232.2</ele>
        <time>2022-04-28T11:24:18Z</time>
      </trkpt>
      <trkpt lat="44.48917" lon="5.23556">
        <ele>1231.6</ele>
        <time>2022-04-28T11:24:51Z</time>
      </trkpt>
      <trkpt lat="44.48916" lon="5.23557">
        <ele>1231.8</ele>
        <time>2022-04-28T11:25:31Z</time>
      </trkpt>
      <trkpt lat="44.48925" lon="5.23556">
        <ele>1231.4</ele>
        <time>2022-04-28T11:25:49Z</time>
      </trkpt>
      <trkpt lat="44.48935" lon="5.23548">
        <ele>1229.8</ele>
        <time>2022-04-28T11:26:05Z</time>
      </trkpt>
      <trkpt lat="44.48942" lon="5.23545">
        <ele>1228.4</ele>
        <time>2022-04-28T11:26:19Z</time>
      </trkpt>
      <trkpt lat="44.48949" lon="5.23542">
        <ele>1228</ele>
        <time>2022-04-28T11:26:32Z</time>
      </trkpt>
      <trkpt lat="44.4896" lon="5.23536">
        <ele>1226.6</ele>
        <time>2022-04-28T11:26:47Z</time>
      </trkpt>
      <trkpt lat="44.48968" lon="5.2353">
        <ele>1225.8</ele>
        <time>2022-04-28T11:26:59Z</time>
      </trkpt>
      <trkpt lat="44.48973" lon="5.23526">
        <ele>1225.4</ele>
        <time>2022-04-28T11:27:07Z</time>
      </trkpt>
      <trkpt lat="44.48982" lon="5.23522">
        <ele>1223.2</ele>
        <time>2022-04-28T11:27:23Z</time>
      </trkpt>
      <trkpt lat="44.48982" lon="5.23522">
        <ele>1223</ele>
        <time>2022-04-28T11:27:54Z</time>
      </trkpt>
      <trkpt lat="44.48985" lon="5.2352">
        <ele>1223</ele>
        <time>2022-04-28T11:28:21Z</time>
      </trkpt>
      <trkpt lat="44.48995" lon="5.23513">
        <ele>1222.2</ele>
        <time>2022-04-28T11:28:37Z</time>
      </trkpt>
      <trkpt lat="44.49001" lon="5.2351">
        <ele>1221.4</ele>
        <time>2022-04-28T11:28:45Z</time>
      </trkpt>
      <trkpt lat="44.49025" lon="5.23499">
        <ele>1220.2</ele>
        <time>2022-04-28T11:29:08Z</time>
      </trkpt>
      <trkpt lat="44.49037" lon="5.23483">
        <ele>1219.8</ele>
        <time>2022-04-28T11:29:24Z</time>
      </trkpt>
      <trkpt lat="44.4905" lon="5.23473">
        <ele>1219.2</ele>
        <time>2022-04-28T11:29:40Z</time>
      </trkpt>
      <trkpt lat="44.49051" lon="5.23473">
        <ele>1219.4</ele>
        <time>2022-04-28T11:30:06Z</time>
      </trkpt>
      <trkpt lat="44.49054" lon="5.23471">
        <ele>1219.4</ele>
        <time>2022-04-28T11:30:21Z</time>
      </trkpt>
      <trkpt lat="44.49061" lon="5.23461">
        <ele>1219.8</ele>
        <time>2022-04-28T11:30:35Z</time>
      </trkpt>
      <trkpt lat="44.49065" lon="5.23456">
        <ele>1221.2</ele>
        <time>2022-04-28T11:30:48Z</time>
      </trkpt>
      <trkpt lat="44.49072" lon="5.23455">
        <ele>1222.8</ele>
        <time>2022-04-28T11:31:00Z</time>
      </trkpt>
      <trkpt lat="44.49079" lon="5.23458">
        <ele>1223.2</ele>
        <time>2022-04-28T11:31:16Z</time>
      </trkpt>
      <trkpt lat="44.49079" lon="5.23454">
        <ele>1223.8</ele>
        <time>2022-04-28T11:31:39Z</time>
      </trkpt>
      <trkpt lat="44.49083" lon="5.2345">
        <ele>1222.8</ele>
        <time>2022-04-28T11:32:03Z</time>
      </trkpt>
      <trkpt lat="44.49088" lon="5.23446">
        <ele>1221.2</ele>
        <time>2022-04-28T11:32:16Z</time>
      </trkpt>
      <trkpt lat="44.49094" lon="5.2344">
        <ele>1219.4</ele>
        <time>2022-04-28T11:32:31Z</time>
      </trkpt>
      <trkpt lat="44.491" lon="5.23435">
        <ele>1216.8</ele>
        <time>2022-04-28T11:32:53Z</time>
      </trkpt>
      <trkpt lat="44.49107" lon="5.23428">
        <ele>1213.6</ele>
        <time>2022-04-28T11:33:08Z</time>
      </trkpt>
      <trkpt lat="44.49109" lon="5.23426">
        <ele>1211.2</ele>
        <time>2022-04-28T11:33:23Z</time>
      </trkpt>
      <trkpt lat="44.49117" lon="5.23418">
        <ele>1209.2</ele>
        <time>2022-04-28T11:33:39Z</time>
      </trkpt>
      <trkpt lat="44.4912" lon="5.23417">
        <ele>1207.4</ele>
        <time>2022-04-28T11:33:44Z</time>
      </trkpt>
      <trkpt lat="44.49125" lon="5.23408">
        <ele>1204.6</ele>
        <time>2022-04-28T11:33:57Z</time>
      </trkpt>
      <trkpt lat="44.49131" lon="5.23406">
        <ele>1202</ele>
        <time>2022-04-28T11:34:08Z</time>
      </trkpt>
      <trkpt lat="44.49135" lon="5.23396">
        <ele>1198.8</ele>
        <time>2022-04-28T11:34:21Z</time>
      </trkpt>
      <trkpt lat="44.49138" lon="5.23392">
        <ele>1195.8</ele>
        <time>2022-04-28T11:34:34Z</time>
      </trkpt>
      <trkpt lat="44.49139" lon="5.23392">
        <ele>1194.4</ele>
        <time>2022-04-28T11:35:10Z</time>
      </trkpt>
      <trkpt lat="44.49144" lon="5.23388">
        <ele>1194</ele>
        <time>2022-04-28T11:35:24Z</time>
      </trkpt>
      <trkpt lat="44.4915" lon="5.23381">
        <ele>1191.2</ele>
        <time>2022-04-28T11:35:39Z</time>
      </trkpt>
      <trkpt lat="44.49156" lon="5.23375">
        <ele>1188.6</ele>
        <time>2022-04-28T11:35:53Z</time>
      </trkpt>
      <trkpt lat="44.4916" lon="5.23372">
        <ele>1185.4</ele>
        <time>2022-04-28T11:36:06Z</time>
      </trkpt>
      <trkpt lat="44.49163" lon="5.23366">
        <ele>1183.8</ele>
        <time>2022-04-28T11:36:18Z</time>
      </trkpt>
      <trkpt lat="44.49165" lon="5.23361">
        <ele>1181.2</ele>
        <time>2022-04-28T11:36:31Z</time>
      </trkpt>
      <trkpt lat="44.49172" lon="5.23358">
        <ele>1178.8</ele>
        <time>2022-04-28T11:36:43Z</time>
      </trkpt>
      <trkpt lat="44.49173" lon="5.2335">
        <ele>1175.8</ele>
        <time>2022-04-28T11:36:55Z</time>
      </trkpt>
      <trkpt lat="44.49178" lon="5.23342">
        <ele>1173.4</ele>
        <time>2022-04-28T11:37:10Z</time>
      </trkpt>
      <trkpt lat="44.49178" lon="5.23334">
        <ele>1171</ele>
        <time>2022-04-28T11:37:25Z</time>
      </trkpt>
      <trkpt lat="44.49182" lon="5.23331">
        <ele>1168.6</ele>
        <time>2022-04-28T11:37:38Z</time>
      </trkpt>
      <trkpt lat="44.49188" lon="5.23331">
        <ele>1165.8</ele>
        <time>2022-04-28T11:37:50Z</time>
      </trkpt>
      <trkpt lat="44.49193" lon="5.2333">
        <ele>1163.6</ele>
        <time>2022-04-28T11:38:02Z</time>
      </trkpt>
      <trkpt lat="44.49197" lon="5.23335">
        <ele>1160.8</ele>
        <time>2022-04-28T11:38:16Z</time>
      </trkpt>
      <trkpt lat="44.492" lon="5.23345">
        <ele>1158.2</ele>
        <time>2022-04-28T11:38:29Z</time>
      </trkpt>
      <trkpt lat="44.49201" lon="5.23349">
        <ele>1156</ele>
        <time>2022-04-28T11:38:42Z</time>
      </trkpt>
      <trkpt lat="44.49202" lon="5.23352">
        <ele>1154.6</ele>
        <time>2022-04-28T11:39:01Z</time>
      </trkpt>
      <trkpt lat="44.49203" lon="5.23354">
        <ele>1153.4</ele>
        <time>2022-04-28T11:39:16Z</time>
      </trkpt>
      <trkpt lat="44.49205" lon="5.23358">
        <ele>1152.4</ele>
        <time>2022-04-28T11:39:31Z</time>
      </trkpt>
      <trkpt lat="44.49208" lon="5.23368">
        <ele>1150.8</ele>
        <time>2022-04-28T11:39:43Z</time>
      </trkpt>
      <trkpt lat="44.49208" lon="5.23381">
        <ele>1148.2</ele>
        <time>2022-04-28T11:39:56Z</time>
      </trkpt>
      <trkpt lat="44.4921" lon="5.23393">
        <ele>1146.8</ele>
        <time>2022-04-28T11:40:10Z</time>
      </trkpt>
      <trkpt lat="44.49213" lon="5.23403">
        <ele>1145.2</ele>
        <time>2022-04-28T11:40:24Z</time>
      </trkpt>
      <trkpt lat="44.49216" lon="5.23407">
        <ele>1142</ele>
        <time>2022-04-28T11:40:36Z</time>
      </trkpt>
      <trkpt lat="44.49224" lon="5.23411">
        <ele>1139</ele>
        <time>2022-04-28T11:40:50Z</time>
      </trkpt>
      <trkpt lat="44.49231" lon="5.23412">
        <ele>1136</ele>
        <time>2022-04-28T11:41:01Z</time>
      </trkpt>
      <trkpt lat="44.49247" lon="5.23419">
        <ele>1133</ele>
        <time>2022-04-28T11:41:17Z</time>
      </trkpt>
      <trkpt lat="44.49256" lon="5.2343">
        <ele>1132.6</ele>
        <time>2022-04-28T11:41:30Z</time>
      </trkpt>
      <trkpt lat="44.49266" lon="5.23429">
        <ele>1131.4</ele>
        <time>2022-04-28T11:41:42Z</time>
      </trkpt>
      <trkpt lat="44.49271" lon="5.23427">
        <ele>1131.4</ele>
        <time>2022-04-28T11:41:48Z</time>
      </trkpt>
      <trkpt lat="44.49275" lon="5.23427">
        <ele>1131.8</ele>
        <time>2022-04-28T11:41:51Z</time>
      </trkpt>
      <trkpt lat="44.49282" lon="5.23424">
        <ele>1131.6</ele>
        <time>2022-04-28T11:42:01Z</time>
      </trkpt>
      <trkpt lat="44.4929" lon="5.23425">
        <ele>1131.8</ele>
        <time>2022-04-28T11:42:11Z</time>
      </trkpt>
      <trkpt lat="44.49291" lon="5.23425">
        <ele>1132</ele>
        <time>2022-04-28T11:42:24Z</time>
      </trkpt>
      <trkpt lat="44.49294" lon="5.23422">
        <ele>1131.6</ele>
        <time>2022-04-28T11:42:49Z</time>
      </trkpt>
      <trkpt lat="44.4929" lon="5.2342">
        <ele>1131.6</ele>
        <time>2022-04-28T11:43:18Z</time>
      </trkpt>
      <trkpt lat="44.49296" lon="5.23421">
        <ele>1131.8</ele>
        <time>2022-04-28T11:43:50Z</time>
      </trkpt>
      <trkpt lat="44.49305" lon="5.23423">
        <ele>1130.6</ele>
        <time>2022-04-28T11:44:06Z</time>
      </trkpt>
      <trkpt lat="44.49318" lon="5.23418">
        <ele>1129.4</ele>
        <time>2022-04-28T11:44:20Z</time>
      </trkpt>
      <trkpt lat="44.49326" lon="5.23417">
        <ele>1129.4</ele>
        <time>2022-04-28T11:44:32Z</time>
      </trkpt>
      <trkpt lat="44.49336" lon="5.23414">
        <ele>1130</ele>
        <time>2022-04-28T11:44:47Z</time>
      </trkpt>
      <trkpt lat="44.49346" lon="5.23406">
        <ele>1127.8</ele>
        <time>2022-04-28T11:45:03Z</time>
      </trkpt>
      <trkpt lat="44.49356" lon="5.23402">
        <ele>1124.6</ele>
        <time>2022-04-28T11:45:17Z</time>
      </trkpt>
      <trkpt lat="44.4936" lon="5.23393">
        <ele>1122.8</ele>
        <time>2022-04-28T11:45:29Z</time>
      </trkpt>
      <trkpt lat="44.49366" lon="5.23384">
        <ele>1121.4</ele>
        <time>2022-04-28T11:45:39Z</time>
      </trkpt>
      <trkpt lat="44.49369" lon="5.23384">
        <ele>1120.6</ele>
        <time>2022-04-28T11:45:42Z</time>
      </trkpt>
      <trkpt lat="44.49382" lon="5.23382">
        <ele>1119</ele>
        <time>2022-04-28T11:45:56Z</time>
      </trkpt>
      <trkpt lat="44.49392" lon="5.23379">
        <ele>1119.2</ele>
        <time>2022-04-28T11:46:09Z</time>
      </trkpt>
      <trkpt lat="44.49402" lon="5.23371">
        <ele>1116.8</ele>
        <time>2022-04-28T11:46:25Z</time>
      </trkpt>
      <trkpt lat="44.49414" lon="5.23364">
        <ele>1113.8</ele>
        <time>2022-04-28T11:46:44Z</time>
      </trkpt>
      <trkpt lat="44.49422" lon="5.23359">
        <ele>1110.8</ele>
        <time>2022-04-28T11:46:59Z</time>
      </trkpt>
      <trkpt lat="44.49427" lon="5.23355">
        <ele>1109</ele>
        <time>2022-04-28T11:47:15Z</time>
      </trkpt>
      <trkpt lat="44.49433" lon="5.23349">
        <ele>1106</ele>
        <time>2022-04-28T11:47:38Z</time>
      </trkpt>
      <trkpt lat="44.4944" lon="5.23341">
        <ele>1102.8</ele>
        <time>2022-04-28T11:47:52Z</time>
      </trkpt>
      <trkpt lat="44.49449" lon="5.23334">
        <ele>1099.6</ele>
        <time>2022-04-28T11:48:06Z</time>
      </trkpt>
      <trkpt lat="44.49457" lon="5.23329">
        <ele>1096.6</ele>
        <time>2022-04-28T11:48:21Z</time>
      </trkpt>
      <trkpt lat="44.49463" lon="5.23322">
        <ele>1094.2</ele>
        <time>2022-04-28T11:48:35Z</time>
      </trkpt>
      <trkpt lat="44.49474" lon="5.23319">
        <ele>1091.4</ele>
        <time>2022-04-28T11:48:50Z</time>
      </trkpt>
      <trkpt lat="44.49491" lon="5.23315">
        <ele>1088.8</ele>
        <time>2022-04-28T11:49:06Z</time>
      </trkpt>
      <trkpt lat="44.49501" lon="5.23315">
        <ele>1086.8</ele>
        <time>2022-04-28T11:49:21Z</time>
      </trkpt>
      <trkpt lat="44.49501" lon="5.23311">
        <ele>1085.8</ele>
        <time>2022-04-28T11:49:49Z</time>
      </trkpt>
      <trkpt lat="44.49499" lon="5.23312">
        <ele>1085.8</ele>
        <time>2022-04-28T11:50:20Z</time>
      </trkpt>
      <trkpt lat="44.49498" lon="5.23313">
        <ele>1085.8</ele>
        <time>2022-04-28T11:50:52Z</time>
      </trkpt>
      <trkpt lat="44.49498" lon="5.23309">
        <ele>1085.6</ele>
        <time>2022-04-28T11:51:18Z</time>
      </trkpt>
      <trkpt lat="44.49504" lon="5.23302">
        <ele>1084</ele>
        <time>2022-04-28T11:51:33Z</time>
      </trkpt>
      <trkpt lat="44.49514" lon="5.23296">
        <ele>1081.8</ele>
        <time>2022-04-28T11:51:46Z</time>
      </trkpt>
      <trkpt lat="44.49522" lon="5.23289">
        <ele>1079.4</ele>
        <time>2022-04-28T11:52:00Z</time>
      </trkpt>
      <trkpt lat="44.49531" lon="5.23283">
        <ele>1076.8</ele>
        <time>2022-04-28T11:52:12Z</time>
      </trkpt>
      <trkpt lat="44.49536" lon="5.23276">
        <ele>1075.4</ele>
        <time>2022-04-28T11:52:23Z</time>
      </trkpt>
      <trkpt lat="44.49548" lon="5.23261">
        <ele>1072.6</ele>
        <time>2022-04-28T11:52:41Z</time>
      </trkpt>
      <trkpt lat="44.49548" lon="5.2326">
        <ele>1072.6</ele>
        <time>2022-04-28T11:52:44Z</time>
      </trkpt>
      <trkpt lat="44.49555" lon="5.23247">
        <ele>1072.2</ele>
        <time>2022-04-28T11:52:59Z</time>
      </trkpt>
      <trkpt lat="44.49558" lon="5.23234">
        <ele>1070.2</ele>
        <time>2022-04-28T11:53:12Z</time>
      </trkpt>
      <trkpt lat="44.49561" lon="5.23218">
        <ele>1069</ele>
        <time>2022-04-28T11:53:25Z</time>
      </trkpt>
      <trkpt lat="44.49563" lon="5.23204">
        <ele>1067.6</ele>
        <time>2022-04-28T11:53:37Z</time>
      </trkpt>
      <trkpt lat="44.49564" lon="5.23201">
        <ele>1067</ele>
        <time>2022-04-28T11:53:39Z</time>
      </trkpt>
      <trkpt lat="44.49564" lon="5.23196">
        <ele>1065.8</ele>
        <time>2022-04-28T11:53:54Z</time>
      </trkpt>
      <trkpt lat="44.49568" lon="5.23181">
        <ele>1066.4</ele>
        <time>2022-04-28T11:54:15Z</time>
      </trkpt>
      <trkpt lat="44.49571" lon="5.23167">
        <ele>1065.6</ele>
        <time>2022-04-28T11:54:28Z</time>
      </trkpt>
      <trkpt lat="44.49577" lon="5.23149">
        <ele>1063</ele>
        <time>2022-04-28T11:54:44Z</time>
      </trkpt>
      <trkpt lat="44.49582" lon="5.2313">
        <ele>1061.8</ele>
        <time>2022-04-28T11:55:00Z</time>
      </trkpt>
      <trkpt lat="44.49585" lon="5.23122">
        <ele>1061</ele>
        <time>2022-04-28T11:55:07Z</time>
      </trkpt>
      <trkpt lat="44.49589" lon="5.23111">
        <ele>1060.8</ele>
        <time>2022-04-28T11:55:19Z</time>
      </trkpt>
      <trkpt lat="44.49592" lon="5.23104">
        <ele>1060.6</ele>
        <time>2022-04-28T11:55:24Z</time>
      </trkpt>
      <trkpt lat="44.49597" lon="5.2309">
        <ele>1059.4</ele>
        <time>2022-04-28T11:55:38Z</time>
      </trkpt>
      <trkpt lat="44.496" lon="5.23075">
        <ele>1057.4</ele>
        <time>2022-04-28T11:55:52Z</time>
      </trkpt>
      <trkpt lat="44.49604" lon="5.23062">
        <ele>1055.8</ele>
        <time>2022-04-28T11:56:02Z</time>
      </trkpt>
      <trkpt lat="44.49607" lon="5.23046">
        <ele>1054</ele>
        <time>2022-04-28T11:56:15Z</time>
      </trkpt>
      <trkpt lat="44.49611" lon="5.23032">
        <ele>1053.2</ele>
        <time>2022-04-28T11:56:30Z</time>
      </trkpt>
      <trkpt lat="44.4961" lon="5.2302">
        <ele>1050.8</ele>
        <time>2022-04-28T11:56:44Z</time>
      </trkpt>
      <trkpt lat="44.4961" lon="5.23005">
        <ele>1047.6</ele>
        <time>2022-04-28T11:56:58Z</time>
      </trkpt>
      <trkpt lat="44.49611" lon="5.23004">
        <ele>1047.4</ele>
        <time>2022-04-28T11:56:59Z</time>
      </trkpt>
      <trkpt lat="44.49616" lon="5.22991">
        <ele>1045</ele>
        <time>2022-04-28T11:57:11Z</time>
      </trkpt>
      <trkpt lat="44.49622" lon="5.22974">
        <ele>1042.6</ele>
        <time>2022-04-28T11:57:28Z</time>
      </trkpt>
      <trkpt lat="44.49624" lon="5.22964">
        <ele>1040.4</ele>
        <time>2022-04-28T11:57:39Z</time>
      </trkpt>
      <trkpt lat="44.49625" lon="5.22955">
        <ele>1038.6</ele>
        <time>2022-04-28T11:57:50Z</time>
      </trkpt>
      <trkpt lat="44.49625" lon="5.22953">
        <ele>1038.2</ele>
        <time>2022-04-28T11:57:51Z</time>
      </trkpt>
      <trkpt lat="44.49633" lon="5.22943">
        <ele>1036.4</ele>
        <time>2022-04-28T11:58:02Z</time>
      </trkpt>
      <trkpt lat="44.49638" lon="5.22937">
        <ele>1035.8</ele>
        <time>2022-04-28T11:58:11Z</time>
      </trkpt>
      <trkpt lat="44.4964" lon="5.22933">
        <ele>1034.6</ele>
        <time>2022-04-28T11:58:28Z</time>
      </trkpt>
      <trkpt lat="44.49639" lon="5.22925">
        <ele>1034.6</ele>
        <time>2022-04-28T11:59:04Z</time>
      </trkpt>
      <trkpt lat="44.49637" lon="5.22926">
        <ele>1035</ele>
        <time>2022-04-28T11:59:37Z</time>
      </trkpt>
      <trkpt lat="44.49638" lon="5.22925">
        <ele>1034.8</ele>
        <time>2022-04-28T12:00:19Z</time>
      </trkpt>
      <trkpt lat="44.49641" lon="5.22921">
        <ele>1034.6</ele>
        <time>2022-04-28T12:00:36Z</time>
      </trkpt>
      <trkpt lat="44.49648" lon="5.22913">
        <ele>1034.4</ele>
        <time>2022-04-28T12:00:46Z</time>
      </trkpt>
      <trkpt lat="44.49658" lon="5.22901">
        <ele>1031.8</ele>
        <time>2022-04-28T12:01:00Z</time>
      </trkpt>
      <trkpt lat="44.49664" lon="5.22886">
        <ele>1030.6</ele>
        <time>2022-04-28T12:01:15Z</time>
      </trkpt>
      <trkpt lat="44.49671" lon="5.22869">
        <ele>1028.6</ele>
        <time>2022-04-28T12:01:31Z</time>
      </trkpt>
      <trkpt lat="44.49675" lon="5.22858">
        <ele>1025.6</ele>
        <time>2022-04-28T12:01:43Z</time>
      </trkpt>
      <trkpt lat="44.49679" lon="5.22839">
        <ele>1022.8</ele>
        <time>2022-04-28T12:02:01Z</time>
      </trkpt>
      <trkpt lat="44.49683" lon="5.22827">
        <ele>1020.6</ele>
        <time>2022-04-28T12:02:12Z</time>
      </trkpt>
      <trkpt lat="44.49684" lon="5.22823">
        <ele>1020.2</ele>
        <time>2022-04-28T12:02:16Z</time>
      </trkpt>
      <trkpt lat="44.49688" lon="5.22804">
        <ele>1019.2</ele>
        <time>2022-04-28T12:02:29Z</time>
      </trkpt>
      <trkpt lat="44.49694" lon="5.22784">
        <ele>1018.2</ele>
        <time>2022-04-28T12:02:43Z</time>
      </trkpt>
      <trkpt lat="44.49696" lon="5.22775">
        <ele>1017.4</ele>
        <time>2022-04-28T12:02:50Z</time>
      </trkpt>
      <trkpt lat="44.49702" lon="5.22764">
        <ele>1017</ele>
        <time>2022-04-28T12:02:58Z</time>
      </trkpt>
      <trkpt lat="44.49701" lon="5.22761">
        <ele>1017</ele>
        <time>2022-04-28T12:03:00Z</time>
      </trkpt>
      <trkpt lat="44.49704" lon="5.22753">
        <ele>1016.4</ele>
        <time>2022-04-28T12:03:07Z</time>
      </trkpt>
      <trkpt lat="44.49707" lon="5.22741">
        <ele>1015.6</ele>
        <time>2022-04-28T12:03:18Z</time>
      </trkpt>
      <trkpt lat="44.49711" lon="5.22729">
        <ele>1014.6</ele>
        <time>2022-04-28T12:03:25Z</time>
      </trkpt>
      <trkpt lat="44.4971" lon="5.22722">
        <ele>1014</ele>
        <time>2022-04-28T12:03:29Z</time>
      </trkpt>
      <trkpt lat="44.4971" lon="5.22717">
        <ele>1013.8</ele>
        <time>2022-04-28T12:03:33Z</time>
      </trkpt>
      <trkpt lat="44.49713" lon="5.22708">
        <ele>1013.2</ele>
        <time>2022-04-28T12:03:40Z</time>
      </trkpt>
      <trkpt lat="44.49711" lon="5.22694">
        <ele>1011.4</ele>
        <time>2022-04-28T12:03:51Z</time>
      </trkpt>
      <trkpt lat="44.4971" lon="5.22681">
        <ele>1009.6</ele>
        <time>2022-04-28T12:04:01Z</time>
      </trkpt>
      <trkpt lat="44.49708" lon="5.22662">
        <ele>1007.6</ele>
        <time>2022-04-28T12:04:15Z</time>
      </trkpt>
      <trkpt lat="44.49709" lon="5.22642">
        <ele>1004.6</ele>
        <time>2022-04-28T12:04:32Z</time>
      </trkpt>
      <trkpt lat="44.4971" lon="5.22627">
        <ele>1002.8</ele>
        <time>2022-04-28T12:04:43Z</time>
      </trkpt>
      <trkpt lat="44.49708" lon="5.22603">
        <ele>999.8</ele>
        <time>2022-04-28T12:05:02Z</time>
      </trkpt>
      <trkpt lat="44.49704" lon="5.22589">
        <ele>998.4</ele>
        <time>2022-04-28T12:05:17Z</time>
      </trkpt>
      <trkpt lat="44.49695" lon="5.22587">
        <ele>997.8</ele>
        <time>2022-04-28T12:05:29Z</time>
      </trkpt>
      <trkpt lat="44.49689" lon="5.22591">
        <ele>996</ele>
        <time>2022-04-28T12:05:44Z</time>
      </trkpt>
      <trkpt lat="44.49681" lon="5.22595">
        <ele>993.2</ele>
        <time>2022-04-28T12:05:56Z</time>
      </trkpt>
      <trkpt lat="44.4967" lon="5.22599">
        <ele>990.2</ele>
        <time>2022-04-28T12:06:12Z</time>
      </trkpt>
      <trkpt lat="44.49659" lon="5.22597">
        <ele>987.2</ele>
        <time>2022-04-28T12:06:26Z</time>
      </trkpt>
      <trkpt lat="44.49652" lon="5.22601">
        <ele>984.8</ele>
        <time>2022-04-28T12:06:41Z</time>
      </trkpt>
      <trkpt lat="44.49649" lon="5.22609">
        <ele>983.2</ele>
        <time>2022-04-28T12:07:06Z</time>
      </trkpt>
      <trkpt lat="44.49639" lon="5.2262">
        <ele>980.2</ele>
        <time>2022-04-28T12:07:23Z</time>
      </trkpt>
      <trkpt lat="44.49636" lon="5.22626">
        <ele>977.6</ele>
        <time>2022-04-28T12:07:39Z</time>
      </trkpt>
      <trkpt lat="44.49635" lon="5.22634">
        <ele>976.8</ele>
        <time>2022-04-28T12:08:00Z</time>
      </trkpt>
      <trkpt lat="44.49637" lon="5.22643">
        <ele>975.4</ele>
        <time>2022-04-28T12:08:17Z</time>
      </trkpt>
      <trkpt lat="44.49629" lon="5.2263">
        <ele>975.4</ele>
        <time>2022-04-28T12:08:31Z</time>
      </trkpt>
      <trkpt lat="44.49626" lon="5.22627">
        <ele>975.4</ele>
        <time>2022-04-28T12:08:45Z</time>
      </trkpt>
      <trkpt lat="44.49626" lon="5.22627">
        <ele>975.4</ele>
        <time>2022-04-28T12:08:47Z</time>
      </trkpt>
      <trkpt lat="44.49624" lon="5.22623">
        <ele>975.4</ele>
        <time>2022-04-28T12:09:02Z</time>
      </trkpt>
      <trkpt lat="44.49612" lon="5.22617">
        <ele>975.4</ele>
        <time>2022-04-28T12:09:13Z</time>
      </trkpt>
      <trkpt lat="44.49598" lon="5.22603">
        <ele>974.6</ele>
        <time>2022-04-28T12:09:29Z</time>
      </trkpt>
      <trkpt lat="44.49589" lon="5.22593">
        <ele>973.6</ele>
        <time>2022-04-28T12:09:44Z</time>
      </trkpt>
      <trkpt lat="44.49567" lon="5.22587">
        <ele>972.2</ele>
        <time>2022-04-28T12:10:03Z</time>
      </trkpt>
      <trkpt lat="44.4955" lon="5.22588">
        <ele>971.2</ele>
        <time>2022-04-28T12:10:19Z</time>
      </trkpt>
      <trkpt lat="44.49542" lon="5.22585">
        <ele>969.6</ele>
        <time>2022-04-28T12:10:39Z</time>
      </trkpt>
      <trkpt lat="44.49536" lon="5.22588">
        <ele>969.2</ele>
        <time>2022-04-28T12:10:51Z</time>
      </trkpt>
      <trkpt lat="44.49534" lon="5.22585">
        <ele>969</ele>
        <time>2022-04-28T12:11:11Z</time>
      </trkpt>
      <trkpt lat="44.49528" lon="5.22588">
        <ele>968.8</ele>
        <time>2022-04-28T12:11:30Z</time>
      </trkpt>
      <trkpt lat="44.49527" lon="5.22585">
        <ele>968.2</ele>
        <time>2022-04-28T12:11:51Z</time>
      </trkpt>
      <trkpt lat="44.49525" lon="5.2259">
        <ele>968.4</ele>
        <time>2022-04-28T12:12:19Z</time>
      </trkpt>
      <trkpt lat="44.49526" lon="5.22594">
        <ele>968.8</ele>
        <time>2022-04-28T12:13:00Z</time>
      </trkpt>
      <trkpt lat="44.49521" lon="5.22596">
        <ele>968.8</ele>
        <time>2022-04-28T12:13:26Z</time>
      </trkpt>
      <trkpt lat="44.49516" lon="5.22601">
        <ele>967</ele>
        <time>2022-04-28T12:13:38Z</time>
      </trkpt>
      <trkpt lat="44.49512" lon="5.22609">
        <ele>964.2</ele>
        <time>2022-04-28T12:13:51Z</time>
      </trkpt>
      <trkpt lat="44.49508" lon="5.22616">
        <ele>960.8</ele>
        <time>2022-04-28T12:14:03Z</time>
      </trkpt>
      <trkpt lat="44.49507" lon="5.22625">
        <ele>958</ele>
        <time>2022-04-28T12:14:15Z</time>
      </trkpt>
      <trkpt lat="44.49501" lon="5.22629">
        <ele>954.8</ele>
        <time>2022-04-28T12:14:28Z</time>
      </trkpt>
      <trkpt lat="44.49498" lon="5.22637">
        <ele>952.2</ele>
        <time>2022-04-28T12:14:45Z</time>
      </trkpt>
      <trkpt lat="44.495" lon="5.22651">
        <ele>949</ele>
        <time>2022-04-28T12:15:00Z</time>
      </trkpt>
      <trkpt lat="44.49503" lon="5.22661">
        <ele>945.8</ele>
        <time>2022-04-28T12:15:14Z</time>
      </trkpt>
      <trkpt lat="44.49499" lon="5.22669">
        <ele>942.8</ele>
        <time>2022-04-28T12:15:26Z</time>
      </trkpt>
      <trkpt lat="44.49493" lon="5.22675">
        <ele>939.6</ele>
        <time>2022-04-28T12:15:43Z</time>
      </trkpt>
      <trkpt lat="44.49486" lon="5.22679">
        <ele>936.6</ele>
        <time>2022-04-28T12:15:57Z</time>
      </trkpt>
      <trkpt lat="44.49482" lon="5.22686">
        <ele>933.4</ele>
        <time>2022-04-28T12:16:15Z</time>
      </trkpt>
      <trkpt lat="44.4948" lon="5.2269">
        <ele>930.8</ele>
        <time>2022-04-28T12:16:42Z</time>
      </trkpt>
      <trkpt lat="44.49475" lon="5.22698">
        <ele>927.6</ele>
        <time>2022-04-28T12:16:58Z</time>
      </trkpt>
      <trkpt lat="44.49467" lon="5.22704">
        <ele>924.6</ele>
        <time>2022-04-28T12:17:11Z</time>
      </trkpt>
      <trkpt lat="44.49461" lon="5.22705">
        <ele>921.4</ele>
        <time>2022-04-28T12:17:22Z</time>
      </trkpt>
      <trkpt lat="44.4946" lon="5.22704">
        <ele>920.8</ele>
        <time>2022-04-28T12:17:24Z</time>
      </trkpt>
      <trkpt lat="44.49451" lon="5.22694">
        <ele>917.2</ele>
        <time>2022-04-28T12:17:37Z</time>
      </trkpt>
      <trkpt lat="44.49441" lon="5.22695">
        <ele>914.2</ele>
        <time>2022-04-28T12:17:49Z</time>
      </trkpt>
      <trkpt lat="44.49436" lon="5.22697">
        <ele>912.6</ele>
        <time>2022-04-28T12:17:55Z</time>
      </trkpt>
      <trkpt lat="44.49422" lon="5.22695">
        <ele>909.2</ele>
        <time>2022-04-28T12:18:09Z</time>
      </trkpt>
      <trkpt lat="44.4941" lon="5.22694">
        <ele>906.2</ele>
        <time>2022-04-28T12:18:21Z</time>
      </trkpt>
      <trkpt lat="44.49395" lon="5.22686">
        <ele>903.2</ele>
        <time>2022-04-28T12:18:37Z</time>
      </trkpt>
      <trkpt lat="44.4938" lon="5.22682">
        <ele>902.2</ele>
        <time>2022-04-28T12:18:56Z</time>
      </trkpt>
      <trkpt lat="44.49371" lon="5.22683">
        <ele>901.2</ele>
        <time>2022-04-28T12:19:10Z</time>
      </trkpt>
      <trkpt lat="44.49362" lon="5.22678">
        <ele>898</ele>
        <time>2022-04-28T12:19:23Z</time>
      </trkpt>
      <trkpt lat="44.49359" lon="5.22677">
        <ele>894.8</ele>
        <time>2022-04-28T12:19:37Z</time>
      </trkpt>
      <trkpt lat="44.49357" lon="5.22669">
        <ele>893.8</ele>
        <time>2022-04-28T12:20:05Z</time>
      </trkpt>
      <trkpt lat="44.49351" lon="5.22691">
        <ele>894</ele>
        <time>2022-04-28T12:20:34Z</time>
      </trkpt>
      <trkpt lat="44.49357" lon="5.22685">
        <ele>893.8</ele>
        <time>2022-04-28T12:21:08Z</time>
      </trkpt>
      <trkpt lat="44.49354" lon="5.22678">
        <ele>893.6</ele>
        <time>2022-04-28T12:21:38Z</time>
      </trkpt>
      <trkpt lat="44.49339" lon="5.22665">
        <ele>890.4</ele>
        <time>2022-04-28T12:21:56Z</time>
      </trkpt>
      <trkpt lat="44.49328" lon="5.22665">
        <ele>887.2</ele>
        <time>2022-04-28T12:22:10Z</time>
      </trkpt>
      <trkpt lat="44.49319" lon="5.2266">
        <ele>884.2</ele>
        <time>2022-04-28T12:22:21Z</time>
      </trkpt>
      <trkpt lat="44.49309" lon="5.22657">
        <ele>881</ele>
        <time>2022-04-28T12:22:33Z</time>
      </trkpt>
      <trkpt lat="44.49296" lon="5.22654">
        <ele>878</ele>
        <time>2022-04-28T12:22:47Z</time>
      </trkpt>
      <trkpt lat="44.49295" lon="5.22653">
        <ele>877.8</ele>
        <time>2022-04-28T12:22:48Z</time>
      </trkpt>
      <trkpt lat="44.4928" lon="5.22648">
        <ele>875</ele>
        <time>2022-04-28T12:23:03Z</time>
      </trkpt>
      <trkpt lat="44.49275" lon="5.22649">
        <ele>874</ele>
        <time>2022-04-28T12:23:08Z</time>
      </trkpt>
      <trkpt lat="44.49263" lon="5.22644">
        <ele>872.6</ele>
        <time>2022-04-28T12:23:19Z</time>
      </trkpt>
      <trkpt lat="44.49261" lon="5.22643">
        <ele>872.4</ele>
        <time>2022-04-28T12:23:21Z</time>
      </trkpt>
      <trkpt lat="44.49245" lon="5.22636">
        <ele>870.6</ele>
        <time>2022-04-28T12:23:35Z</time>
      </trkpt>
      <trkpt lat="44.4923" lon="5.22635">
        <ele>868.8</ele>
        <time>2022-04-28T12:23:49Z</time>
      </trkpt>
      <trkpt lat="44.49214" lon="5.22634">
        <ele>865.6</ele>
        <time>2022-04-28T12:24:04Z</time>
      </trkpt>
      <trkpt lat="44.49198" lon="5.22632">
        <ele>863.2</ele>
        <time>2022-04-28T12:24:18Z</time>
      </trkpt>
      <trkpt lat="44.49183" lon="5.22626">
        <ele>861</ele>
        <time>2022-04-28T12:24:31Z</time>
      </trkpt>
      <trkpt lat="44.49164" lon="5.22619">
        <ele>859.6</ele>
        <time>2022-04-28T12:24:47Z</time>
      </trkpt>
      <trkpt lat="44.49149" lon="5.22607">
        <ele>857.6</ele>
        <time>2022-04-28T12:25:00Z</time>
      </trkpt>
      <trkpt lat="44.49131" lon="5.22594">
        <ele>856</ele>
        <time>2022-04-28T12:25:15Z</time>
      </trkpt>
      <trkpt lat="44.49115" lon="5.22591">
        <ele>853.6</ele>
        <time>2022-04-28T12:25:27Z</time>
      </trkpt>
      <trkpt lat="44.49105" lon="5.22596">
        <ele>851.8</ele>
        <time>2022-04-28T12:25:34Z</time>
      </trkpt>
      <trkpt lat="44.49096" lon="5.22601">
        <ele>849.8</ele>
        <time>2022-04-28T12:25:42Z</time>
      </trkpt>
      <trkpt lat="44.49094" lon="5.22603">
        <ele>849.2</ele>
        <time>2022-04-28T12:25:43Z</time>
      </trkpt>
      <trkpt lat="44.49087" lon="5.22615">
        <ele>847.2</ele>
        <time>2022-04-28T12:25:52Z</time>
      </trkpt>
      <trkpt lat="44.49086" lon="5.22616">
        <ele>847</ele>
        <time>2022-04-28T12:25:53Z</time>
      </trkpt>
      <trkpt lat="44.49091" lon="5.22612">
        <ele>846.6</ele>
        <time>2022-04-28T12:26:03Z</time>
      </trkpt>
      <trkpt lat="44.49094" lon="5.22617">
        <ele>846.4</ele>
        <time>2022-04-28T12:26:16Z</time>
      </trkpt>
      <trkpt lat="44.49101" lon="5.22609">
        <ele>846.4</ele>
        <time>2022-04-28T12:26:47Z</time>
      </trkpt>
      <trkpt lat="44.49101" lon="5.22598">
        <ele>846.4</ele>
        <time>2022-04-28T12:27:12Z</time>
      </trkpt>
      <trkpt lat="44.49103" lon="5.22592">
        <ele>847</ele>
        <time>2022-04-28T12:27:33Z</time>
      </trkpt>
      <trkpt lat="44.49107" lon="5.22602">
        <ele>847.4</ele>
        <time>2022-04-28T12:28:11Z</time>
      </trkpt>
      <trkpt lat="44.49109" lon="5.22604">
        <ele>847.4</ele>
        <time>2022-04-28T12:28:30Z</time>
      </trkpt>
      <trkpt lat="44.49094" lon="5.22605">
        <ele>847.4</ele>
        <time>2022-04-28T12:28:43Z</time>
      </trkpt>
      <trkpt lat="44.49083" lon="5.22605">
        <ele>845.2</ele>
        <time>2022-04-28T12:28:57Z</time>
      </trkpt>
      <trkpt lat="44.49073" lon="5.226">
        <ele>842</ele>
        <time>2022-04-28T12:29:12Z</time>
      </trkpt>
      <trkpt lat="44.49062" lon="5.22595">
        <ele>838.8</ele>
        <time>2022-04-28T12:29:29Z</time>
      </trkpt>
      <trkpt lat="44.49051" lon="5.22597">
        <ele>835.6</ele>
        <time>2022-04-28T12:29:46Z</time>
      </trkpt>
      <trkpt lat="44.49042" lon="5.22603">
        <ele>832.4</ele>
        <time>2022-04-28T12:30:00Z</time>
      </trkpt>
      <trkpt lat="44.49039" lon="5.22617">
        <ele>829.4</ele>
        <time>2022-04-28T12:30:12Z</time>
      </trkpt>
      <trkpt lat="44.49031" lon="5.22625">
        <ele>826.4</ele>
        <time>2022-04-28T12:30:27Z</time>
      </trkpt>
      <trkpt lat="44.49025" lon="5.22623">
        <ele>825.2</ele>
        <time>2022-04-28T12:30:34Z</time>
      </trkpt>
      <trkpt lat="44.49012" lon="5.22617">
        <ele>824.8</ele>
        <time>2022-04-28T12:30:48Z</time>
      </trkpt>
      <trkpt lat="44.48997" lon="5.22629">
        <ele>822.8</ele>
        <time>2022-04-28T12:31:07Z</time>
      </trkpt>
      <trkpt lat="44.48979" lon="5.22641">
        <ele>820.4</ele>
        <time>2022-04-28T12:31:24Z</time>
      </trkpt>
      <trkpt lat="44.48972" lon="5.22636">
        <ele>819.4</ele>
        <time>2022-04-28T12:31:33Z</time>
      </trkpt>
      <trkpt lat="44.48956" lon="5.22641">
        <ele>816.4</ele>
        <time>2022-04-28T12:31:51Z</time>
      </trkpt>
      <trkpt lat="44.48948" lon="5.22637">
        <ele>814.4</ele>
        <time>2022-04-28T12:32:02Z</time>
      </trkpt>
      <trkpt lat="44.48931" lon="5.22619">
        <ele>812</ele>
        <time>2022-04-28T12:32:20Z</time>
      </trkpt>
      <trkpt lat="44.48921" lon="5.22609">
        <ele>809</ele>
        <time>2022-04-28T12:32:35Z</time>
      </trkpt>
      <trkpt lat="44.48908" lon="5.22595">
        <ele>805.8</ele>
        <time>2022-04-28T12:32:53Z</time>
      </trkpt>
      <trkpt lat="44.48897" lon="5.22585">
        <ele>802.8</ele>
        <time>2022-04-28T12:33:07Z</time>
      </trkpt>
      <trkpt lat="44.48879" lon="5.2257">
        <ele>800</ele>
        <time>2022-04-28T12:33:26Z</time>
      </trkpt>
      <trkpt lat="44.4887" lon="5.22557">
        <ele>799.2</ele>
        <time>2022-04-28T12:33:43Z</time>
      </trkpt>
      <trkpt lat="44.4887" lon="5.22556">
        <ele>799.2</ele>
        <time>2022-04-28T12:33:51Z</time>
      </trkpt>
      <trkpt lat="44.48868" lon="5.2255">
        <ele>798.6</ele>
        <time>2022-04-28T12:34:30Z</time>
      </trkpt>
      <trkpt lat="44.48857" lon="5.22548">
        <ele>798.6</ele>
        <time>2022-04-28T12:34:51Z</time>
      </trkpt>
      <trkpt lat="44.48846" lon="5.22547">
        <ele>796.8</ele>
        <time>2022-04-28T12:35:03Z</time>
      </trkpt>
      <trkpt lat="44.48829" lon="5.22554">
        <ele>795</ele>
        <time>2022-04-28T12:35:18Z</time>
      </trkpt>
      <trkpt lat="44.48818" lon="5.22556">
        <ele>794</ele>
        <time>2022-04-28T12:35:28Z</time>
      </trkpt>
      <trkpt lat="44.48809" lon="5.22546">
        <ele>792.4</ele>
        <time>2022-04-28T12:35:43Z</time>
      </trkpt>
      <trkpt lat="44.488" lon="5.22536">
        <ele>791</ele>
        <time>2022-04-28T12:35:55Z</time>
      </trkpt>
      <trkpt lat="44.48792" lon="5.2253">
        <ele>791</ele>
        <time>2022-04-28T12:36:03Z</time>
      </trkpt>
      <trkpt lat="44.48782" lon="5.22526">
        <ele>790.8</ele>
        <time>2022-04-28T12:36:13Z</time>
      </trkpt>
      <trkpt lat="44.48766" lon="5.22525">
        <ele>789.6</ele>
        <time>2022-04-28T12:36:29Z</time>
      </trkpt>
      <trkpt lat="44.48755" lon="5.22527">
        <ele>786.4</ele>
        <time>2022-04-28T12:36:40Z</time>
      </trkpt>
      <trkpt lat="44.48741" lon="5.22533">
        <ele>785.2</ele>
        <time>2022-04-28T12:36:53Z</time>
      </trkpt>
      <trkpt lat="44.48726" lon="5.22531">
        <ele>784.2</ele>
        <time>2022-04-28T12:37:08Z</time>
      </trkpt>
      <trkpt lat="44.48725" lon="5.22531">
        <ele>784.2</ele>
        <time>2022-04-28T12:37:09Z</time>
      </trkpt>
      <trkpt lat="44.48715" lon="5.22535">
        <ele>783.8</ele>
        <time>2022-04-28T12:37:17Z</time>
      </trkpt>
      <trkpt lat="44.48699" lon="5.22534">
        <ele>782.8</ele>
        <time>2022-04-28T12:37:32Z</time>
      </trkpt>
      <trkpt lat="44.48687" lon="5.22533">
        <ele>781.8</ele>
        <time>2022-04-28T12:37:44Z</time>
      </trkpt>
      <trkpt lat="44.4868" lon="5.2253">
        <ele>780.6</ele>
        <time>2022-04-28T12:37:51Z</time>
      </trkpt>
      <trkpt lat="44.48673" lon="5.22528">
        <ele>779.4</ele>
        <time>2022-04-28T12:37:57Z</time>
      </trkpt>
      <trkpt lat="44.48656" lon="5.22515">
        <ele>776.2</ele>
        <time>2022-04-28T12:38:11Z</time>
      </trkpt>
      <trkpt lat="44.48638" lon="5.22492">
        <ele>775</ele>
        <time>2022-04-28T12:38:28Z</time>
      </trkpt>
      <trkpt lat="44.48626" lon="5.22481">
        <ele>773.8</ele>
        <time>2022-04-28T12:38:37Z</time>
      </trkpt>
      <trkpt lat="44.48608" lon="5.22467">
        <ele>771.8</ele>
        <time>2022-04-28T12:38:52Z</time>
      </trkpt>
      <trkpt lat="44.48589" lon="5.22451">
        <ele>770.2</ele>
        <time>2022-04-28T12:39:09Z</time>
      </trkpt>
      <trkpt lat="44.48576" lon="5.22439">
        <ele>768.8</ele>
        <time>2022-04-28T12:39:25Z</time>
      </trkpt>
      <trkpt lat="44.48576" lon="5.22437">
        <ele>768</ele>
        <time>2022-04-28T12:39:30Z</time>
      </trkpt>
      <trkpt lat="44.48567" lon="5.22423">
        <ele>767.2</ele>
        <time>2022-04-28T12:39:43Z</time>
      </trkpt>
      <trkpt lat="44.48565" lon="5.22413">
        <ele>765.8</ele>
        <time>2022-04-28T12:39:57Z</time>
      </trkpt>
      <trkpt lat="44.48571" lon="5.22405">
        <ele>763.6</ele>
        <time>2022-04-28T12:40:12Z</time>
      </trkpt>
      <trkpt lat="44.48569" lon="5.22392">
        <ele>761.6</ele>
        <time>2022-04-28T12:40:28Z</time>
      </trkpt>
      <trkpt lat="44.48566" lon="5.22379">
        <ele>760.4</ele>
        <time>2022-04-28T12:40:39Z</time>
      </trkpt>
      <trkpt lat="44.4856" lon="5.22359">
        <ele>758</ele>
        <time>2022-04-28T12:40:55Z</time>
      </trkpt>
      <trkpt lat="44.48559" lon="5.22357">
        <ele>758</ele>
        <time>2022-04-28T12:40:57Z</time>
      </trkpt>
      <trkpt lat="44.48551" lon="5.22344">
        <ele>756.4</ele>
        <time>2022-04-28T12:41:09Z</time>
      </trkpt>
      <trkpt lat="44.48539" lon="5.22328">
        <ele>753.2</ele>
        <time>2022-04-28T12:41:25Z</time>
      </trkpt>
      <trkpt lat="44.48529" lon="5.22316">
        <ele>751.2</ele>
        <time>2022-04-28T12:41:38Z</time>
      </trkpt>
      <trkpt lat="44.48523" lon="5.22301">
        <ele>749.2</ele>
        <time>2022-04-28T12:41:50Z</time>
      </trkpt>
      <trkpt lat="44.48522" lon="5.22282">
        <ele>746.2</ele>
        <time>2022-04-28T12:42:06Z</time>
      </trkpt>
      <trkpt lat="44.48525" lon="5.22274">
        <ele>743.2</ele>
        <time>2022-04-28T12:42:22Z</time>
      </trkpt>
      <trkpt lat="44.48529" lon="5.22276">
        <ele>741.2</ele>
        <time>2022-04-28T12:42:35Z</time>
      </trkpt>
      <trkpt lat="44.4853" lon="5.22283">
        <ele>740.2</ele>
        <time>2022-04-28T12:42:49Z</time>
      </trkpt>
      <trkpt lat="44.48526" lon="5.22278">
        <ele>740</ele>
        <time>2022-04-28T12:43:05Z</time>
      </trkpt>
      <trkpt lat="44.48525" lon="5.2227">
        <ele>739.6</ele>
        <time>2022-04-28T12:43:28Z</time>
      </trkpt>
      <trkpt lat="44.48527" lon="5.22271">
        <ele>740.8</ele>
        <time>2022-04-28T12:43:56Z</time>
      </trkpt>
      <trkpt lat="44.48525" lon="5.22266">
        <ele>740.2</ele>
        <time>2022-04-28T12:44:32Z</time>
      </trkpt>
      <trkpt lat="44.4852" lon="5.22267">
        <ele>740</ele>
        <time>2022-04-28T12:45:03Z</time>
      </trkpt>
      <trkpt lat="44.48513" lon="5.22257">
        <ele>738.6</ele>
        <time>2022-04-28T12:45:27Z</time>
      </trkpt>
      <trkpt lat="44.48509" lon="5.22255">
        <ele>736.4</ele>
        <time>2022-04-28T12:45:32Z</time>
      </trkpt>
      <trkpt lat="44.48502" lon="5.22238">
        <ele>733.4</ele>
        <time>2022-04-28T12:45:47Z</time>
      </trkpt>
      <trkpt lat="44.48499" lon="5.2223">
        <ele>731.6</ele>
        <time>2022-04-28T12:46:05Z</time>
      </trkpt>
      <trkpt lat="44.48495" lon="5.22222">
        <ele>731</ele>
        <time>2022-04-28T12:46:22Z</time>
      </trkpt>
      <trkpt lat="44.48482" lon="5.22223">
        <ele>729.4</ele>
        <time>2022-04-28T12:46:37Z</time>
      </trkpt>
      <trkpt lat="44.48475" lon="5.22213">
        <ele>726.6</ele>
        <time>2022-04-28T12:46:54Z</time>
      </trkpt>
      <trkpt lat="44.48474" lon="5.22204">
        <ele>725</ele>
        <time>2022-04-28T12:47:01Z</time>
      </trkpt>
      <trkpt lat="44.4847" lon="5.22182">
        <ele>722.6</ele>
        <time>2022-04-28T12:47:19Z</time>
      </trkpt>
      <trkpt lat="44.48475" lon="5.22167">
        <ele>721.6</ele>
        <time>2022-04-28T12:47:32Z</time>
      </trkpt>
      <trkpt lat="44.48476" lon="5.22154">
        <ele>721.2</ele>
        <time>2022-04-28T12:47:46Z</time>
      </trkpt>
      <trkpt lat="44.48476" lon="5.22152">
        <ele>721</ele>
        <time>2022-04-28T12:47:51Z</time>
      </trkpt>
      <trkpt lat="44.48471" lon="5.22143">
        <ele>720.2</ele>
        <time>2022-04-28T12:48:02Z</time>
      </trkpt>
      <trkpt lat="44.48469" lon="5.22135">
        <ele>719.6</ele>
        <time>2022-04-28T12:48:06Z</time>
      </trkpt>
      <trkpt lat="44.48467" lon="5.2211">
        <ele>718.6</ele>
        <time>2022-04-28T12:48:22Z</time>
      </trkpt>
      <trkpt lat="44.48465" lon="5.22103">
        <ele>717.6</ele>
        <time>2022-04-28T12:48:36Z</time>
      </trkpt>
      <trkpt lat="44.48472" lon="5.22109">
        <ele>717.6</ele>
        <time>2022-04-28T12:48:47Z</time>
      </trkpt>
      <trkpt lat="44.48467" lon="5.221">
        <ele>717.6</ele>
        <time>2022-04-28T12:49:02Z</time>
      </trkpt>
      <trkpt lat="44.48458" lon="5.22111">
        <ele>718</ele>
        <time>2022-04-28T12:49:16Z</time>
      </trkpt>
      <trkpt lat="44.48453" lon="5.22109">
        <ele>718.2</ele>
        <time>2022-04-28T12:49:28Z</time>
      </trkpt>
      <trkpt lat="44.48448" lon="5.22112">
        <ele>718</ele>
        <time>2022-04-28T12:49:36Z</time>
      </trkpt>
      <trkpt lat="44.48446" lon="5.22112">
        <ele>718</ele>
        <time>2022-04-28T12:49:38Z</time>
      </trkpt>
      <trkpt lat="44.48443" lon="5.22112">
        <ele>718</ele>
        <time>2022-04-28T12:49:42Z</time>
      </trkpt>
      <trkpt lat="44.48436" lon="5.22109">
        <ele>718.4</ele>
        <time>2022-04-28T12:49:53Z</time>
      </trkpt>
      <trkpt lat="44.4842" lon="5.22101">
        <ele>719</ele>
        <time>2022-04-28T12:50:10Z</time>
      </trkpt>
      <trkpt lat="44.48416" lon="5.22098">
        <ele>719.2</ele>
        <time>2022-04-28T12:50:14Z</time>
      </trkpt>
      <trkpt lat="44.48411" lon="5.22096">
        <ele>720</ele>
        <time>2022-04-28T12:50:20Z</time>
      </trkpt>
      <trkpt lat="44.48397" lon="5.22095">
        <ele>720.8</ele>
        <time>2022-04-28T12:50:34Z</time>
      </trkpt>
      <trkpt lat="44.48387" lon="5.22098">
        <ele>721.4</ele>
        <time>2022-04-28T12:50:45Z</time>
      </trkpt>
      <trkpt lat="44.48371" lon="5.22098">
        <ele>722.8</ele>
        <time>2022-04-28T12:51:02Z</time>
      </trkpt>
      <trkpt lat="44.48356" lon="5.22103">
        <ele>724.2</ele>
        <time>2022-04-28T12:51:18Z</time>
      </trkpt>
      <trkpt lat="44.48344" lon="5.22103">
        <ele>725.6</ele>
        <time>2022-04-28T12:51:31Z</time>
      </trkpt>
      <trkpt lat="44.4833" lon="5.22105">
        <ele>726.8</ele>
        <time>2022-04-28T12:51:45Z</time>
      </trkpt>
      <trkpt lat="44.48326" lon="5.22107">
        <ele>727.8</ele>
        <time>2022-04-28T12:51:59Z</time>
      </trkpt>
      <trkpt lat="44.48324" lon="5.22114">
        <ele>728.6</ele>
        <time>2022-04-28T12:52:14Z</time>
      </trkpt>
      <trkpt lat="44.48316" lon="5.22125">
        <ele>729.4</ele>
        <time>2022-04-28T12:52:32Z</time>
      </trkpt>
      <trkpt lat="44.48314" lon="5.22128">
        <ele>730.2</ele>
        <time>2022-04-28T12:52:50Z</time>
      </trkpt>
      <trkpt lat="44.48314" lon="5.22126">
        <ele>730.2</ele>
        <time>2022-04-28T12:53:02Z</time>
      </trkpt>
      <trkpt lat="44.48323" lon="5.22121">
        <ele>730</ele>
        <time>2022-04-28T12:53:25Z</time>
      </trkpt>
      <trkpt lat="44.48331" lon="5.22117">
        <ele>729</ele>
        <time>2022-04-28T12:53:49Z</time>
      </trkpt>
      <trkpt lat="44.48328" lon="5.22116">
        <ele>729</ele>
        <time>2022-04-28T12:54:26Z</time>
      </trkpt>
      <trkpt lat="44.48332" lon="5.22109">
        <ele>728.4</ele>
        <time>2022-04-28T12:54:56Z</time>
      </trkpt>
      <trkpt lat="44.48337" lon="5.22104">
        <ele>727.6</ele>
        <time>2022-04-28T12:55:11Z</time>
      </trkpt>
      <trkpt lat="44.48344" lon="5.22104">
        <ele>727.2</ele>
        <time>2022-04-28T12:55:24Z</time>
      </trkpt>
      <trkpt lat="44.48364" lon="5.22106">
        <ele>725.4</ele>
        <time>2022-04-28T12:55:43Z</time>
      </trkpt>
      <trkpt lat="44.48372" lon="5.22106">
        <ele>724.2</ele>
        <time>2022-04-28T12:55:54Z</time>
      </trkpt>
      <trkpt lat="44.48379" lon="5.22104">
        <ele>723.8</ele>
        <time>2022-04-28T12:56:26Z</time>
      </trkpt>
      <trkpt lat="44.48386" lon="5.22106">
        <ele>724</ele>
        <time>2022-04-28T12:56:53Z</time>
      </trkpt>
      <trkpt lat="44.48399" lon="5.22103">
        <ele>722.6</ele>
        <time>2022-04-28T12:57:11Z</time>
      </trkpt>
      <trkpt lat="44.48399" lon="5.22103">
        <ele>722.4</ele>
        <time>2022-04-28T12:57:15Z</time>
      </trkpt>
      <trkpt lat="44.48417" lon="5.22105">
        <ele>721.2</ele>
        <time>2022-04-28T12:57:34Z</time>
      </trkpt>
      <trkpt lat="44.48434" lon="5.22113">
        <ele>720.2</ele>
        <time>2022-04-28T12:57:52Z</time>
      </trkpt>
      <trkpt lat="44.48453" lon="5.2212">
        <ele>719</ele>
        <time>2022-04-28T12:58:08Z</time>
      </trkpt>
      <trkpt lat="44.48454" lon="5.22114">
        <ele>718.6</ele>
        <time>2022-04-28T12:58:22Z</time>
      </trkpt>
      <trkpt lat="44.48468" lon="5.22115">
        <ele>718.2</ele>
        <time>2022-04-28T12:58:39Z</time>
      </trkpt>
      <trkpt lat="44.48461" lon="5.22123">
        <ele>718</ele>
        <time>2022-04-28T12:58:49Z</time>
      </trkpt>
      <trkpt lat="44.48457" lon="5.22129">
        <ele>717.8</ele>
        <time>2022-04-28T12:59:03Z</time>
      </trkpt>
      <trkpt lat="44.48465" lon="5.22115">
        <ele>717.8</ele>
        <time>2022-04-28T12:59:14Z</time>
      </trkpt>
      <trkpt lat="44.48467" lon="5.22111">
        <ele>718</ele>
        <time>2022-04-28T12:59:20Z</time>
      </trkpt>
      <trkpt lat="44.48469" lon="5.221">
        <ele>718</ele>
        <time>2022-04-28T12:59:25Z</time>
      </trkpt>
      <trkpt lat="44.48467" lon="5.22091">
        <ele>718</ele>
        <time>2022-04-28T12:59:31Z</time>
      </trkpt>
      <trkpt lat="44.48464" lon="5.22067">
        <ele>717.8</ele>
        <time>2022-04-28T12:59:46Z</time>
      </trkpt>
      <trkpt lat="44.48473" lon="5.22057">
        <ele>717.8</ele>
        <time>2022-04-28T12:59:54Z</time>
      </trkpt>
      <trkpt lat="44.48475" lon="5.2205">
        <ele>718</ele>
        <time>2022-04-28T13:00:00Z</time>
      </trkpt>
      <trkpt lat="44.48479" lon="5.22046">
        <ele>718.2</ele>
        <time>2022-04-28T13:00:04Z</time>
      </trkpt>
      <trkpt lat="44.48482" lon="5.2204">
        <ele>718.4</ele>
        <time>2022-04-28T13:00:10Z</time>
      </trkpt>
      <trkpt lat="44.48478" lon="5.22015">
        <ele>719.6</ele>
        <time>2022-04-28T13:00:26Z</time>
      </trkpt>
      <trkpt lat="44.48477" lon="5.22012">
        <ele>719.6</ele>
        <time>2022-04-28T13:00:29Z</time>
      </trkpt>
      <trkpt lat="44.48478" lon="5.22011">
        <ele>719.6</ele>
        <time>2022-04-28T13:00:32Z</time>
      </trkpt>
      <trkpt lat="44.48483" lon="5.21998">
        <ele>718.6</ele>
        <time>2022-04-28T13:00:45Z</time>
      </trkpt>
      <trkpt lat="44.48486" lon="5.21976">
        <ele>717.4</ele>
        <time>2022-04-28T13:00:59Z</time>
      </trkpt>
      <trkpt lat="44.48483" lon="5.21954">
        <ele>716.8</ele>
        <time>2022-04-28T13:01:14Z</time>
      </trkpt>
      <trkpt lat="44.4848" lon="5.21929">
        <ele>715.8</ele>
        <time>2022-04-28T13:01:32Z</time>
      </trkpt>
      <trkpt lat="44.48486" lon="5.21904">
        <ele>714.4</ele>
        <time>2022-04-28T13:01:51Z</time>
      </trkpt>
      <trkpt lat="44.48492" lon="5.21884">
        <ele>713.2</ele>
        <time>2022-04-28T13:02:06Z</time>
      </trkpt>
      <trkpt lat="44.48494" lon="5.21878">
        <ele>713</ele>
        <time>2022-04-28T13:02:10Z</time>
      </trkpt>
      <trkpt lat="44.48487" lon="5.21851">
        <ele>712.2</ele>
        <time>2022-04-28T13:02:28Z</time>
      </trkpt>
      <trkpt lat="44.48467" lon="5.2184">
        <ele>710.6</ele>
        <time>2022-04-28T13:02:46Z</time>
      </trkpt>
      <trkpt lat="44.48448" lon="5.21853">
        <ele>709.2</ele>
        <time>2022-04-28T13:03:06Z</time>
      </trkpt>
      <trkpt lat="44.48431" lon="5.21868">
        <ele>707.8</ele>
        <time>2022-04-28T13:03:23Z</time>
      </trkpt>
      <trkpt lat="44.48412" lon="5.21878">
        <ele>706.4</ele>
        <time>2022-04-28T13:03:42Z</time>
      </trkpt>
      <trkpt lat="44.48389" lon="5.21882">
        <ele>705</ele>
        <time>2022-04-28T13:04:03Z</time>
      </trkpt>
      <trkpt lat="44.48369" lon="5.21891">
        <ele>703.8</ele>
        <time>2022-04-28T13:04:22Z</time>
      </trkpt>
      <trkpt lat="44.48353" lon="5.21903">
        <ele>702.6</ele>
        <time>2022-04-28T13:04:41Z</time>
      </trkpt>
      <trkpt lat="44.48336" lon="5.21918">
        <ele>701.8</ele>
        <time>2022-04-28T13:05:01Z</time>
      </trkpt>
      <trkpt lat="44.48323" lon="5.21928">
        <ele>700.8</ele>
        <time>2022-04-28T13:05:17Z</time>
      </trkpt>
      <trkpt lat="44.48305" lon="5.21943">
        <ele>699.8</ele>
        <time>2022-04-28T13:05:37Z</time>
      </trkpt>
      <trkpt lat="44.48295" lon="5.21951">
        <ele>699.2</ele>
        <time>2022-04-28T13:05:48Z</time>
      </trkpt>
      <trkpt lat="44.48279" lon="5.2196">
        <ele>698.2</ele>
        <time>2022-04-28T13:06:06Z</time>
      </trkpt>
      <trkpt lat="44.48272" lon="5.21962">
        <ele>697.6</ele>
        <time>2022-04-28T13:06:12Z</time>
      </trkpt>
      <trkpt lat="44.48257" lon="5.21963">
        <ele>696.8</ele>
        <time>2022-04-28T13:06:28Z</time>
      </trkpt>
      <trkpt lat="44.48256" lon="5.21963">
        <ele>696.8</ele>
        <time>2022-04-28T13:06:29Z</time>
      </trkpt>
      <trkpt lat="44.48235" lon="5.21966">
        <ele>695.8</ele>
        <time>2022-04-28T13:06:49Z</time>
      </trkpt>
      <trkpt lat="44.48214" lon="5.21963">
        <ele>694.6</ele>
        <time>2022-04-28T13:07:10Z</time>
      </trkpt>
      <trkpt lat="44.48203" lon="5.21957">
        <ele>693.8</ele>
        <time>2022-04-28T13:07:26Z</time>
      </trkpt>
      <trkpt lat="44.48201" lon="5.21955">
        <ele>693.6</ele>
        <time>2022-04-28T13:07:34Z</time>
      </trkpt>
      <trkpt lat="44.48186" lon="5.21937">
        <ele>692.4</ele>
        <time>2022-04-28T13:07:53Z</time>
      </trkpt>
      <trkpt lat="44.48174" lon="5.21923">
        <ele>691.2</ele>
        <time>2022-04-28T13:08:10Z</time>
      </trkpt>
      <trkpt lat="44.4816" lon="5.21916">
        <ele>690</ele>
        <time>2022-04-28T13:08:27Z</time>
      </trkpt>
      <trkpt lat="44.48139" lon="5.21909">
        <ele>689</ele>
        <time>2022-04-28T13:08:49Z</time>
      </trkpt>
      <trkpt lat="44.48122" lon="5.21905">
        <ele>688.2</ele>
        <time>2022-04-28T13:09:07Z</time>
      </trkpt>
      <trkpt lat="44.48105" lon="5.219">
        <ele>687.8</ele>
        <time>2022-04-28T13:09:25Z</time>
      </trkpt>
      <trkpt lat="44.4809" lon="5.21897">
        <ele>687</ele>
        <time>2022-04-28T13:09:42Z</time>
      </trkpt>
      <trkpt lat="44.48085" lon="5.21897">
        <ele>686.6</ele>
        <time>2022-04-28T13:09:53Z</time>
      </trkpt>
      <trkpt lat="44.4808" lon="5.21895">
        <ele>686.2</ele>
        <time>2022-04-28T13:10:06Z</time>
      </trkpt>
      <trkpt lat="44.48063" lon="5.21892">
        <ele>685.6</ele>
        <time>2022-04-28T13:10:22Z</time>
      </trkpt>
      <trkpt lat="44.48061" lon="5.21888">
        <ele>684.8</ele>
        <time>2022-04-28T13:10:32Z</time>
      </trkpt>
      <trkpt lat="44.48044" lon="5.21884">
        <ele>684.4</ele>
        <time>2022-04-28T13:10:48Z</time>
      </trkpt>
      <trkpt lat="44.48029" lon="5.21882">
        <ele>683.4</ele>
        <time>2022-04-28T13:11:02Z</time>
      </trkpt>
      <trkpt lat="44.48014" lon="5.21882">
        <ele>682.8</ele>
        <time>2022-04-28T13:11:17Z</time>
      </trkpt>
      <trkpt lat="44.47998" lon="5.21886">
        <ele>681.4</ele>
        <time>2022-04-28T13:11:37Z</time>
      </trkpt>
      <trkpt lat="44.47983" lon="5.21887">
        <ele>681</ele>
        <time>2022-04-28T13:11:53Z</time>
      </trkpt>
      <trkpt lat="44.47968" lon="5.21886">
        <ele>679.8</ele>
        <time>2022-04-28T13:12:09Z</time>
      </trkpt>
      <trkpt lat="44.47945" lon="5.2189">
        <ele>678.8</ele>
        <time>2022-04-28T13:12:31Z</time>
      </trkpt>
      <trkpt lat="44.47925" lon="5.21894">
        <ele>677.6</ele>
        <time>2022-04-28T13:12:50Z</time>
      </trkpt>
      <trkpt lat="44.47908" lon="5.219">
        <ele>676.8</ele>
        <time>2022-04-28T13:13:05Z</time>
      </trkpt>
      <trkpt lat="44.47902" lon="5.21901">
        <ele>676.6</ele>
        <time>2022-04-28T13:13:10Z</time>
      </trkpt>
      <trkpt lat="44.47884" lon="5.21903">
        <ele>676</ele>
        <time>2022-04-28T13:13:26Z</time>
      </trkpt>
      <trkpt lat="44.47866" lon="5.21896">
        <ele>675</ele>
        <time>2022-04-28T13:13:41Z</time>
      </trkpt>
      <trkpt lat="44.47847" lon="5.21886">
        <ele>674</ele>
        <time>2022-04-28T13:13:57Z</time>
      </trkpt>
      <trkpt lat="44.47842" lon="5.21883">
        <ele>673.8</ele>
        <time>2022-04-28T13:14:04Z</time>
      </trkpt>
      <trkpt lat="44.47838" lon="5.2188">
        <ele>673.6</ele>
        <time>2022-04-28T13:14:08Z</time>
      </trkpt>
      <trkpt lat="44.47825" lon="5.21867">
        <ele>672.6</ele>
        <time>2022-04-28T13:14:23Z</time>
      </trkpt>
      <trkpt lat="44.47817" lon="5.21865">
        <ele>672</ele>
        <time>2022-04-28T13:14:30Z</time>
      </trkpt>
      <trkpt lat="44.47811" lon="5.21886">
        <ele>671</ele>
        <time>2022-04-28T13:14:42Z</time>
      </trkpt>
      <trkpt lat="44.47806" lon="5.21904">
        <ele>669.2</ele>
        <time>2022-04-28T13:14:58Z</time>
      </trkpt>
      <trkpt lat="44.47804" lon="5.21922">
        <ele>667.6</ele>
        <time>2022-04-28T13:15:14Z</time>
      </trkpt>
      <trkpt lat="44.47802" lon="5.21934">
        <ele>665.8</ele>
        <time>2022-04-28T13:15:29Z</time>
      </trkpt>
      <trkpt lat="44.478" lon="5.21934">
        <ele>665.8</ele>
        <time>2022-04-28T13:15:31Z</time>
      </trkpt>
      <trkpt lat="44.47798" lon="5.21955">
        <ele>664.8</ele>
        <time>2022-04-28T13:15:47Z</time>
      </trkpt>
      <trkpt lat="44.47795" lon="5.21975">
        <ele>663.6</ele>
        <time>2022-04-28T13:16:02Z</time>
      </trkpt>
      <trkpt lat="44.47785" lon="5.2199">
        <ele>662.6</ele>
        <time>2022-04-28T13:16:17Z</time>
      </trkpt>
      <trkpt lat="44.47784" lon="5.2199">
        <ele>662.6</ele>
        <time>2022-04-28T13:16:19Z</time>
      </trkpt>
      <trkpt lat="44.47772" lon="5.21996">
        <ele>661.2</ele>
        <time>2022-04-28T13:16:35Z</time>
      </trkpt>
      <trkpt lat="44.47757" lon="5.21991">
        <ele>660.6</ele>
        <time>2022-04-28T13:16:48Z</time>
      </trkpt>
      <trkpt lat="44.47751" lon="5.2201">
        <ele>660.6</ele>
        <time>2022-04-28T13:16:58Z</time>
      </trkpt>
      <trkpt lat="44.47755" lon="5.22037">
        <ele>660.8</ele>
        <time>2022-04-28T13:17:11Z</time>
      </trkpt>
      <trkpt lat="44.47764" lon="5.22059">
        <ele>660.4</ele>
        <time>2022-04-28T13:17:25Z</time>
      </trkpt>
      <trkpt lat="44.47777" lon="5.22073">
        <ele>661</ele>
        <time>2022-04-28T13:17:38Z</time>
      </trkpt>
      <trkpt lat="44.47778" lon="5.22076">
        <ele>661.2</ele>
        <time>2022-04-28T13:17:41Z</time>
      </trkpt>
      <trkpt lat="44.47778" lon="5.22084">
        <ele>661.4</ele>
        <time>2022-04-28T13:17:49Z</time>
      </trkpt>
      <trkpt lat="44.47786" lon="5.22097">
        <ele>661.8</ele>
        <time>2022-04-28T13:18:00Z</time>
      </trkpt>
      <trkpt lat="44.47797" lon="5.22114">
        <ele>662.4</ele>
        <time>2022-04-28T13:18:15Z</time>
      </trkpt>
      <trkpt lat="44.47799" lon="5.22124">
        <ele>663.2</ele>
        <time>2022-04-28T13:18:31Z</time>
      </trkpt>
      <trkpt lat="44.47807" lon="5.22128">
        <ele>663.6</ele>
        <time>2022-04-28T13:18:45Z</time>
      </trkpt>
      <trkpt lat="44.47806" lon="5.22126">
        <ele>663.6</ele>
        <time>2022-04-28T13:19:02Z</time>
      </trkpt>
      <trkpt lat="44.47806" lon="5.22126">
        <ele>663.6</ele>
        <time>2022-04-28T13:19:11Z</time>
      </trkpt>
    </trkseg>
  </trk>
</gpx>